Provisional Data: South Branch Tunkhannock Creek near La Plume, PA


Please select a monitoring station.
Please select start date.
Please select start date.

Toggle Unit: C/F Toggle Unit: C/F
Sample Time Temperature (C) Temperature (F) Specific Conductivity (mS/cm) pH   Turbidity (NTU+) DO (mg/L)
5/4/2021 12:00:00 AM 13.69 56.642 0.271 7.13 3.22 9.17
5/4/2021 12:15:00 AM 13.67 56.606 0.27 7.12 3.56 9.03
5/4/2021 12:30:00 AM 13.65 56.57 0.271 7.13 4.28 9.17
5/4/2021 12:45:00 AM 13.63 56.534 0.27 7.13 3.16 9.07
5/4/2021 1:00:00 AM 13.61 56.498 0.27 7.12 3.02 9.18
5/4/2021 1:15:00 AM 13.59 56.462 0.27 7.13 2.74 9.2
5/4/2021 1:30:00 AM 13.57 56.426 0.27 7.12 2.93 9.17
5/4/2021 1:45:00 AM 13.56 56.408 0.27 7.12 2.99 9.2
5/4/2021 2:00:00 AM 13.54 56.372 0.27 7.13 2.67 9.18
5/4/2021 2:15:00 AM 13.52 56.336 0.27 7.12 2.66 9.21
5/4/2021 2:30:00 AM 13.51 56.318 0.27 7.12 2.91 9.21
5/4/2021 2:45:00 AM 13.49 56.282 0.27 7.12 3.17 9.11
5/4/2021 3:00:00 AM 13.48 56.264 0.27 7.11 2.9 9.09
5/4/2021 3:15:00 AM 13.47 56.246 0.271 7.14 3.26 9.28
5/4/2021 3:30:00 AM 13.45 56.21 0.272 7.13 2.65 9.2
5/4/2021 3:45:00 AM 13.43 56.174 0.272 7.13 2.62 9.16
5/4/2021 4:00:00 AM 13.42 56.156 0.272 7.14 2.85 9.31
5/4/2021 4:15:00 AM 13.4 56.12 0.272 7.14 2.91 9.3
5/4/2021 4:30:00 AM 13.39 56.102 0.273 7.12 3.19 9.21
5/4/2021 4:45:00 AM 13.37 56.066 0.273 7.14 2.58 9.29
5/4/2021 5:00:00 AM 13.36 56.048 0.273 7.13 2.64 9.26
5/4/2021 5:15:00 AM 13.34 56.012 0.273 7.12 2.6 9.27
5/4/2021 5:30:00 AM 13.33 55.994 0.273 7.14 2.71 9.32
5/4/2021 5:45:00 AM 13.32 55.976 0.273 7.13 2.66 9.31
5/4/2021 6:00:00 AM 13.31 55.958 0.273 7.14 2.67 9.21
5/4/2021 6:15:00 AM 13.29 55.922 0.273 7.13 2.8 9.16
5/4/2021 6:30:00 AM 13.28 55.904 0.273 7.15 3.12 9.37
5/4/2021 6:45:00 AM 13.28 55.904 0.273 7.15 2.5 9.39
5/4/2021 7:00:00 AM 13.28 55.904 0.273 7.17 3.1 9.45
5/4/2021 7:15:00 AM 13.29 55.922 0.273 7.19 2.45 9.49
5/4/2021 7:30:00 AM 13.31 55.958 0.273 7.22 2.42 9.73
5/4/2021 7:45:00 AM 13.33 55.994 0.273 7.24 3.59 9.77
5/4/2021 8:00:00 AM 13.34 56.012 0.273 7.27 2.58 9.91
5/4/2021 8:15:00 AM 13.36 56.048 0.273 7.28 6.08 9.92
5/4/2021 8:30:00 AM 13.4 56.12 0.273 7.33 2.35 10.2
5/4/2021 8:45:00 AM 13.43 56.174 0.273 7.38 2.51 10.33
5/4/2021 9:00:00 AM 13.44 56.192 0.274 7.36 3.08 10.21
5/4/2021 9:15:00 AM 13.45 56.21 0.274 7.35 3.82 10.2
5/4/2021 9:30:00 AM 13.51 56.318 0.273 7.42 2.77 10.48
5/4/2021 9:45:00 AM 13.66 56.588 0.273 7.54 3.64 10.79
5/4/2021 10:00:00 AM 13.77 56.786 0.273 7.64 2.99 11.08
5/4/2021 10:15:00 AM 13.87 56.966 0.273 7.74 3.11 11.2
5/4/2021 10:30:00 AM 13.96 57.128 0.273 7.82 2.82 11.33
5/4/2021 10:45:00 AM 14.13 57.434 0.272 7.96 2.84 11.49
5/4/2021 11:00:00 AM 14.39 57.902 0.272 8.07 2.73 11.58
5/4/2021 11:15:00 AM 14.64 58.352 0.272 8.07 3.05 11.48
5/4/2021 11:30:00 AM 14.71 58.478 0.272 8.14 2.67 11.61
5/4/2021 11:45:00 AM 14.88 58.784 0.272 8.21 2.56 11.56
5/4/2021 12:00:00 PM 15.15 59.27 0.272 8.3 2.43 11.61
5/4/2021 12:15:00 PM 15.38 59.684 0.272 8.35 2.56 11.63
5/4/2021 12:30:00 PM 15.57 60.026 0.273 8.38 2.48 11.65
5/4/2021 12:45:00 PM 15.64 60.152 0.273 8.41 2.49 11.59
5/4/2021 1:00:00 PM 15.93 60.674 0.273 8.44 2.43 11.57
5/4/2021 1:15:00 PM 16.08 60.944 0.273 8.45 2.64 11.25
5/4/2021 1:30:00 PM 16.23 61.214 0.272 8.43 2.65 11.17
5/4/2021 1:45:00 PM 16.49 61.682 0.272 8.47 2.57 11.22
5/4/2021 2:00:00 PM 16.81 62.258 0.272 8.51 2.64 11.22
5/4/2021 2:15:00 PM 17.08 62.744 0.272 8.53 2.49 11.19
5/4/2021 2:30:00 PM 17.3 63.14 0.272 8.54 2.72 11.19
5/4/2021 2:45:00 PM 17.49 63.482 0.272 8.56 2.58 11.24
5/4/2021 3:00:00 PM 17.68 63.824 0.272 8.56 2.54 11.1
5/4/2021 3:15:00 PM 17.71 63.878 0.271 8.5 2.77 10.98
5/4/2021 3:30:00 PM 17.83 64.094 0.271 8.52 3.56 10.99
5/4/2021 3:45:00 PM 17.92 64.256 0.271 8.54 2.82 11.03
5/4/2021 4:00:00 PM 17.89 64.202 0.271 8.45 2.72 10.71
5/4/2021 4:15:00 PM 17.83 64.094 0.271 8.29 2.73 10.37
5/4/2021 4:30:00 PM 17.82 64.076 0.271 8.2 2.87 10.12
5/4/2021 4:45:00 PM 17.77 63.986 0.271 7.97 3.08 9.69
5/4/2021 5:00:00 PM 17.77 63.986 0.271 8.05 4.98 9.97
5/4/2021 5:15:00 PM 17.8 64.04 0.271 8.01 2.66 9.96
5/4/2021 5:30:00 PM 17.76 63.968 0.271 7.89 3.18 9.8
5/4/2021 5:45:00 PM 17.71 63.878 0.272 7.74 3.3 9.62
5/4/2021 6:00:00 PM 17.65 63.77 0.272 7.65 3.11 9.47
5/4/2021 6:15:00 PM 17.57 63.626 0.272 7.53 2.69 9.23
5/4/2021 6:30:00 PM 17.49 63.482 0.272 7.46 2.94 9.14
5/4/2021 6:45:00 PM 17.43 63.374 0.272 7.4 2.69 9.08
5/4/2021 7:00:00 PM 17.32 63.176 0.272 7.33 2.79 8.93
5/4/2021 7:15:00 PM 17.24 63.032 0.272 7.26 2.88 8.75
5/4/2021 7:30:00 PM 17.13 62.834 0.272 7.2 2.69 8.66
5/4/2021 7:45:00 PM 17.03 62.654 0.271 7.17 2.69 8.52
5/4/2021 8:00:00 PM 16.92 62.456 0.271 7.12 2.91 8.43
5/4/2021 8:15:00 PM 16.81 62.258 0.27 7.1 3.06 8.38
5/4/2021 8:30:00 PM 16.71 62.078 0.27 7.08 3.46 8.35
5/4/2021 8:45:00 PM 16.6 61.88 0.268 7.07 3.67 8.44
5/4/2021 9:00:00 PM 16.48 61.664 0.268 7.05 4.56 8.42
5/4/2021 9:15:00 PM 16.35 61.43 0.268 7.05 3.99 8.46
5/4/2021 9:30:00 PM 16.23 61.214 0.268 7.04 5.92 8.45
5/4/2021 9:45:00 PM 16.12 61.016 0.27 7.01 4.54 8.43
5/4/2021 10:00:00 PM 16.03 60.854 0.275 7.03 4.43 8.45
5/4/2021 10:15:00 PM 15.98 60.764 0.289 7.06 6.96 8.46
5/4/2021 10:30:00 PM 16.06 60.908 0.319 7.08 44.33 8.34
5/4/2021 10:45:00 PM 16.15 61.07 0.3 7.04 529.67 8.31
5/4/2021 11:00:00 PM 16.29 61.322 0.246 7 241.08 8.51
5/4/2021 11:15:00 PM 16.16 61.088 0.229 6.88 397.11 8.73
5/4/2021 11:30:00 PM 16.04 60.872 0.275 6.85 388.4 8.77
5/4/2021 11:45:00 PM 15.97 60.746 0.25 6.84 521.57 8.87
5/5/2021 12:00:00 AM 15.96 60.728 0.18 6.84 485.3 8.94
5/5/2021 12:15:00 AM 15.97 60.746 0.18 6.81 478.93 8.67
5/5/2021 12:30:00 AM 15.97 60.746 0.156 6.73 624.76 9.01
5/5/2021 12:45:00 AM 15.96 60.728 0.151 6.75 357.26 9.07
5/5/2021 1:00:00 AM 15.95 60.71 0.15 6.72 320.25 9.03
5/5/2021 1:15:00 AM 15.92 60.656 0.136 6.72 239.47 9.2
5/5/2021 1:30:00 AM 15.86 60.548 0.114 6.73 248.41 9.23
5/5/2021 1:45:00 AM 15.79 60.422 0.179 6.71 236.22 9.25
5/5/2021 2:00:00 AM 15.71 60.278 0.181 6.77 188.12 9.29
5/5/2021 2:15:00 AM 15.65 60.17 0.184 6.75 274.29 9.32
5/5/2021 2:30:00 AM 15.61 60.098 0.187 6.77 124.29 9.32
5/5/2021 2:45:00 AM 15.58 60.044 0.191 6.8 104.63 9.35
5/5/2021 3:00:00 AM 15.51 59.918 0.194 6.81 136.1 9.37
5/5/2021 3:15:00 AM 15.42 59.756 0.196 6.83 102.54 9.4
5/5/2021 3:30:00 AM 15.31 59.558 0.198 6.83 89.81 9.44
5/5/2021 3:45:00 AM 15.17 59.306 0.201 6.82 90.84 9.48
5/5/2021 4:00:00 AM 15 59 0.203 6.84 112.71 9.53
5/5/2021 4:15:00 AM 14.84 58.712 0.205 6.84 78.29 9.59
5/5/2021 4:30:00 AM 14.7 58.46 0.207 6.82 60.18 9.62
5/5/2021 4:45:00 AM 14.58 58.244 0.209 6.87 62.24 9.67
5/5/2021 5:00:00 AM 14.5 58.1 0.211 6.88 54.59 9.71
5/5/2021 5:15:00 AM 14.45 58.01 0.213 6.92 59.22 9.73
5/5/2021 5:30:00 AM 14.43 57.974 0.214 6.96 41.35 9.73
5/5/2021 5:45:00 AM 14.42 57.956 0.216 6.97 55.04 9.75
5/5/2021 6:00:00 AM 14.41 57.938 0.217 6.99 41.79 9.75
5/5/2021 6:15:00 AM 14.4 57.92 0.218 6.99 35.55 9.76
5/5/2021 6:30:00 AM 14.39 57.902 0.219 6.99 30.64 9.77
5/5/2021 6:45:00 AM 14.38 57.884 0.22 7.01 28.58 9.78
5/5/2021 7:00:00 AM 14.36 57.848 0.221 7 23.53 9.8
5/5/2021 7:15:00 AM 14.34 57.812 0.222 7.02 18.48 9.81
5/5/2021 7:30:00 AM 14.33 57.794 0.223 7.02 21.91 9.82
5/5/2021 7:45:00 AM 14.32 57.776 0.224 7.04 23.59 9.83
5/5/2021 8:00:00 AM 14.32 57.776 0.222 7.05 22.62 9.85
5/5/2021 8:15:00 AM 14.33 57.794 0.226 7.07 19.35 9.86
5/5/2021 8:30:00 AM 14.35 57.83 0.227 7.09 18.17 9.89
5/5/2021 8:45:00 AM 14.37 57.866 0.227 7.1 18.08 9.89
5/5/2021 9:00:00 AM 14.38 57.884 0.227 7.1 16.21 9.88
5/5/2021 9:15:00 AM 14.39 57.902 0.228 7.11 19.64 9.87
5/5/2021 9:30:00 AM 14.4 57.92 0.228 7.11 21.61 9.87
5/5/2021 9:45:00 AM 14.41 57.938 0.228 7.11 21.19 9.88
5/5/2021 10:00:00 AM 14.44 57.992 0.228 7.13 27.33 9.87
5/5/2021 10:15:00 AM 14.48 58.064 0.228 7.13 25.05 9.85
5/5/2021 10:30:00 AM 14.52 58.136 0.228 7.13 20.87 9.85
5/5/2021 10:45:00 AM 14.55 58.19 0.228 7.14 21.99 9.83
5/5/2021 11:00:00 AM 14.56 58.208 0.228 7.14 22.93 9.84
5/5/2021 11:15:00 AM 14.56 58.208 0.228 7.13 21.19 9.84
5/5/2021 11:30:00 AM 14.55 58.19 0.229 7.14 60.75 9.84
5/5/2021 11:45:00 AM 14.55 58.19 0.229 7.14 21.14 9.84
5/5/2021 12:00:00 PM 14.56 58.208 0.229 7.12 23.64 9.83
5/5/2021 12:15:00 PM 14.55 58.19 0.229 7.13 22.12 9.83
5/5/2021 12:30:00 PM 14.55 58.19 0.228 7.13 22.55 9.82
5/5/2021 12:45:00 PM 14.55 58.19 0.228 7.12 31.32 9.82
5/5/2021 1:00:00 PM 14.55 58.19 0.228 7.13 25.36 9.82
5/5/2021 1:15:00 PM 14.52 58.136 0.226 7.11 23.18 9.82
5/5/2021 1:30:00 PM 14.5 58.1 0.225 7.11 23.45 9.84
5/5/2021 1:45:00 PM 14.49 58.082 0.224 7.09 30.85 9.86
5/5/2021 2:00:00 PM 14.49 58.082 0.224 7.09 32.78 9.86
5/5/2021 2:15:00 PM 14.47 58.046 0.226 7.07 39.14 9.87
5/5/2021 2:30:00 PM 14.45 58.01 0.227 7.08 40.32 9.88
5/5/2021 2:45:00 PM 14.42 57.956 0.226 7.08 48.77 9.89
5/5/2021 3:00:00 PM 14.39 57.902 0.222 7.08 47.02 9.89
5/5/2021 3:15:00 PM 14.37 57.866 0.218 7.04 40.36 9.9
5/5/2021 3:30:00 PM 14.34 57.812 0.215 7.02 41.46 9.91
5/5/2021 3:45:00 PM 14.32 57.776 0.214 7.04 39.96 9.91
5/5/2021 4:00:00 PM 14.3 57.74 0.213 7.03 37.12 9.92
5/5/2021 4:15:00 PM 14.27 57.686 0.213 7.05 44.84 9.93
5/5/2021 4:30:00 PM 14.24 57.632 0.212 7.1 36.99 9.94
5/5/2021 4:45:00 PM 14.21 57.578 0.212 7.11 35.35 9.95
5/5/2021 5:00:00 PM 14.16 57.488 0.212 7.11 43.33 9.96
5/5/2021 5:15:00 PM 14.1 57.38 0.212 7.09 30.06 9.97
5/5/2021 5:30:00 PM 14.02 57.236 0.212 7.07 28.8 9.99
5/5/2021 5:45:00 PM 13.98 57.164 0.212 7.05 30.52 10
5/5/2021 6:00:00 PM 13.95 57.11 0.213 7.07 27.56 10
5/5/2021 6:15:00 PM 13.91 57.038 0.213 7.07 35.47 10.01
5/5/2021 6:30:00 PM 13.89 57.002 0.214 7.08 27.76 10.01
5/5/2021 6:45:00 PM 13.89 57.002 0.214 7.08 26.24 10.01
5/5/2021 7:00:00 PM 13.89 57.002 0.215 7.07 23.35 10
5/5/2021 7:15:00 PM 13.88 56.984 0.215 7.1 27.36 10
5/5/2021 7:30:00 PM 13.88 56.984 0.215 7.11 25.12 10
5/5/2021 7:45:00 PM 13.89 57.002 0.216 7.12 25.28 9.99
5/5/2021 8:00:00 PM 13.9 57.02 0.216 7.13 22.2 9.99
5/5/2021 8:15:00 PM 13.9 57.02 0.216 7.13 21.32 9.99
5/5/2021 8:30:00 PM 13.9 57.02 0.216 7.13 21.38 9.98
5/5/2021 8:45:00 PM 13.9 57.02 0.216 7.13 25.01 9.99
5/5/2021 9:00:00 PM 13.88 56.984 0.217 7.12 27.01 9.99
5/5/2021 9:15:00 PM 13.86 56.948 0.217 7.1 19.96 9.99
5/5/2021 9:30:00 PM 13.83 56.894 0.218 7.13 19.3 10
5/5/2021 9:45:00 PM 13.8 56.84 0.218 7.14 19.18 10.01
5/5/2021 10:00:00 PM 13.77 56.786 0.219 7.13 18.77 10.02
5/5/2021 10:15:00 PM 13.74 56.732 0.219 7.13 18.45 10.02
5/5/2021 10:30:00 PM 13.72 56.696 0.22 7.13 18.36 10.03
5/5/2021 10:45:00 PM 13.7 56.66 0.22 7.14 17.76 10.03
5/5/2021 11:00:00 PM 13.68 56.624 0.221 7.15 18.09 10.04
5/5/2021 11:15:00 PM 13.67 56.606 0.222 7.12 20.83 10.04
5/5/2021 11:30:00 PM 13.65 56.57 0.222 7.13 17.18 10.05
5/5/2021 11:45:00 PM 13.63 56.534 0.222 7.14 16.52 10.05
5/6/2021 12:00:00 AM 13.6 56.48 0.223 7.12 18.63 10.05
5/6/2021 12:15:00 AM 13.57 56.426 0.223 7.14 17.58 10.06
5/6/2021 12:30:00 AM 13.54 56.372 0.223 7.13 16.98 10.07
5/6/2021 12:45:00 AM 13.5 56.3 0.224 7.13 16.62 10.08
5/6/2021 1:00:00 AM 13.47 56.246 0.224 7.14 17.03 10.09
5/6/2021 1:15:00 AM 13.42 56.156 0.224 7.13 17.37 10.09
5/6/2021 1:30:00 AM 13.38 56.084 0.225 7.12 17.96 10.1
5/6/2021 1:45:00 AM 13.34 56.012 0.225 7.13 18.03 10.11
5/6/2021 2:00:00 AM 13.31 55.958 0.225 7.13 16.94 10.11
5/6/2021 2:15:00 AM 13.27 55.886 0.225 7.13 18 10.11
5/6/2021 2:30:00 AM 13.24 55.832 0.225 7.12 19.26 10.12
5/6/2021 2:45:00 AM 13.22 55.796 0.225 7.12 19.39 10.13
5/6/2021 3:00:00 AM 13.21 55.778 0.225 7.13 18.89 10.13
5/6/2021 3:15:00 AM 13.19 55.742 0.225 7.15 17.87 10.14
5/6/2021 3:30:00 AM 13.17 55.706 0.225 7.13 19.06 10.14
5/6/2021 3:45:00 AM 13.14 55.652 0.225 7.14 18.15 10.14
5/6/2021 4:00:00 AM 13.1 55.58 0.224 7.12 19.09 10.15
5/6/2021 4:15:00 AM 13.07 55.526 0.222 7.14 16.93 10.16
5/6/2021 4:30:00 AM 13.03 55.454 0.225 7.14 18.93 10.16
5/6/2021 4:45:00 AM 12.99 55.382 0.225 7.13 18.35 10.18
5/6/2021 5:00:00 AM 12.96 55.328 0.225 7.13 18.51 10.19
5/6/2021 5:15:00 AM 12.93 55.274 0.225 7.12 20.36 10.19
5/6/2021 5:30:00 AM 12.91 55.238 0.225 7.13 18.82 10.2
5/6/2021 5:45:00 AM 12.88 55.184 0.225 7.13 18.73 10.21
5/6/2021 6:00:00 AM 12.85 55.13 0.225 7.12 18.78 10.22
5/6/2021 6:15:00 AM 12.82 55.076 0.226 7.11 23.07 10.22
5/6/2021 6:30:00 AM 12.8 55.04 0.226 7.12 18.41 10.24
5/6/2021 6:45:00 AM 12.78 55.004 0.226 7.14 18.15 10.26
5/6/2021 7:00:00 AM 12.75 54.95 0.226 7.13 18.14 10.27
5/6/2021 7:15:00 AM 12.72 54.896 0.226 7.13 18.24 10.28
5/6/2021 7:30:00 AM 12.72 54.896 0.226 7.12 19.06 10.3
5/6/2021 7:45:00 AM 12.73 54.914 0.226 7.17 18.79 10.32
5/6/2021 8:00:00 AM 12.77 54.986 0.226 7.17 19.37 10.35
5/6/2021 8:15:00 AM 12.79 55.022 0.225 7.2 22.34 10.37
5/6/2021 8:30:00 AM 12.79 55.022 0.127 7.21 19.8 10.38
5/6/2021 8:45:00 AM 12.81 55.058 0.171 7.19 19.39 10.4
5/6/2021 9:00:00 AM 12.81 55.058 0.225 7.18 19.69 10.4
5/6/2021 9:15:00 AM 12.9 55.22 0.224 7.2 17.02 10.43
5/6/2021 9:30:00 AM 12.99 55.382 0.224 7.21 19.45 10.44
5/6/2021 9:45:00 AM 13.09 55.562 0.224 7.23 78.69 10.45
5/6/2021 10:00:00 AM 13.16 55.688 0.223 7.24 19.15 10.46
5/6/2021 10:15:00 AM 13.22 55.796 0.218 7.24 23.06 10.45
5/6/2021 10:30:00 AM 13.29 55.922 0.215 7.25 19.34 10.45
5/6/2021 10:45:00 AM 13.33 55.994 0.21 7.25 17.54 10.44
5/6/2021 11:00:00 AM 13.44 56.192 0.132 7.28 21.51 10.46
5/6/2021 11:15:00 AM 13.56 56.408 0.106 7.27 20.44 10.46
5/6/2021 11:30:00 AM 13.67 56.606 0.111 7.3 22.6 10.45
5/6/2021 11:45:00 AM 13.8 56.84 0.11 7.3 26.38 10.45
5/6/2021 12:00:00 PM 13.94 57.092 0.107 7.32 22.56 10.43
5/6/2021 12:15:00 PM 14.04 57.272 0.107 7.31 24.69 10.41
5/6/2021 12:30:00 PM 14.18 57.524 0.1 7.33 22.76 10.4
5/6/2021 12:45:00 PM 14.31 57.758 0.097 7.34 23.06 10.38
5/6/2021 1:00:00 PM 14.43 57.974 0.095 7.33 23.2 10.38
5/6/2021 1:15:00 PM 14.56 58.208 0.09 7.35 23.74 10.35
5/6/2021 1:30:00 PM 14.7 58.46 0.091 7.34 23.39 10.32
5/6/2021 1:45:00 PM 14.79 58.622 0.09 7.34 24.07 10.29
5/6/2021 2:00:00 PM 14.89 58.802 0.09 7.33 24.71 10.27
5/6/2021 2:15:00 PM 14.94 58.892 0.09 7.33 24.69 10.24
5/6/2021 2:30:00 PM 14.98 58.964 0.09 7.33 24.49 10.22
5/6/2021 2:45:00 PM 15.01 59.018 0.089 7.32 24.36 10.2
5/6/2021 3:00:00 PM 15.01 59.018 0.089 7.3 22.61 10.18
5/6/2021 3:15:00 PM 15.02 59.036 0.089 7.28 23.43 10.16
5/6/2021 3:30:00 PM 15.02 59.036 0.09 7.28 24.59 10.14
5/6/2021 3:45:00 PM 15 59 0.089 7.27 21.11 10.11
5/6/2021 4:00:00 PM 14.95 58.91 0.09 7.25 25.53 10.1
5/6/2021 4:15:00 PM 14.91 58.838 0.091 7.23 23.6 10.07
5/6/2021 4:30:00 PM 14.88 58.784 0.088 7.22 24.13 10.07
5/6/2021 4:45:00 PM 14.84 58.712 0.088 7.2 25.21 10.05
5/6/2021 5:00:00 PM 14.81 58.658 0.089 7.2 21.66 10.05
5/6/2021 5:15:00 PM 14.77 58.586 0.089 7.2 22.46 10.04
5/6/2021 5:30:00 PM 14.7 58.46 0.089 7.19 22.23 10.04
5/6/2021 5:45:00 PM 14.62 58.316 0.09 7.18 22.16 10.02
5/6/2021 6:00:00 PM 14.54 58.172 0.089 7.17 20.9 10.01
5/6/2021 6:15:00 PM 14.46 58.028 0.09 7.16 21.94 10.01
5/6/2021 6:30:00 PM 14.36 57.848 0.091 7.15 21.6 10
5/6/2021 6:45:00 PM 14.27 57.686 0.092 7.14 23.67 10
5/6/2021 7:00:00 PM 14.2 57.56 0.091 7.14 21.06 9.98
5/6/2021 7:15:00 PM 14.13 57.434 0.091 7.13 20.89 9.97
5/6/2021 7:30:00 PM 14.07 57.326 0.092 7.12 20.55 9.95
5/6/2021 7:45:00 PM 14.02 57.236 0.091 7.12 19.6 9.94
5/6/2021 8:00:00 PM 13.97 57.146 0.091 7.11 23.82 9.92
5/6/2021 8:15:00 PM 13.92 57.056 0.091 7.12 21.2 9.92
5/6/2021 8:30:00 PM 13.88 56.984 0.091 7.11 20.69 9.91
5/6/2021 8:45:00 PM 13.87 56.966 0.091 7.11 22.34 9.9
5/6/2021 9:00:00 PM 13.86 56.948 0.091 7.12 24.18 9.88
5/6/2021 9:15:00 PM 13.85 56.93 0.092 7.12 24.29 9.88
5/6/2021 9:30:00 PM 13.85 56.93 0.092 7.12 27.15 9.87
5/6/2021 9:45:00 PM 13.84 56.912 0.092 7.13 30.37 9.86
5/6/2021 10:00:00 PM 13.83 56.894 0.092 7.11 26.26 9.87
5/6/2021 10:15:00 PM 13.8 56.84 0.09 7.11 25.29 9.87
5/6/2021 10:30:00 PM 13.76 56.768 0.09 7.11 21.74 9.88
5/6/2021 10:45:00 PM 13.72 56.696 0.091 7.09 23.06 9.88
5/6/2021 11:00:00 PM 13.67 56.606 0.091 7.1 24.75 9.89
5/6/2021 11:15:00 PM 13.62 56.516 0.09 7.09 23.19 9.91
5/6/2021 11:30:00 PM 13.56 56.408 0.09 7.08 24.21 9.93
5/6/2021 11:45:00 PM 13.48 56.264 0.089 7.07 23.91 9.94
5/7/2021 12:00:00 AM 13.4 56.12 0.089 7.07 23.93 9.96
5/7/2021 12:15:00 AM 13.33 55.994 0.088 7.07 24.93 9.97
5/7/2021 12:30:00 AM 13.26 55.868 0.088 7.07 23.29 9.99
5/7/2021 12:45:00 AM 13.2 55.76 0.088 7.07 25.45 10
5/7/2021 1:00:00 AM 13.13 55.634 0.088 7.07 25.85 10.02
5/7/2021 1:15:00 AM 13.07 55.526 0.087 7.07 22.94 10.03
5/7/2021 1:30:00 AM 13.01 55.418 0.087 7.08 24.12 10.05
5/7/2021 1:45:00 AM 12.95 55.31 0.087 7.07 27.01 10.06
5/7/2021 2:00:00 AM 12.88 55.184 0.087 7.09 29.11 10.07
5/7/2021 2:15:00 AM 12.82 55.076 0.088 7.07 29.39 10.09
5/7/2021 2:30:00 AM 12.75 54.95 0.087 7.06 29.21 10.11
5/7/2021 2:45:00 AM 12.69 54.842 0.088 7.08 32.75 10.12
5/7/2021 3:00:00 AM 12.64 54.752 0.088 7.07 29.49 10.13
5/7/2021 3:15:00 AM 12.58 54.644 0.088 7.08 26.51 10.14
5/7/2021 3:30:00 AM 12.52 54.536 0.088 7.07 27.41 10.16
5/7/2021 3:45:00 AM 12.47 54.446 0.088 7.08 32.38 10.17
5/7/2021 4:00:00 AM 12.41 54.338 0.087 7.08 30.06 10.18
5/7/2021 4:15:00 AM 12.36 54.248 0.088 7.07 23.18 10.2
5/7/2021 4:30:00 AM 12.3 54.14 0.088 7.06 26.28 10.21
5/7/2021 4:45:00 AM 12.24 54.032 0.088 7.07 29.38 10.23
5/7/2021 5:00:00 AM 12.18 53.924 0.088 7.07 28.9 10.25
5/7/2021 5:15:00 AM 12.12 53.816 0.088 7.08 25.88 10.25
5/7/2021 5:30:00 AM 12.06 53.708 0.088 7.08 28.13 10.27
5/7/2021 5:45:00 AM 12.01 53.618 0.089 7.07 25.21 10.28
5/7/2021 6:00:00 AM 11.95 53.51 0.09 7.08 28.8 10.29
5/7/2021 6:15:00 AM 11.9 53.42 0.089 7.08 29.54 10.32
5/7/2021 6:30:00 AM 11.85 53.33 0.089 7.1 26.3 10.34
5/7/2021 6:45:00 AM 11.82 53.276 0.088 7.09 24.72 10.38
5/7/2021 7:00:00 AM 11.8 53.24 0.088 7.12 23.93 10.41
5/7/2021 7:15:00 AM 11.79 53.222 0.088 7.12 25.23 10.45
5/7/2021 7:30:00 AM 11.79 53.222 0.088 7.14 27.56 10.47
5/7/2021 7:45:00 AM 11.81 53.258 0.087 7.16 28.4 10.51
5/7/2021 8:00:00 AM 11.85 53.33 0.087 7.17 29.2 10.54
5/7/2021 8:15:00 AM 11.88 53.384 0.087 7.18 26.45 10.56
5/7/2021 8:30:00 AM 11.93 53.474 0.087 7.2 27.8 10.58
5/7/2021 8:45:00 AM 12 53.6 0.087 7.22 27.97 10.6
5/7/2021 9:00:00 AM 12.08 53.744 0.087 7.23 30.19 10.61
5/7/2021 9:15:00 AM 12.18 53.924 0.087 7.23 30.37 10.62
5/7/2021 9:30:00 AM 12.29 54.122 0.087 7.26 31.78 10.64
5/7/2021 9:45:00 AM 12.43 54.374 0.088 7.27 29.56 10.64
5/7/2021 10:00:00 AM 12.55 54.59 0.088 7.3 28.6 10.64
5/7/2021 10:15:00 AM 12.7 54.86 0.088 7.31 31.62 10.65
5/7/2021 10:30:00 AM 12.87 55.166 0.087 7.33 28.44 10.64
5/7/2021 10:45:00 AM 13.03 55.454 0.087 7.34 26.42 10.63
5/7/2021 11:00:00 AM 13.2 55.76 0.087 7.34 26.49 10.63
5/7/2021 11:15:00 AM 13.32 55.976 0.087 7.36 30.29 10.6
5/7/2021 11:30:00 AM 13.4 56.12 0.087 7.34 27.02 10.56
5/7/2021 11:45:00 AM 13.47 56.246 0.087 7.34 27.02 10.51
5/7/2021 12:00:00 PM 13.52 56.336 0.087 7.33 25.15 10.47
5/7/2021 12:15:00 PM 13.57 56.426 0.087 7.33 32.6 10.44
5/7/2021 12:30:00 PM 13.6 56.48 0.087 7.32 27.94 10.42
5/7/2021 12:45:00 PM 13.65 56.57 0.087 7.31 26.34 10.41
5/7/2021 1:00:00 PM 13.69 56.642 0.087 7.31 27.08 10.4
5/7/2021 1:15:00 PM 13.72 56.696 0.087 7.31 32.45 10.36
5/7/2021 1:30:00 PM 13.75 56.75 0.087 7.31 27.04 10.36
5/7/2021 1:45:00 PM 13.76 56.768 0.087 7.3 27.55 10.34
5/7/2021 2:00:00 PM 13.78 56.804 0.088 7.31 23.37 10.34
5/7/2021 2:15:00 PM 13.77 56.786 0.088 7.29 27.39 10.31
5/7/2021 2:30:00 PM 13.77 56.786 0.088 7.28 28.07 10.28
5/7/2021 2:45:00 PM 13.76 56.768 0.088 7.27 28.3 10.25
5/7/2021 3:00:00 PM 13.78 56.804 0.088 7.27 36.96 10.23
5/7/2021 3:15:00 PM 13.8 56.84 0.087 7.29 29.84 10.25
5/7/2021 3:30:00 PM 13.82 56.876 0.087 7.28 33.37 10.25
5/7/2021 3:45:00 PM 13.82 56.876 0.087 7.28 30.68 10.24
5/7/2021 4:00:00 PM 13.82 56.876 0.087 7.27 30.82 10.22
5/7/2021 4:15:00 PM 13.82 56.876 0.087 7.26 33.05 10.2
5/7/2021 4:30:00 PM 13.8 56.84 0.087 7.26 32.22 10.18
5/7/2021 4:45:00 PM 13.78 56.804 0.088 7.24 33.18 10.14
5/7/2021 5:00:00 PM 13.76 56.768 0.087 7.24 29.35 10.15
5/7/2021 5:15:00 PM 13.75 56.75 0.087 7.24 27.84 10.16
5/7/2021 5:30:00 PM 13.75 56.75 0.087 7.24 29.22 10.16
5/7/2021 5:45:00 PM 13.75 56.75 0.087 7.24 26.36 10.16
5/7/2021 6:00:00 PM 13.74 56.732 0.087 7.24 28.68 10.15
5/7/2021 6:15:00 PM 13.73 56.714 0.087 7.22 27.8 10.12
5/7/2021 6:30:00 PM 13.71 56.678 0.086 7.23 27.41 10.09
5/7/2021 6:45:00 PM 13.68 56.624 0.086 7.22 26.37 10.06
5/7/2021 7:00:00 PM 13.65 56.57 0.086 7.2 27.62 10.03
5/7/2021 7:15:00 PM 13.62 56.516 0.086 7.19 27.3 10.01
5/7/2021 7:30:00 PM 13.57 56.426 0.086 7.17 28.24 10
5/7/2021 7:45:00 PM 13.52 56.336 0.086 7.15 27.04 9.97
5/7/2021 8:00:00 PM 13.45 56.21 0.086 7.14 28.65 9.97
5/7/2021 8:15:00 PM 13.38 56.084 0.087 7.14 26.47 9.96
5/7/2021 8:30:00 PM 13.31 55.958 0.087 7.13 26.44 9.96
5/7/2021 8:45:00 PM 13.24 55.832 0.087 7.12 28.31 9.97
5/7/2021 9:00:00 PM 13.16 55.688 0.087 7.11 27.35 9.98
5/7/2021 9:15:00 PM 13.09 55.562 0.087 7.11 27 9.99
5/7/2021 9:30:00 PM 13.03 55.454 0.087 7.11 27.95 10
5/7/2021 9:45:00 PM 12.97 55.346 0.087 7.11 27.72 10.01
5/7/2021 10:00:00 PM 12.9 55.22 0.086 7.1 27.63 10.03
5/7/2021 10:15:00 PM 12.85 55.13 0.087 7.1 29.65 10.05
5/7/2021 10:30:00 PM 12.78 55.004 0.087 7.1 28.67 10.06
5/7/2021 10:45:00 PM 12.73 54.914 0.087 7.1 28.09 10.07
5/7/2021 11:00:00 PM 12.69 54.842 0.085 7.11 25.25 10.08
5/7/2021 11:15:00 PM 12.63 54.734 0.085 7.11 29.18 10.09
5/7/2021 11:30:00 PM 12.59 54.662 0.085 7.1 29.47 10.1
5/7/2021 11:45:00 PM 12.56 54.608 0.085 7.11 28.53 10.12
5/8/2021 12:00:00 AM 12.52 54.536 0.085 7.11 31.36 10.12
5/8/2021 12:15:00 AM 12.48 54.464 0.085 7.11 31.12 10.13
5/8/2021 12:30:00 AM 12.45 54.41 0.085 7.12 28.22 10.13
5/8/2021 12:45:00 AM 12.43 54.374 0.085 7.1 28.9 10.14
5/8/2021 1:00:00 AM 12.39 54.302 0.085 7.11 29.91 10.14
5/8/2021 1:15:00 AM 12.36 54.248 0.085 7.12 29.55 10.15
5/8/2021 1:30:00 AM 12.34 54.212 0.085 7.11 29.16 10.15
5/8/2021 1:45:00 AM 12.31 54.158 0.085 7.12 28.83 10.15
5/8/2021 2:00:00 AM 12.28 54.104 0.084 7.12 29.81 10.17
5/8/2021 2:15:00 AM 12.26 54.068 0.084 7.12 28.88 10.17
5/8/2021 2:30:00 AM 12.24 54.032 0.084 7.11 28.04 10.18
5/8/2021 2:45:00 AM 12.22 53.996 0.084 7.12 28.82 10.19
5/8/2021 3:00:00 AM 12.19 53.942 0.084 7.12 29.91 10.18
5/8/2021 3:15:00 AM 12.18 53.924 0.084 7.13 28.44 10.19
5/8/2021 3:30:00 AM 12.16 53.888 0.084 7.12 31.42 10.19
5/8/2021 3:45:00 AM 12.15 53.87 0.084 7.12 27.79 10.19
5/8/2021 4:00:00 AM 12.12 53.816 0.084 7.13 27.56 10.2
5/8/2021 4:15:00 AM 12.1 53.78 0.084 7.11 28.04 10.21
5/8/2021 4:30:00 AM 12.08 53.744 0.083 7.11 27.97 10.21
5/8/2021 4:45:00 AM 12.05 53.69 0.083 7.11 28.94 10.22
5/8/2021 5:00:00 AM 12.02 53.636 0.083 7.11 27.52 10.23
5/8/2021 5:15:00 AM 11.98 53.564 0.084 7.11 29.32 10.24
5/8/2021 5:30:00 AM 11.93 53.474 0.083 7.08 30.79 10.26
5/8/2021 5:45:00 AM 11.88 53.384 0.083 7.09 32.8 10.26
5/8/2021 6:00:00 AM 11.84 53.312 0.084 7.1 30.49 10.28
5/8/2021 6:15:00 AM 11.79 53.222 0.084 7.09 28.08 10.28
5/8/2021 6:30:00 AM 11.75 53.15 0.083 7.09 31.21 10.31
5/8/2021 6:45:00 AM 11.7 53.06 0.083 7.1 29.25 10.33
5/8/2021 7:00:00 AM 11.66 52.988 0.082 7.11 29.68 10.36
5/8/2021 7:15:00 AM 11.62 52.916 0.082 7.1 31.24 10.39
5/8/2021 7:30:00 AM 11.58 52.844 0.081 7.11 31.08 10.44
5/8/2021 7:45:00 AM 11.55 52.79 0.08 7.12 36.38 10.47
5/8/2021 8:00:00 AM 11.52 52.736 0.08 7.11 30.33 10.51
5/8/2021 8:15:00 AM 11.48 52.664 0.08 7.12 40.5 10.54
5/8/2021 8:30:00 AM 11.42 52.556 0.08 7.12 29.83 10.55
5/8/2021 8:45:00 AM 11.39 52.502 0.08 7.13 32.05 10.56
5/8/2021 9:00:00 AM 11.38 52.484 0.081 7.12 33.5 10.59
5/8/2021 9:15:00 AM 11.38 52.484 0.082 7.15 42.08 10.61
5/8/2021 9:30:00 AM 11.4 52.52 0.083 7.16 26.31 10.63
5/8/2021 9:45:00 AM 11.42 52.556 0.084 7.17 23.53 10.63
5/8/2021 10:00:00 AM 11.45 52.61 0.085 7.2 23.47 10.64
5/8/2021 10:15:00 AM 11.48 52.664 0.085 7.19 22.86 10.65
5/8/2021 10:30:00 AM 11.51 52.718 0.084 7.19 19.25 10.66
5/8/2021 10:45:00 AM 11.58 52.844 0.084 7.2 21.44 10.69
5/8/2021 11:00:00 AM 11.65 52.97 0.082 7.23 26.45 10.71
5/8/2021 11:15:00 AM 11.74 53.132 0.083 7.23 20.77 10.74
5/8/2021 11:30:00 AM 11.76 53.168 0.082 7.22 19.05 10.73
5/8/2021 11:45:00 AM 11.82 53.276 0.083 7.23 19.69 10.73
5/8/2021 12:00:00 PM 11.84 53.312 0.083 7.21 22.03 10.7
5/8/2021 12:15:00 PM 11.84 53.312 0.082 7.2 20.2 10.66
5/8/2021 12:30:00 PM 11.87 53.366 0.081 7.2 18.99 10.64
5/8/2021 12:45:00 PM 11.89 53.402 0.081 7.2 19.53 10.63
5/8/2021 1:00:00 PM 11.92 53.456 0.083 7.2 17.58 10.61
5/8/2021 1:15:00 PM 11.94 53.492 0.083 7.22 18.92 10.6
5/8/2021 1:30:00 PM 11.95 53.51 0.083 7.24 19.3 10.63
5/8/2021 1:45:00 PM 11.98 53.564 0.082 7.24 18.9 10.64
5/8/2021 2:00:00 PM 11.99 53.582 0.083 7.22 18.98 10.63
5/8/2021 2:15:00 PM 11.97 53.546 0.083 7.22 20.15 10.62
5/8/2021 2:30:00 PM 11.98 53.564 0.083 7.23 17.75 10.64
5/8/2021 2:45:00 PM 11.97 53.546 0.084 7.22 26.33 10.65
5/8/2021 3:00:00 PM 11.95 53.51 0.084 7.22 19.51 10.64
5/8/2021 3:15:00 PM 11.95 53.51 0.084 7.21 17.26 10.63
5/8/2021 3:30:00 PM 11.92 53.456 0.083 7.2 16.37 10.61
5/8/2021 3:45:00 PM 11.93 53.474 0.082 7.22 20.89 10.62
5/8/2021 4:00:00 PM 11.94 53.492 0.082 7.22 16.47 10.62
5/8/2021 4:15:00 PM 11.96 53.528 0.081 7.22 18.19 10.61
5/8/2021 4:30:00 PM 11.97 53.546 0.08 7.18 21.53 10.58
5/8/2021 4:45:00 PM 11.99 53.582 0.082 7.18 22.76 10.59
5/8/2021 5:00:00 PM 12.04 53.672 0.082 7.2 20.43 10.61
5/8/2021 5:15:00 PM 12.12 53.816 0.081 7.23 20.92 10.63
5/8/2021 5:30:00 PM 12.15 53.87 0.083 7.21 27.93 10.64
5/8/2021 5:45:00 PM 12.19 53.942 0.082 7.23 21.86 10.63
5/8/2021 6:00:00 PM 12.21 53.978 0.082 7.22 22.14 10.61
5/8/2021 6:15:00 PM 12.2 53.96 0.081 7.2 20.33 10.58
5/8/2021 6:30:00 PM 12.23 54.014 0.079 7.22 21.06 10.57
5/8/2021 6:45:00 PM 12.23 54.014 0.078 7.2 18.85 10.56
5/8/2021 7:00:00 PM 12.2 53.96 0.078 7.19 21.95 10.52
5/8/2021 7:15:00 PM 12.16 53.888 0.078 7.17 20.19 10.48
5/8/2021 7:30:00 PM 12.14 53.852 0.079 7.16 17.29 10.46
5/8/2021 7:45:00 PM 12.12 53.816 0.079 7.15 19.23 10.44
5/8/2021 8:00:00 PM 12.08 53.744 0.08 7.14 21.61 10.43
5/8/2021 8:15:00 PM 12.05 53.69 0.079 7.13 18.92 10.41
5/8/2021 8:30:00 PM 12.01 53.618 0.08 7.12 19.11 10.4
5/8/2021 8:45:00 PM 11.98 53.564 0.079 7.11 19.18 10.4
5/8/2021 9:00:00 PM 11.95 53.51 0.079 7.1 24 10.4
5/8/2021 9:15:00 PM 11.92 53.456 0.079 7.1 20.16 10.4
5/8/2021 9:30:00 PM 11.9 53.42 0.079 7.1 23.22 10.4
5/8/2021 9:45:00 PM 11.87 53.366 0.079 7.09 18.53 10.41
5/8/2021 10:00:00 PM 11.84 53.312 0.078 7.1 18.32 10.4
5/8/2021 10:15:00 PM 11.8 53.24 0.078 7.09 21.02 10.41
5/8/2021 10:30:00 PM 11.77 53.186 0.078 7.09 28.85 10.41
5/8/2021 10:45:00 PM 11.73 53.114 0.079 7.09 19.73 10.42
5/8/2021 11:00:00 PM 11.7 53.06 0.079 7.1 16.66 10.43
5/8/2021 11:15:00 PM 11.68 53.024 0.079 7.09 19.19 10.43
5/8/2021 11:30:00 PM 11.65 52.97 0.079 7.09 19.01 10.44
5/8/2021 11:45:00 PM 11.62 52.916 0.079 7.09 20.02 10.45
5/9/2021 12:00:00 AM 11.58 52.844 0.079 7.09 25.22 10.46
5/9/2021 12:15:00 AM 11.55 52.79 0.079 7.08 21.33 10.46
5/9/2021 12:30:00 AM 11.52 52.736 0.08 7.09 21.8 10.48
5/9/2021 12:45:00 AM 11.49 52.682 0.08 7.09 500.7 10.48
5/9/2021 1:00:00 AM 11.45 52.61 0.08 7.07 18.8 10.49
5/9/2021 1:15:00 AM 11.42 52.556 0.081 7.07 21.98 10.5
5/9/2021 1:30:00 AM 11.38 52.484 0.081 7.08 20.44 10.5
5/9/2021 1:45:00 AM 11.34 52.412 0.08 7.09 19.34 10.52
5/9/2021 2:00:00 AM 11.3 52.34 0.08 7.08 20.18 10.53
5/9/2021 2:15:00 AM 11.27 52.286 0.079 7.08 18.84 10.53
5/9/2021 2:30:00 AM 11.22 52.196 0.079 7.08 17.54 10.55
5/9/2021 2:45:00 AM 11.19 52.142 0.078 7.08 19.72 10.56
5/9/2021 3:00:00 AM 11.15 52.07 0.078 7.08 18.92 10.57
5/9/2021 3:15:00 AM 11.12 52.016 0.078 7.08 18 10.57
5/9/2021 3:30:00 AM 11.08 51.944 0.078 7.09 17.23 10.58
5/9/2021 3:45:00 AM 11.05 51.89 0.078 7.09 17.89 10.59
5/9/2021 4:00:00 AM 11.02 51.836 0.078 7.09 17.21 10.6
5/9/2021 4:15:00 AM 10.99 51.782 0.078 7.08 18.46 10.62
5/9/2021 4:30:00 AM 10.96 51.728 0.078 7.08 19.24 10.62
5/9/2021 4:45:00 AM 10.92 51.656 0.078 7.08 19.14 10.61
5/9/2021 5:00:00 AM 10.89 51.602 0.077 7.09 19.64 10.63
5/9/2021 5:15:00 AM 10.86 51.548 0.077 7.08 20.17 10.64
5/9/2021 5:30:00 AM 10.82 51.476 0.077 7.07 21.04 10.65
5/9/2021 5:45:00 AM 10.79 51.422 0.077 7.09 22.32 10.66
5/9/2021 6:00:00 AM 10.76 51.368 0.077 7.09 19.38 10.68
5/9/2021 6:15:00 AM 10.74 51.332 0.077 7.09 19.78 10.7
5/9/2021 6:30:00 AM 10.72 51.296 0.077 7.11 21.67 10.72
5/9/2021 6:45:00 AM 10.71 51.278 0.077 7.11 20.91 10.76
5/9/2021 7:00:00 AM 10.71 51.278 0.077 7.12 19.7 10.79
5/9/2021 7:15:00 AM 10.71 51.278 0.077 7.12 19.55 10.83
5/9/2021 7:30:00 AM 10.72 51.296 0.077 7.14 19.24 10.86
5/9/2021 7:45:00 AM 10.75 51.35 0.077 7.16 21.91 10.9
5/9/2021 8:00:00 AM 10.77 51.386 0.077 7.17 20.49 10.92
5/9/2021 8:15:00 AM 10.81 51.458 0.077 7.18 20.19 10.94
5/9/2021 8:30:00 AM 10.85 51.53 0.076 7.2 20.58 10.95
5/9/2021 8:45:00 AM 10.9 51.62 0.077 7.2 20.37 10.98
5/9/2021 9:00:00 AM 10.98 51.764 0.077 7.22 19.67 11.01
5/9/2021 9:15:00 AM 11.08 51.944 0.077 7.26 17.35 11.03
5/9/2021 9:30:00 AM 11.17 52.106 0.077 7.26 17.15 11.05
5/9/2021 9:45:00 AM 11.25 52.25 0.076 7.27 18.61 11.06
5/9/2021 10:00:00 AM 11.35 52.43 0.077 7.29 17.74 11.07
5/9/2021 10:15:00 AM 11.51 52.718 0.078 7.31 20.3 11.08
5/9/2021 10:30:00 AM 11.64 52.952 0.077 7.32 33.72 11.08
5/9/2021 10:45:00 AM 11.75 53.15 0.078 7.32 43.89 11.07
5/9/2021 11:00:00 AM 11.85 53.33 0.077 7.34 31.14 11.07
5/9/2021 11:15:00 AM 11.98 53.564 0.077 7.36 41.13 11.03
5/9/2021 11:30:00 AM 12.1 53.78 0.077 7.35 20.55 11.02
5/9/2021 11:45:00 AM 12.2 53.96 0.077 7.37 20.09 11
5/9/2021 12:00:00 PM 12.27 54.086 0.077 7.35 42.32 10.97
5/9/2021 12:15:00 PM 12.33 54.194 0.077 7.37 30.91 10.92
5/9/2021 12:30:00 PM 12.39 54.302 0.077 7.36 27.87 10.91
5/9/2021 12:45:00 PM 12.44 54.392 0.077 7.35 28.26 10.88
5/9/2021 1:00:00 PM 12.47 54.446 0.077 7.35 28.65 10.85
5/9/2021 1:15:00 PM 12.49 54.482 0.077 7.32 25.59 10.83
5/9/2021 1:30:00 PM 12.48 54.464 0.077 7.33 23.15 10.79
5/9/2021 1:45:00 PM 12.48 54.464 0.077 7.3 26.05 10.77
5/9/2021 2:00:00 PM 12.46 54.428 0.078 7.3 26.93 10.75
5/9/2021 2:15:00 PM 12.44 54.392 0.078 7.29 23.99 10.71
5/9/2021 2:30:00 PM 12.4 54.32 0.078 7.27 24.27 10.67
5/9/2021 2:45:00 PM 12.36 54.248 0.078 7.24 27.45 10.64
5/9/2021 3:00:00 PM 12.31 54.158 0.078 7.25 21.32 10.61
5/9/2021 3:15:00 PM 12.29 54.122 0.077 7.24 22.37 10.64
5/9/2021 3:30:00 PM 12.26 54.068 0.078 7.23 31.4 10.63
5/9/2021 3:45:00 PM 12.23 54.014 0.078 7.23 20.57 10.63
5/9/2021 4:00:00 PM 12.18 53.924 0.078 7.22 22.78 10.62
5/9/2021 4:15:00 PM 12.13 53.834 0.079 7.19 22.6 10.59
5/9/2021 4:30:00 PM 12.07 53.726 0.079 7.21 23.03 10.57
5/9/2021 4:45:00 PM 12.01 53.618 0.079 7.18 22.23 10.56
5/9/2021 5:00:00 PM 11.94 53.492 0.079 7.17 22.74 10.55
5/9/2021 5:15:00 PM 11.87 53.366 0.079 7.16 21.05 10.54
5/9/2021 5:30:00 PM 11.81 53.258 0.079 7.14 18.9 10.54
5/9/2021 5:45:00 PM 11.73 53.114 0.079 7.14 18.8 10.55
5/9/2021 6:00:00 PM 11.67 53.006 0.079 7.13 20.31 10.55
5/9/2021 6:15:00 PM 11.6 52.88 0.08 7.14 20.11 10.56
5/9/2021 6:30:00 PM 11.53 52.754 0.08 7.13 24.92 10.56
5/9/2021 6:45:00 PM 11.46 52.628 0.08 7.14 21.16 10.56
5/9/2021 7:00:00 PM 11.4 52.52 0.08 7.11 21.26 10.57
5/9/2021 7:15:00 PM 11.33 52.394 0.08 7.11 20.93 10.57
5/9/2021 7:30:00 PM 11.26 52.268 0.08 7.11 20.53 10.56
5/9/2021 7:45:00 PM 11.2 52.16 0.08 7.1 20.61 10.57
5/9/2021 8:00:00 PM 11.15 52.07 0.08 7.11 20.13 10.57
5/9/2021 8:15:00 PM 11.09 51.962 0.08 7.09 22.23 10.57
5/9/2021 8:30:00 PM 11.03 51.854 0.079 7.08 20.79 10.58
5/9/2021 8:45:00 PM 10.97 51.746 0.08 7.09 21.49 10.59
5/9/2021 9:00:00 PM 10.91 51.638 0.08 7.07 24.57 10.59
5/9/2021 9:15:00 PM 10.86 51.548 0.08 7.1 20.32 10.6
5/9/2021 9:30:00 PM 10.8 51.44 0.08 7.08 19.6 10.62
5/9/2021 9:45:00 PM 10.76 51.368 0.08 7.08 22.83 10.63
5/9/2021 10:00:00 PM 10.72 51.296 0.08 7.09 22.43 10.65
5/9/2021 10:15:00 PM 10.67 51.206 0.08 7.07 24.03 10.66
5/9/2021 10:30:00 PM 10.63 51.134 0.08 7.07 21.77 10.67
5/9/2021 10:45:00 PM 10.6 51.08 0.08 7.07 17.54 10.68
5/9/2021 11:00:00 PM 10.57 51.026 0.08 7.07 19.8 10.68
5/9/2021 11:15:00 PM 10.56 51.008 0.078 7.1 20.31 10.69
5/9/2021 11:30:00 PM 10.55 50.99 0.077 7.12 20.9 10.68
5/9/2021 11:45:00 PM 10.54 50.972 0.076 7.1 19.67 10.69
5/10/2021 12:00:00 AM 10.53 50.954 0.076 7.12 21.13 10.69
5/10/2021 12:15:00 AM 10.52 50.936 0.076 7.09 18.13 10.7
5/10/2021 12:30:00 AM 10.52 50.936 0.076 7.08 19.04 10.71
5/10/2021 12:45:00 AM 10.5 50.9 0.076 7.1 18.65 10.7
5/10/2021 1:00:00 AM 10.5 50.9 0.076 7.1 18.04 10.71
5/10/2021 1:15:00 AM 10.48 50.864 0.073 7.09 19.94 10.72
5/10/2021 1:30:00 AM 10.47 50.846 0.078 7.07 17.54 10.73
5/10/2021 1:45:00 AM 10.45 50.81 0.081 7.08 22.07 10.74
5/10/2021 2:00:00 AM 10.43 50.774 0.102 7.07 21.14 10.75
5/10/2021 2:15:00 AM 10.42 50.756 0.108 7.07 21.93 10.75
5/10/2021 2:30:00 AM 10.4 50.72 0.109 7.07 28.32 10.77
5/10/2021 2:45:00 AM 10.38 50.684 0.121 7.06 22.4 10.78
5/10/2021 3:00:00 AM 10.37 50.666 0.194 7.04 22.44 10.78
5/10/2021 3:15:00 AM 10.36 50.648 0.194 7.04 22.03 10.79
5/10/2021 3:30:00 AM 10.34 50.612 0.194 7.04 25.71 10.8
5/10/2021 3:45:00 AM 10.34 50.612 0.192 7.01 21.07 10.81
5/10/2021 4:00:00 AM 10.33 50.594 0.192 7.04 17.95 10.82
5/10/2021 4:15:00 AM 10.33 50.594 0.191 7.04 21.17 10.82
5/10/2021 4:30:00 AM 10.33 50.594 0.19 7.03 21.77 10.82
5/10/2021 4:45:00 AM 10.33 50.594 0.191 7.04 19.13 10.83
5/10/2021 5:00:00 AM 10.34 50.612 0.19 7.04 16.13 10.83
5/10/2021 5:15:00 AM 10.35 50.63 0.191 7.01 17.99 10.83
5/10/2021 5:30:00 AM 10.37 50.666 0.191 7.03 17.57 10.83
5/10/2021 5:45:00 AM 10.39 50.702 0.19 7.04 17.13 10.83
5/10/2021 6:00:00 AM 10.41 50.738 0.191 7.04 16.85 10.83
5/10/2021 6:15:00 AM 10.43 50.774 0.19 7.04 16.25 10.83
5/10/2021 6:30:00 AM 10.44 50.792 0.189 7.04 15.54 10.83
5/10/2021 6:45:00 AM 10.46 50.828 0.189 7.05 15.17 10.84
5/10/2021 7:00:00 AM 10.48 50.864 0.189 7.04 14.76 10.84
5/10/2021 7:15:00 AM 10.5 50.9 0.188 7.03 14.28 10.84
5/10/2021 7:30:00 AM 10.51 50.918 0.188 7.06 13.54 10.85
5/10/2021 7:45:00 AM 10.53 50.954 0.188 7.05 13.41 10.85
5/10/2021 8:00:00 AM 10.54 50.972 0.189 7.05 13.13 10.87
5/10/2021 8:15:00 AM 10.56 51.008 0.189 7.05 12.59 10.88
5/10/2021 8:30:00 AM 10.59 51.062 0.188 7.06 12.64 10.91
5/10/2021 8:45:00 AM 10.61 51.098 0.189 7.07 11.88 10.91
5/10/2021 9:00:00 AM 10.63 51.134 0.189 7.07 11.74 10.92
5/10/2021 9:15:00 AM 10.64 51.152 0.189 7.07 11.52 10.93
5/10/2021 9:30:00 AM 10.66 51.188 0.189 7.08 11.08 10.94
5/10/2021 9:45:00 AM 10.68 51.224 0.19 7.09 11.12 10.94
5/10/2021 10:00:00 AM 10.72 51.296 0.189 7.09 11.16 10.96
5/10/2021 10:15:00 AM 10.74 51.332 0.19 7.1 10.59 10.97
5/10/2021 10:30:00 AM 10.76 51.368 0.19 7.1 10.26 10.97
5/10/2021 10:45:00 AM 10.79 51.422 0.19 7.11 10.74 10.98
5/10/2021 11:00:00 AM 10.83 51.494 0.19 7.12 10.61 11
5/10/2021 11:15:00 AM 10.85 51.53 0.19 7.1 10.57 10.99
5/10/2021 11:30:00 AM 10.87 51.566 0.19 7.11 10.3 10.99
5/10/2021 11:45:00 AM 10.88 51.584 0.191 7.11 10.48 10.98
5/10/2021 12:00:00 PM 10.9 51.62 0.19 7.12 10.44 10.97
5/10/2021 12:15:00 PM 10.93 51.674 0.19 7.12 9.68 10.98
5/10/2021 12:30:00 PM 10.97 51.746 0.19 7.13 9.6 10.99
5/10/2021 12:45:00 PM 11.04 51.872 0.19 7.14 9.73 11.01
5/10/2021 1:00:00 PM 11.14 52.052 0.19 7.15 9.35 11.03
5/10/2021 1:15:00 PM 11.3 52.34 0.191 7.19 9.45 11.04
5/10/2021 1:30:00 PM 11.37 52.466 0.191 7.18 9.26 11.02
5/10/2021 1:45:00 PM 11.42 52.556 0.191 7.18 9.15 11.01
5/10/2021 2:00:00 PM 11.5 52.7 0.191 7.18 9.11 11
5/10/2021 2:15:00 PM 11.61 52.898 0.191 7.19 9.01 10.98
5/10/2021 2:30:00 PM 11.63 52.934 0.191 7.18 8.78 10.96
5/10/2021 2:45:00 PM 11.64 52.952 0.192 7.18 8.8 10.94
5/10/2021 3:00:00 PM 11.64 52.952 0.192 7.17 8.91 10.92
5/10/2021 3:15:00 PM 11.64 52.952 0.192 7.16 8.48 10.91
5/10/2021 3:30:00 PM 11.69 53.042 0.192 7.16 8.69 10.92
5/10/2021 3:45:00 PM 11.68 53.024 0.192 7.17 8.55 10.91
5/10/2021 4:00:00 PM 11.7 53.06 0.192 7.15 8.22 10.91
5/10/2021 4:15:00 PM 11.7 53.06 0.192 7.16 8.24 10.88
5/10/2021 4:30:00 PM 11.7 53.06 0.192 7.16 8.78 10.89
5/10/2021 4:45:00 PM 11.69 53.042 0.192 7.16 8.23 10.87
5/10/2021 5:00:00 PM 11.71 53.078 0.192 7.15 8.45 10.85
5/10/2021 5:15:00 PM 11.72 53.096 0.192 7.15 8.41 10.83
5/10/2021 5:30:00 PM 11.73 53.114 0.192 7.14 8.67 10.81
5/10/2021 5:45:00 PM 11.75 53.15 0.192 7.14 8.5 10.8
5/10/2021 6:00:00 PM 11.74 53.132 0.192 7.14 8.3 10.78
5/10/2021 6:15:00 PM 11.72 53.096 0.192 7.13 8.31 10.76
5/10/2021 6:30:00 PM 11.7 53.06 0.192 7.11 8.26 10.74
5/10/2021 6:45:00 PM 11.67 53.006 0.192 7.1 8.19 10.72
5/10/2021 7:00:00 PM 11.65 52.97 0.192 7.11 8.27 10.71
5/10/2021 7:15:00 PM 11.63 52.934 0.191 7.08 8.06 10.69
5/10/2021 7:30:00 PM 11.61 52.898 0.191 7.08 8.29 10.67
5/10/2021 7:45:00 PM 11.6 52.88 0.191 7.08 8.31 10.65
5/10/2021 8:00:00 PM 11.6 52.88 0.191 7.07 8.1 10.62
5/10/2021 8:15:00 PM 11.59 52.862 0.191 7.06 8.38 10.6
5/10/2021 8:30:00 PM 11.55 52.79 0.19 7.05 8.26 10.58
5/10/2021 8:45:00 PM 11.52 52.736 0.19 7.05 8.48 10.57
5/10/2021 9:00:00 PM 11.49 52.682 0.19 7.04 8.42 10.56
5/10/2021 9:15:00 PM 11.46 52.628 0.19 7.04 8.75 10.56
5/10/2021 9:30:00 PM 11.42 52.556 0.191 7.02 8.44 10.57
5/10/2021 9:45:00 PM 11.38 52.484 0.19 7.02 8.58 10.57
5/10/2021 10:00:00 PM 11.36 52.448 0.162 7.03 8.74 10.58
5/10/2021 10:15:00 PM 11.33 52.394 0.168 7.02 8.82 10.58
5/10/2021 10:30:00 PM 11.31 52.358 0.187 7.03 8.63 10.59
5/10/2021 10:45:00 PM 11.28 52.304 0.19 7.03 8.67 10.59
5/10/2021 11:00:00 PM 11.25 52.25 0.19 7.02 8.57 10.6
5/10/2021 11:15:00 PM 11.23 52.214 0.19 7.01 8.55 10.61
5/10/2021 11:30:00 PM 11.19 52.142 0.188 7.03 8.25 10.61
5/10/2021 11:45:00 PM 11.16 52.088 0.189 7.01 8.37 10.62
5/11/2021 12:00:00 AM 11.13 52.034 0.174 7.03 8.14 10.63
5/11/2021 12:15:00 AM 11.1 51.98 0.187 7.02 8.71 10.64
5/11/2021 12:30:00 AM 11.07 51.926 0.19 7.02 8.36 10.65
5/11/2021 12:45:00 AM 11.04 51.872 0.186 7.02 8.83 10.65
5/11/2021 1:00:00 AM 11.01 51.818 0.177 7.01 9.01 10.67
5/11/2021 1:15:00 AM 10.98 51.764 0.184 7.02 8.91 10.67
5/11/2021 1:30:00 AM 10.95 51.71 0.176 7.03 8.96 10.68
5/11/2021 1:45:00 AM 10.92 51.656 0.19 7.02 8.45 10.69
5/11/2021 2:00:00 AM 10.89 51.602 0.188 7.03 8.75 10.7
5/11/2021 2:15:00 AM 10.86 51.548 0.187 7.02 8.59 10.7
5/11/2021 2:30:00 AM 10.83 51.494 0.145 7.02 8.75 10.71
5/11/2021 2:45:00 AM 10.8 51.44 0.189 7.03 8.42 10.72
5/11/2021 3:00:00 AM 10.76 51.368 0.17 7.02 8.91 10.73
5/11/2021 3:15:00 AM 10.72 51.296 0.142 7.02 8.63 10.74
5/11/2021 3:30:00 AM 10.69 51.242 0.135 7.01 8.36 10.75
5/11/2021 3:45:00 AM 10.65 51.17 0.126 7.02 8.57 10.76
5/11/2021 4:00:00 AM 10.62 51.116 0.131 7.02 8.75 10.77
5/11/2021 4:15:00 AM 10.59 51.062 0.124 7.02 9.11 10.77
5/11/2021 4:30:00 AM 10.56 51.008 0.128 7.02 8.98 10.78
5/11/2021 4:45:00 AM 10.53 50.954 0.125 7.02 9.33 10.79
5/11/2021 5:00:00 AM 10.49 50.882 0.122 7.01 9.6 10.8
5/11/2021 5:15:00 AM 10.46 50.828 0.125 7.03 9.6 10.8
5/11/2021 5:30:00 AM 10.42 50.756 0.139 7.02 8.96 10.81
5/11/2021 5:45:00 AM 10.39 50.702 0.143 7.03 9.19 10.82
5/11/2021 6:00:00 AM 10.35 50.63 0.153 7.02 9.6 10.84
5/11/2021 6:15:00 AM 10.32 50.576 0.16 7.04 9.51 10.85
5/11/2021 6:30:00 AM 10.28 50.504 0.16 7.04 9.52 10.88
5/11/2021 6:45:00 AM 10.25 50.45 0.157 7.03 9.35 10.9
5/11/2021 7:00:00 AM 10.22 50.396 0.164 7.03 8.94 10.93
5/11/2021 7:15:00 AM 10.21 50.378 0.166 7.05 9.1 10.96
5/11/2021 7:30:00 AM 10.2 50.36 0.192 7.06 10.29 10.99
5/11/2021 7:45:00 AM 10.22 50.396 0.189 7.07 8.35 11.03
5/11/2021 8:00:00 AM 10.25 50.45 0.114 7.1 8.83 11.07
5/11/2021 8:15:00 AM 10.29 50.522 0.113 7.11 8.72 11.09
5/11/2021 8:30:00 AM 10.33 50.594 0.114 7.13 8.63 11.12
5/11/2021 8:45:00 AM 10.39 50.702 0.116 7.14 8.27 11.14
5/11/2021 9:00:00 AM 10.46 50.828 0.115 7.16 8.6 11.16
5/11/2021 9:15:00 AM 10.54 50.972 0.12 7.19 8.46 11.16
5/11/2021 9:30:00 AM 10.63 51.134 0.135 7.2 10.21 11.18
5/11/2021 9:45:00 AM 10.74 51.332 0.135 7.2 24.41 11.18
5/11/2021 10:00:00 AM 10.85 51.53 0.136 7.24 19.44 11.17
5/11/2021 10:15:00 AM 10.98 51.764 0.193 7.24 8.53 11.17
5/11/2021 10:30:00 AM 11.13 52.034 0.197 7.25 11.36 11.16
5/11/2021 10:45:00 AM 11.28 52.304 0.202 7.25 11.14 11.15
5/11/2021 11:00:00 AM 11.44 52.592 0.194 7.25 13.88 11.13
5/11/2021 11:15:00 AM 11.53 52.754 0.182 7.26 15.25 11.11
5/11/2021 11:30:00 AM 11.63 52.934 0.207 7.26 8.25 11.09
5/11/2021 11:45:00 AM 11.76 53.168 0.201 7.27 7.84 11.06
5/11/2021 12:00:00 PM 11.8 53.24 0.197 7.26 8.31 11.02
5/11/2021 12:15:00 PM 11.77 53.186 0.2 7.22 9.2 10.96
5/11/2021 12:30:00 PM 11.74 53.132 0.199 7.21 8.52 10.9
5/11/2021 12:45:00 PM 11.71 53.078 0.2 7.2 8.72 10.87
5/11/2021 1:00:00 PM 11.68 53.024 0.201 7.2 8.84 10.86
5/11/2021 1:15:00 PM 11.65 52.97 0.202 7.19 9.05 10.87
5/11/2021 1:30:00 PM 11.63 52.934 0.198 7.2 8.8 10.92
5/11/2021 1:45:00 PM 11.66 52.988 0.198 7.21 7.93 10.97
5/11/2021 2:00:00 PM 11.82 53.276 0.199 7.27 8.33 11.01
5/11/2021 2:15:00 PM 11.8 53.24 0.199 7.24 7.82 11.01
5/11/2021 2:30:00 PM 11.69 53.042 0.197 7.21 8.08 11.01
5/11/2021 2:45:00 PM 11.68 53.024 0.199 7.23 11.15 11.03
5/11/2021 3:00:00 PM 11.63 52.934 0.2 7.21 8.22 11.03
5/11/2021 3:15:00 PM 11.59 52.862 0.204 7.21 11.19 11.02
5/11/2021 3:30:00 PM 11.58 52.844 0.204 7.22 7.55 11
5/11/2021 3:45:00 PM 11.56 52.808 0.204 7.2 7.65 10.99
5/11/2021 4:00:00 PM 11.52 52.736 0.198 7.21 7.65 10.96
5/11/2021 4:15:00 PM 11.52 52.736 0.199 7.22 7.96 10.96
5/11/2021 4:30:00 PM 11.5 52.7 0.191 7.2 7.9 10.95
5/11/2021 4:45:00 PM 11.47 52.646 0.198 7.2 7.71 10.94
5/11/2021 5:00:00 PM 11.46 52.628 0.199 7.21 7.79 10.95
5/11/2021 5:15:00 PM 11.44 52.592 0.197 7.21 8.12 10.95
5/11/2021 5:30:00 PM 11.41 52.538 0.198 7.18 7.56 10.91
5/11/2021 5:45:00 PM 11.41 52.538 0.198 7.19 7.64 10.91
5/11/2021 6:00:00 PM 11.38 52.484 0.198 7.19 7.75 10.92
5/11/2021 6:15:00 PM 11.34 52.412 0.197 7.17 7.84 10.88
5/11/2021 6:30:00 PM 11.3 52.34 0.197 7.16 7.74 10.85
5/11/2021 6:45:00 PM 11.29 52.322 0.197 7.17 7.77 10.83
5/11/2021 7:00:00 PM 11.27 52.286 0.197 7.17 7.56 10.81
5/11/2021 7:15:00 PM 11.29 52.322 0.194 7.15 7.72 10.8
5/11/2021 7:30:00 PM 11.28 52.304 0.196 7.16 7.74 10.77
5/11/2021 7:45:00 PM 11.25 52.25 0.196 7.14 7.71 10.75
5/11/2021 8:00:00 PM 11.2 52.16 0.196 7.12 7.61 10.72
5/11/2021 8:15:00 PM 11.15 52.07 0.196 7.1 7.83 10.7
5/11/2021 8:30:00 PM 11.08 51.944 0.193 7.11 7.98 10.69
5/11/2021 8:45:00 PM 11.03 51.854 0.181 7.09 8.35 10.68
5/11/2021 9:00:00 PM 10.99 51.782 0.182 7.06 8.36 10.68
5/11/2021 9:15:00 PM 10.95 51.71 0.173 7.1 8.21 10.67
5/11/2021 9:30:00 PM 10.92 51.656 0.193 7.09 7.9 10.67
5/11/2021 9:45:00 PM 10.87 51.566 0.191 7.08 7.9 10.68
5/11/2021 10:00:00 PM 10.82 51.476 0.191 7.07 7.77 10.69
5/11/2021 10:15:00 PM 10.74 51.332 0.193 7.06 8.05 10.71
5/11/2021 10:30:00 PM 10.67 51.206 0.19 7.04 7.25 10.73
5/11/2021 10:45:00 PM 10.59 51.062 0.194 7.06 8.06 10.75
5/11/2021 11:00:00 PM 10.52 50.936 0.194 7.07 7.99 10.77
5/11/2021 11:15:00 PM 10.47 50.846 0.194 7.06 7.9 10.78
5/11/2021 11:30:00 PM 10.42 50.756 0.193 7.07 7.62 10.79
5/11/2021 11:45:00 PM 10.38 50.684 0.194 7.06 7.93 10.81
5/12/2021 12:00:00 AM 10.35 50.63 0.163 7.06 7.83 10.82
5/12/2021 12:15:00 AM 10.32 50.576 0.163 7.08 7.81 10.82
5/12/2021 12:30:00 AM 10.3 50.54 0.165 7.06 7.44 10.83
5/12/2021 12:45:00 AM 10.26 50.468 0.166 7.07 7.52 10.85
5/12/2021 1:00:00 AM 10.22 50.396 0.167 7.08 7.5 10.85
5/12/2021 1:15:00 AM 10.18 50.324 0.166 7.08 7.53 10.86
5/12/2021 1:30:00 AM 10.15 50.27 0.166 7.08 7.35 10.87
5/12/2021 1:45:00 AM 10.12 50.216 0.166 7.08 7.37 10.88
5/12/2021 2:00:00 AM 10.1 50.18 0.165 7.07 7.14 10.88
5/12/2021 2:15:00 AM 10.07 50.126 0.163 7.08 7.29 10.89
5/12/2021 2:30:00 AM 10.06 50.108 0.164 7.08 6.84 10.9
5/12/2021 2:45:00 AM 10.03 50.054 0.164 7.04 7.1 10.9
5/12/2021 3:00:00 AM 10.01 50.018 0.164 7.08 6.97 10.9
5/12/2021 3:15:00 AM 9.98 49.964 0.164 7.07 7.08 10.91
5/12/2021 3:30:00 AM 9.94 49.892 0.163 7.05 6.91 10.92
5/12/2021 3:45:00 AM 9.91 49.838 0.164 7.07 6.84 10.93
5/12/2021 4:00:00 AM 9.88 49.784 0.16 7.07 7.02 10.94
5/12/2021 4:15:00 AM 9.84 49.712 0.161 7.07 6.69 10.95
5/12/2021 4:30:00 AM 9.8 49.64 0.162 7.07 6.92 10.96
5/12/2021 4:45:00 AM 9.77 49.586 0.163 7.07 6.85 10.97
5/12/2021 5:00:00 AM 9.75 49.55 0.164 7.08 6.88 10.97
5/12/2021 5:15:00 AM 9.74 49.532 0.187 7.08 7.38 10.97
5/12/2021 5:30:00 AM 9.74 49.532 0.183 7.06 6.99 10.99
5/12/2021 5:45:00 AM 9.73 49.514 0.18 7.08 6.89 10.98
5/12/2021 6:00:00 AM 9.72 49.496 0.183 7.09 6.8 11.01
5/12/2021 6:15:00 AM 9.73 49.514 0.183 7.08 6.86 11.01
5/12/2021 6:30:00 AM 9.73 49.514 0.183 7.09 6.7 11.02
5/12/2021 6:45:00 AM 9.73 49.514 0.175 7.09 6.67 11.04
5/12/2021 7:00:00 AM 9.74 49.532 0.175 7.1 6.82 11.06
5/12/2021 7:15:00 AM 9.77 49.586 0.174 7.12 6.45 11.09
5/12/2021 7:30:00 AM 9.8 49.64 0.174 7.13 6.72 11.12
5/12/2021 7:45:00 AM 9.83 49.694 0.172 7.14 6.58 11.14
5/12/2021 8:00:00 AM 9.87 49.766 0.173 7.14 6.37 11.17
5/12/2021 8:15:00 AM 9.91 49.838 0.172 7.16 6.8 11.2
5/12/2021 8:30:00 AM 9.95 49.91 0.174 7.17 6.66 11.22
5/12/2021 8:45:00 AM 10 50 0.175 7.19 6.59 11.25
5/12/2021 9:00:00 AM 10.08 50.144 0.174 7.21 6.38 11.3
5/12/2021 9:15:00 AM 10.24 50.432 0.172 7.23 6.8 11.34
5/12/2021 9:30:00 AM 10.38 50.684 0.171 7.27 6.44 11.37
5/12/2021 9:45:00 AM 10.51 50.918 0.171 7.28 6.41 11.38
5/12/2021 10:00:00 AM 10.6 51.08 0.17 7.27 6.43 11.38
5/12/2021 10:15:00 AM 10.75 51.35 0.17 7.3 6.63 11.36
5/12/2021 10:30:00 AM 10.89 51.602 0.17 7.33 6.28 11.35
5/12/2021 10:45:00 AM 11.06 51.908 0.17 7.32 6.26 11.32
5/12/2021 11:00:00 AM 11.25 52.25 0.17 7.34 6.17 11.31
5/12/2021 11:15:00 AM 11.42 52.556 0.169 7.35 6.26 11.27
5/12/2021 11:30:00 AM 11.64 52.952 0.17 7.33 6.31 11.24
5/12/2021 11:45:00 AM 11.92 53.456 0.169 7.36 6.67 11.21
5/12/2021 12:00:00 PM 12.14 53.852 0.169 7.38 6.3 11.18
5/12/2021 12:15:00 PM 12.36 54.248 0.169 7.38 6.49 11.13
5/12/2021 12:30:00 PM 12.54 54.572 0.17 7.39 6.7 11.08
5/12/2021 12:45:00 PM 12.71 54.878 0.17 7.39 6.61 11.03
5/12/2021 1:00:00 PM 12.86 55.148 0.17 7.37 6.77 11
5/12/2021 1:15:00 PM 12.96 55.328 0.171 7.34 6.44 10.94
5/12/2021 1:30:00 PM 13.09 55.562 0.171 7.33 6.45 10.9
5/12/2021 1:45:00 PM 13.09 55.562 0.172 7.32 6.32 10.86
5/12/2021 2:00:00 PM 13.18 55.724 0.172 7.33 6.48 10.85
5/12/2021 2:15:00 PM 13.16 55.688 0.172 7.31 6.35 10.82
5/12/2021 2:30:00 PM 13.27 55.886 0.172 7.34 6.74 10.83
5/12/2021 2:45:00 PM 13.27 55.886 0.174 7.32 6.5 10.81
5/12/2021 3:00:00 PM 13.24 55.832 0.174 7.31 9.69 10.8
5/12/2021 3:15:00 PM 13.14 55.652 0.175 7.29 6.5 10.8
5/12/2021 3:30:00 PM 13.2 55.76 0.176 7.3 6.64 10.81
5/12/2021 3:45:00 PM 13.25 55.85 0.176 7.32 6.37 10.83
5/12/2021 4:00:00 PM 13.29 55.922 0.176 7.33 6.52 10.84
5/12/2021 4:15:00 PM 13.19 55.742 0.176 7.3 6.48 10.83
5/12/2021 4:30:00 PM 13.05 55.49 0.176 7.25 6.57 10.81
5/12/2021 4:45:00 PM 12.88 55.184 0.178 7.22 6.73 10.78
5/12/2021 5:00:00 PM 12.71 54.878 0.178 7.2 6.46 10.78
5/12/2021 5:15:00 PM 12.56 54.608 0.178 7.18 6.55 10.79
5/12/2021 5:30:00 PM 12.41 54.338 0.178 7.18 6.7 10.81
5/12/2021 5:45:00 PM 12.35 54.23 0.178 7.19 6.55 10.84
5/12/2021 6:00:00 PM 12.21 53.978 0.178 7.17 6.62 10.81
5/12/2021 6:15:00 PM 12.16 53.888 0.177 7.18 6.59 10.8
5/12/2021 6:30:00 PM 12.08 53.744 0.177 7.16 6.7 10.77
5/12/2021 6:45:00 PM 12 53.6 0.177 7.18 6.55 10.75
5/12/2021 7:00:00 PM 11.93 53.474 0.177 7.16 6.6 10.72
5/12/2021 7:15:00 PM 11.91 53.438 0.176 7.16 6.45 10.68
5/12/2021 7:30:00 PM 11.91 53.438 0.176 7.17 6.57 10.64
5/12/2021 7:45:00 PM 11.93 53.474 0.176 7.16 6.56 10.59
5/12/2021 8:00:00 PM 11.94 53.492 0.176 7.14 6.59 10.55
5/12/2021 8:15:00 PM 11.96 53.528 0.174 7.16 6.46 10.5
5/12/2021 8:30:00 PM 11.97 53.546 0.184 7.13 6.64 10.46
5/12/2021 8:45:00 PM 11.99 53.582 0.187 7.14 6.52 10.42
5/12/2021 9:00:00 PM 12 53.6 0.191 7.11 6.74 10.4
5/12/2021 9:15:00 PM 11.99 53.582 0.191 7.12 6.68 10.38
5/12/2021 9:30:00 PM 11.97 53.546 0.194 7.09 6.67 10.37
5/12/2021 9:45:00 PM 11.95 53.51 0.196 7.09 6.98 10.37
5/12/2021 10:00:00 PM 11.92 53.456 0.196 7.1 6.95 10.37
5/12/2021 10:15:00 PM 11.89 53.402 0.196 7.09 6.84 10.37
5/12/2021 10:30:00 PM 11.84 53.312 0.196 7.08 7.01 10.38
5/12/2021 10:45:00 PM 11.79 53.222 0.196 7.07 6.71 10.39
5/12/2021 11:00:00 PM 11.72 53.096 0.196 7.06 6.75 10.41
5/12/2021 11:15:00 PM 11.64 52.952 0.196 7.06 6.82 10.43
5/12/2021 11:30:00 PM 11.56 52.808 0.196 7.06 6.92 10.45
5/12/2021 11:45:00 PM 11.48 52.664 0.196 7.06 6.72 10.47
5/13/2021 12:00:00 AM 11.4 52.52 0.196 7.04 6.81 10.49
5/13/2021 12:15:00 AM 11.33 52.394 0.196 7.04 6.63 10.52
5/13/2021 12:30:00 AM 11.26 52.268 0.196 7.04 6.71 10.53
5/13/2021 12:45:00 AM 11.19 52.142 0.196 7.04 6.71 10.55
5/13/2021 1:00:00 AM 11.11 51.998 0.196 7.05 6.83 10.57
5/13/2021 1:15:00 AM 11.04 51.872 0.196 7.03 6.59 10.59
5/13/2021 1:30:00 AM 10.97 51.746 0.196 7.03 6.69 10.61
5/13/2021 1:45:00 AM 10.9 51.62 0.196 7.03 6.57 10.63
5/13/2021 2:00:00 AM 10.83 51.494 0.196 7.04 6.51 10.65
5/13/2021 2:15:00 AM 10.76 51.368 0.196 7.03 6.61 10.67
5/13/2021 2:30:00 AM 10.69 51.242 0.196 7.05 6.5 10.69
5/13/2021 2:45:00 AM 10.62 51.116 0.196 7.04 6.52 10.71
5/13/2021 3:00:00 AM 10.56 51.008 0.196 7.06 6.57 10.72
5/13/2021 3:15:00 AM 10.5 50.9 0.195 7.03 6.38 10.74
5/13/2021 3:30:00 AM 10.43 50.774 0.196 7.05 6.65 10.75
5/13/2021 3:45:00 AM 10.38 50.684 0.196 7.03 6.4 10.77
5/13/2021 4:00:00 AM 10.32 50.576 0.196 7.05 6.66 10.79
5/13/2021 4:15:00 AM 10.26 50.468 0.196 7.04 6.38 10.8
5/13/2021 4:30:00 AM 10.19 50.342 0.196 7.05 6.4 10.82
5/13/2021 4:45:00 AM 10.14 50.252 0.196 7.04 6.46 10.83
5/13/2021 5:00:00 AM 10.09 50.162 0.196 7.04 6.33 10.86
5/13/2021 5:15:00 AM 10.03 50.054 0.196 7.06 6.6 10.87
5/13/2021 5:30:00 AM 9.97 49.946 0.196 7.05 6.3 10.89
5/13/2021 5:45:00 AM 9.92 49.856 0.196 7.04 6.74 10.91
5/13/2021 6:00:00 AM 9.87 49.766 0.196 7.05 6.39 10.94
5/13/2021 6:15:00 AM 9.82 49.676 0.196 7.03 6.3 10.97
5/13/2021 6:30:00 AM 9.77 49.586 0.196 7.05 6.43 11
5/13/2021 6:45:00 AM 9.74 49.532 0.196 7.08 6.29 11.03
5/13/2021 7:00:00 AM 9.72 49.496 0.196 7.09 6.13 11.07
5/13/2021 7:15:00 AM 9.71 49.478 0.196 7.1 6.4 11.13
5/13/2021 7:30:00 AM 9.72 49.496 0.196 7.12 6.07 11.17
5/13/2021 7:45:00 AM 9.74 49.532 0.196 7.14 6.03 11.22
5/13/2021 8:00:00 AM 9.79 49.622 0.196 7.17 6.11 11.27
5/13/2021 8:15:00 AM 9.86 49.748 0.197 7.19 6.05 11.31
5/13/2021 8:30:00 AM 9.94 49.892 0.197 7.19 6.1 11.35
5/13/2021 8:45:00 AM 10.03 50.054 0.197 7.22 5.78 11.38
5/13/2021 9:00:00 AM 10.13 50.234 0.197 7.24 5.81 11.4
5/13/2021 9:15:00 AM 10.25 50.45 0.197 7.27 6.07 11.41
5/13/2021 9:30:00 AM 10.38 50.684 0.197 7.28 5.93 11.42
5/13/2021 9:45:00 AM 10.54 50.972 0.197 7.3 5.93 11.42
5/13/2021 10:00:00 AM 10.71 51.278 0.197 7.3 5.77 11.42
5/13/2021 10:15:00 AM 10.89 51.602 0.197 7.34 5.84 11.4
5/13/2021 10:30:00 AM 11.1 51.98 0.197 7.36 5.96 11.38
5/13/2021 10:45:00 AM 11.33 52.394 0.197 7.36 5.87 11.37
5/13/2021 11:00:00 AM 11.55 52.79 0.197 7.39 5.86 11.33
5/13/2021 11:15:00 AM 11.79 53.222 0.197 7.39 5.76 11.31
5/13/2021 11:30:00 AM 12.04 53.672 0.197 7.4 5.72 11.27
5/13/2021 11:45:00 AM 12.29 54.122 0.197 7.41 5.69 11.23
5/13/2021 12:00:00 PM 12.5 54.5 0.197 7.43 6.06 11.19
5/13/2021 12:15:00 PM 12.64 54.752 0.197 7.41 5.89 11.1
5/13/2021 12:30:00 PM 12.8 55.04 0.197 7.4 5.98 11.07
5/13/2021 12:45:00 PM 12.92 55.256 0.197 7.41 5.9 11.04
5/13/2021 1:00:00 PM 13.12 55.616 0.197 7.42 5.82 10.99
5/13/2021 1:15:00 PM 13.44 56.192 0.197 7.44 5.8 10.98
5/13/2021 1:30:00 PM 13.57 56.426 0.197 7.44 5.84 10.93
5/13/2021 1:45:00 PM 13.8 56.84 0.197 7.46 6.01 10.88
5/13/2021 2:00:00 PM 14.07 57.326 0.197 7.46 5.94 10.86
5/13/2021 2:15:00 PM 14.12 57.416 0.197 7.44 6.29 10.81
5/13/2021 2:30:00 PM 13.9 57.02 0.197 7.33 5.92 10.68
5/13/2021 2:45:00 PM 13.7 56.66 0.197 7.28 5.91 10.67
5/13/2021 3:00:00 PM 13.6 56.48 0.197 7.29 5.99 10.69
5/13/2021 3:15:00 PM 13.69 56.642 0.197 7.36 6.06 10.75
5/13/2021 3:30:00 PM 13.66 56.588 0.197 7.33 5.92 10.76
5/13/2021 3:45:00 PM 13.7 56.66 0.197 7.33 5.93 10.74
5/13/2021 4:00:00 PM 13.65 56.57 0.197 7.34 6.01 10.76
5/13/2021 4:15:00 PM 13.67 56.606 0.197 7.35 5.9 10.76
5/13/2021 4:30:00 PM 13.59 56.462 0.198 7.33 6.08 10.77
5/13/2021 4:45:00 PM 13.57 56.426 0.198 7.33 7.48 10.78
5/13/2021 5:00:00 PM 13.51 56.318 0.198 7.32 6.2 10.78
5/13/2021 5:15:00 PM 13.4 56.12 0.198 7.3 5.89 10.77
5/13/2021 5:30:00 PM 13.34 56.012 0.198 7.28 6.11 10.75
5/13/2021 5:45:00 PM 13.26 55.868 0.198 7.28 6.08 10.75
5/13/2021 6:00:00 PM 13.17 55.706 0.198 7.27 6.19 10.71
5/13/2021 6:15:00 PM 13.09 55.562 0.198 7.24 6.08 10.68
5/13/2021 6:30:00 PM 13.04 55.472 0.198 7.22 6.22 10.63
5/13/2021 6:45:00 PM 13 55.4 0.198 7.22 6 10.57
5/13/2021 7:00:00 PM 12.98 55.364 0.198 7.22 6.25 10.51
5/13/2021 7:15:00 PM 12.97 55.346 0.198 7.2 6.19 10.44
5/13/2021 7:30:00 PM 12.95 55.31 0.198 7.19 5.89 10.38
5/13/2021 7:45:00 PM 12.92 55.256 0.198 7.18 5.89 10.33
5/13/2021 8:00:00 PM 12.88 55.184 0.198 7.15 5.9 10.3
5/13/2021 8:15:00 PM 12.83 55.094 0.198 7.12 5.79 10.26
5/13/2021 8:30:00 PM 12.77 54.986 0.198 7.11 5.77 10.23
5/13/2021 8:45:00 PM 12.7 54.86 0.198 7.1 6.05 10.21
5/13/2021 9:00:00 PM 12.64 54.752 0.198 7.09 5.9 10.19
5/13/2021 9:15:00 PM 12.57 54.626 0.197 7.08 5.94 10.19
5/13/2021 9:30:00 PM 12.5 54.5 0.199 7.08 6.04 10.19
5/13/2021 9:45:00 PM 12.43 54.374 0.199 7.05 5.92 10.2
5/13/2021 10:00:00 PM 12.36 54.248 0.199 7.07 5.81 10.2
5/13/2021 10:15:00 PM 12.32 54.176 0.199 7.04 5.96 10.21
5/13/2021 10:30:00 PM 12.29 54.122 0.199 7.06 5.92 10.21
5/13/2021 10:45:00 PM 12.26 54.068 0.198 7.06 6.27 10.22
5/13/2021 11:00:00 PM 12.22 53.996 0.199 7.07 5.84 10.22
5/13/2021 11:15:00 PM 12.18 53.924 0.199 7.06 5.91 10.24
5/13/2021 11:30:00 PM 12.12 53.816 0.199 7.05 5.95 10.26
5/13/2021 11:45:00 PM 12.06 53.708 0.199 7.05 5.86 10.26
5/14/2021 12:00:00 AM 12 53.6 0.199 7.04 5.85 10.27
5/14/2021 12:15:00 AM 11.95 53.51 0.199 7.05 5.98 10.29
5/14/2021 12:30:00 AM 11.89 53.402 0.199 7.06 5.92 10.3
5/14/2021 12:45:00 AM 11.84 53.312 0.199 7.05 5.7 10.32
5/14/2021 1:00:00 AM 11.78 53.204 0.199 7.05 6.13 10.33
5/14/2021 1:15:00 AM 11.72 53.096 0.199 7.06 6.14 10.34
5/14/2021 1:30:00 AM 11.66 52.988 0.199 7.06 5.88 10.36
5/14/2021 1:45:00 AM 11.59 52.862 0.199 7.05 6.09 10.38
5/14/2021 2:00:00 AM 11.52 52.736 0.199 7.04 5.78 10.41
5/14/2021 2:15:00 AM 11.45 52.61 0.199 7.03 5.7 10.42
5/14/2021 2:30:00 AM 11.38 52.484 0.199 7.05 5.72 10.43
5/14/2021 2:45:00 AM 11.31 52.358 0.199 7.03 5.75 10.47
5/14/2021 3:00:00 AM 11.23 52.214 0.199 7.05 5.72 10.49
5/14/2021 3:15:00 AM 11.16 52.088 0.199 7.05 5.7 10.51
5/14/2021 3:30:00 AM 11.08 51.944 0.199 7.04 5.78 10.54
5/14/2021 3:45:00 AM 11 51.8 0.199 7.04 5.62 10.55
5/14/2021 4:00:00 AM 10.92 51.656 0.199 7.04 5.86 10.58
5/14/2021 4:15:00 AM 10.84 51.512 0.199 7.04 5.87 10.6
5/14/2021 4:30:00 AM 10.77 51.386 0.199 7.03 5.71 10.63
5/14/2021 4:45:00 AM 10.7 51.26 0.199 7.05 5.75 10.64
5/14/2021 5:00:00 AM 10.63 51.134 0.199 7.04 5.74 10.67
5/14/2021 5:15:00 AM 10.57 51.026 0.199 7.05 5.59 10.69
5/14/2021 5:30:00 AM 10.5 50.9 0.199 7.04 5.58 10.71
5/14/2021 5:45:00 AM 10.45 50.81 0.199 7.04 6.02 10.73
5/14/2021 6:00:00 AM 10.39 50.702 0.199 7.05 6.5 10.75
5/14/2021 6:15:00 AM 10.35 50.63 0.199 7.06 5.73 10.78
5/14/2021 6:30:00 AM 10.31 50.558 0.199 7.07 5.97 10.82
5/14/2021 6:45:00 AM 10.28 50.504 0.199 7.08 5.52 10.87
5/14/2021 7:00:00 AM 10.26 50.468 0.199 7.09 5.7 10.91
5/14/2021 7:15:00 AM 10.26 50.468 0.199 7.11 5.5 10.95
5/14/2021 7:30:00 AM 10.27 50.486 0.198 7.13 5.44 11.02
5/14/2021 7:45:00 AM 10.3 50.54 0.198 7.15 5.43 11.09
5/14/2021 8:00:00 AM 10.37 50.666 0.198 7.17 5.34 11.15
5/14/2021 8:15:00 AM 10.44 50.792 0.198 7.2 5.39 11.19
5/14/2021 8:30:00 AM 10.52 50.936 0.198 7.22 5.38 11.23
5/14/2021 8:45:00 AM 10.61 51.098 0.198 7.25 5.28 11.27
5/14/2021 9:00:00 AM 10.72 51.296 0.198 7.25 5.23 11.11
5/14/2021 9:15:00 AM 10.85 51.53 0.197 7.3 5.17 11.28
5/14/2021 9:30:00 AM 10.99 51.782 0.197 7.31 5.18 11.32
5/14/2021 9:45:00 AM 11.15 52.07 0.198 7.33 5.5 11.33
5/14/2021 10:00:00 AM 11.33 52.394 0.197 7.35 5.17 11.33
5/14/2021 10:15:00 AM 11.54 52.772 0.198 7.37 5.23 11.32
5/14/2021 10:30:00 AM 11.76 53.168 0.198 7.39 5.09 11.3
5/14/2021 10:45:00 AM 12 53.6 0.198 7.41 5.05 11.27
5/14/2021 11:00:00 AM 12.26 54.068 0.198 7.43 5.24 11.25
5/14/2021 11:15:00 AM 12.52 54.536 0.198 7.44 5.48 11.23
5/14/2021 11:30:00 AM 12.8 55.04 0.198 7.45 5.39 11.16
5/14/2021 11:45:00 AM 13.08 55.544 0.198 7.45 5.2 11.14
5/14/2021 12:00:00 PM 13.36 56.048 0.198 7.47 5.29 11.1
5/14/2021 12:15:00 PM 13.64 56.552 0.198 7.5 5.31 10.98
5/14/2021 12:30:00 PM 13.93 57.074 0.199 7.51 5.41 10.63
5/14/2021 12:45:00 PM 14.13 57.434 0.198 7.5 5.22 10.95
5/14/2021 1:00:00 PM 14.36 57.848 0.198 7.51 5.49 10.9
5/14/2021 1:15:00 PM 14.54 58.172 0.199 7.52 5.04 10.86
5/14/2021 1:30:00 PM 14.89 58.802 0.199 7.54 5.11 10.83
5/14/2021 1:45:00 PM 15.32 59.576 0.199 7.57 6.84 10.8
5/14/2021 2:00:00 PM 15.53 59.954 0.199 7.57 5.12 10.75
5/14/2021 2:15:00 PM 15.71 60.278 0.199 7.56 5.06 10.71
5/14/2021 2:30:00 PM 15.79 60.422 0.193 7.54 5.05 10.69
5/14/2021 2:45:00 PM 15.72 60.296 0.192 7.53 5.21 10.65
5/14/2021 3:00:00 PM 15.56 60.008 0.193 7.45 5.11 10.65
5/14/2021 3:15:00 PM 15.48 59.864 0.193 7.44 5.36 10.65
5/14/2021 3:30:00 PM 15.34 59.612 0.193 7.44 5.2 10.64
5/14/2021 3:45:00 PM 15.27 59.486 0.193 7.44 5.27 10.64
5/14/2021 4:00:00 PM 15.19 59.342 0.193 7.42 5.27 10.63
5/14/2021 4:15:00 PM 15.19 59.342 0.192 7.44 5 10.62
5/14/2021 4:30:00 PM 15.1 59.18 0.192 7.4 5.8 10.53
5/14/2021 4:45:00 PM 14.99 58.982 0.193 7.34 5.19 10.46
5/14/2021 5:00:00 PM 14.86 58.748 0.193 7.31 5.1 10.41
5/14/2021 5:15:00 PM 14.76 58.568 0.193 7.29 5.31 10.41
5/14/2021 5:30:00 PM 14.73 58.514 0.193 7.32 5.51 10.43
5/14/2021 5:45:00 PM 14.66 58.388 0.194 7.32 5.22 10.46
5/14/2021 6:00:00 PM 14.5 58.1 0.194 7.29 8.05 10.47
5/14/2021 6:15:00 PM 14.42 57.956 0.194 7.28 5.48 10.49
5/14/2021 6:30:00 PM 14.35 57.83 0.194 7.29 5 10.47
5/14/2021 6:45:00 PM 14.29 57.722 0.194 7.29 5.05 10.43
5/14/2021 7:00:00 PM 14.22 57.596 0.194 7.27 5.09 10.38
5/14/2021 7:15:00 PM 14.13 57.434 0.194 7.24 5.24 10.33
5/14/2021 7:30:00 PM 14.02 57.236 0.194 7.2 5.87 10.27
5/14/2021 7:45:00 PM 13.91 57.038 0.194 7.18 5.37 10.22
5/14/2021 8:00:00 PM 13.79 56.822 0.194 7.13 5.35 10.17
5/14/2021 8:15:00 PM 13.67 56.606 0.194 7.11 5.36 10.12
5/14/2021 8:30:00 PM 13.54 56.372 0.194 7.09 5.36 10.09
5/14/2021 8:45:00 PM 13.4 56.12 0.194 7.06 5.45 10.07
5/14/2021 9:00:00 PM 13.26 55.868 0.194 7.05 5.46 10.07
5/14/2021 9:15:00 PM 13.12 55.616 0.194 7.03 5.78 10.07
5/14/2021 9:30:00 PM 12.98 55.364 0.195 7.03 5.6 10.09
5/14/2021 9:45:00 PM 12.85 55.13 0.195 7.02 5.55 10.11
5/14/2021 10:00:00 PM 12.72 54.896 0.195 7.02 5.62 10.13
5/14/2021 10:15:00 PM 12.61 54.698 0.195 7.01 5.41 10.13
5/14/2021 10:30:00 PM 12.5 54.5 0.195 7.01 5.39 10.16
5/14/2021 10:45:00 PM 12.41 54.338 0.195 7.01 5.47 10.18
5/14/2021 11:00:00 PM 12.35 54.23 0.195 7.03 5.32 10.18
5/14/2021 11:15:00 PM 12.32 54.176 0.195 7.04 5.34 10.18
5/14/2021 11:30:00 PM 12.31 54.158 0.195 7.05 5.4 10.17
5/14/2021 11:45:00 PM 12.3 54.14 0.195 7.06 5.36 10.18
5/15/2021 12:00:00 AM 12.28 54.104 0.195 7.07 5.51 10.17
5/15/2021 12:15:00 AM 12.26 54.068 0.195 7.06 5.39 10.18
5/15/2021 12:30:00 AM 12.24 54.032 0.195 7.07 5.4 10.18
5/15/2021 12:45:00 AM 12.23 54.014 0.195 7.09 5.3 10.17
5/15/2021 1:00:00 AM 12.23 54.014 0.195 7.08 5.41 10.17
5/15/2021 1:15:00 AM 12.24 54.032 0.195 7.08 5.37 10.18
5/15/2021 1:30:00 AM 12.23 54.014 0.195 7.09 5.05 10.16
5/15/2021 1:45:00 AM 12.22 53.996 0.195 7.08 5.43 10.17
5/15/2021 2:00:00 AM 12.2 53.96 0.196 7.07 5.4 10.18
5/15/2021 2:15:00 AM 12.17 53.906 0.196 7.09 5.36 10.18
5/15/2021 2:30:00 AM 12.13 53.834 0.196 7.06 5.38 10.21
5/15/2021 2:45:00 AM 12.08 53.744 0.196 7.07 5.47 10.22
5/15/2021 3:00:00 AM 12.04 53.672 0.195 7.08 5.26 10.22
5/15/2021 3:15:00 AM 11.99 53.582 0.195 7.05 5.31 10.24
5/15/2021 3:30:00 AM 11.94 53.492 0.195 7.06 5.2 10.26
5/15/2021 3:45:00 AM 11.89 53.402 0.195 7.06 5.31 10.27
5/15/2021 4:00:00 AM 11.84 53.312 0.195 7.05 5.31 10.29
5/15/2021 4:15:00 AM 11.77 53.186 0.195 7.05 5.27 10.3
5/15/2021 4:30:00 AM 11.72 53.096 0.195 7.06 5.39 10.31
5/15/2021 4:45:00 AM 11.66 52.988 0.195 7.06 5.23 10.33
5/15/2021 5:00:00 AM 11.61 52.898 0.195 7.02 5.2 10.36
5/15/2021 5:15:00 AM 11.55 52.79 0.195 7.05 5.28 10.37
5/15/2021 5:30:00 AM 11.5 52.7 0.195 7.04 5.22 10.38
5/15/2021 5:45:00 AM 11.45 52.61 0.195 7.04 5.82 10.41
5/15/2021 6:00:00 AM 11.39 52.502 0.195 7.05 5.09 10.43
5/15/2021 6:15:00 AM 11.34 52.412 0.195 7.06 5.48 10.47
5/15/2021 6:30:00 AM 11.3 52.34 0.195 7.06 5.12 10.51
5/15/2021 6:45:00 AM 11.27 52.286 0.196 7.08 4.96 10.55
5/15/2021 7:00:00 AM 11.25 52.25 0.196 7.1 5.37 10.58
5/15/2021 7:15:00 AM 11.25 52.25 0.195 7.11 4.95 10.65
5/15/2021 7:30:00 AM 11.27 52.286 0.195 7.13 4.9 10.36
5/15/2021 7:45:00 AM 11.3 52.34 0.195 7.16 4.93 10.37
5/15/2021 8:00:00 AM 11.36 52.448 0.195 7.19 6.85 10.91
5/15/2021 8:15:00 AM 11.43 52.574 0.195 7.22 4.87 10.97
5/15/2021 8:30:00 AM 11.51 52.718 0.195 7.23 4.72 11.03
5/15/2021 8:45:00 AM 11.6 52.88 0.195 7.26 4.79 11.07
5/15/2021 9:00:00 AM 11.7 53.06 0.195 7.29 4.91 11.12
5/15/2021 9:15:00 AM 11.82 53.276 0.195 7.32 4.64 11.14
5/15/2021 9:30:00 AM 11.96 53.528 0.195 7.34 5.05 11.16
5/15/2021 9:45:00 AM 12.12 53.816 0.195 7.36 5.38 11.18
5/15/2021 10:00:00 AM 12.3 54.14 0.195 7.38 4.54 11.19
5/15/2021 10:15:00 AM 12.5 54.5 0.195 7.41 4.48 11.18
5/15/2021 10:30:00 AM 12.72 54.896 0.195 7.43 4.46 11.17
5/15/2021 10:45:00 AM 12.97 55.346 0.195 7.45 5.04 11.15
5/15/2021 11:00:00 AM 13.24 55.832 0.195 7.47 4.55 11.13
5/15/2021 11:15:00 AM 13.51 56.318 0.195 7.5 4.44 11.11
5/15/2021 11:30:00 AM 13.8 56.84 0.195 7.52 4.43 11.07
5/15/2021 11:45:00 AM 14.09 57.362 0.195 7.54 4.36 11.04
5/15/2021 12:00:00 PM 14.38 57.884 0.195 7.55 4.62 11.01
5/15/2021 12:15:00 PM 14.68 58.424 0.195 7.56 4.53 10.97
5/15/2021 12:30:00 PM 14.98 58.964 0.195 7.58 4.3 10.92
5/15/2021 12:45:00 PM 15.28 59.504 0.195 7.6 4.34 10.87
5/15/2021 1:00:00 PM 15.54 59.972 0.195 7.62 4.31 10.82
5/15/2021 1:15:00 PM 15.8 60.44 0.195 7.64 4.44 10.79
5/15/2021 1:30:00 PM 15.96 60.728 0.195 7.63 4.39 10.74
5/15/2021 1:45:00 PM 16.17 61.106 0.195 7.64 4.25 10.7
5/15/2021 2:00:00 PM 16.18 61.124 0.195 7.61 4.28 10.66
5/15/2021 2:15:00 PM 16.06 60.908 0.195 7.58 4.49 10.6
5/15/2021 2:30:00 PM 16 60.8 0.195 7.56 4.51 10.58
5/15/2021 2:45:00 PM 16.01 60.818 0.195 7.55 4.38 10.58
5/15/2021 3:00:00 PM 16.04 60.872 0.195 7.59 4.47 10.58
5/15/2021 3:15:00 PM 16.22 61.196 0.195 7.64 4.4 10.6
5/15/2021 3:30:00 PM 16.39 61.502 0.195 7.66 7.92 10.59
5/15/2021 3:45:00 PM 16.51 61.718 0.195 7.68 4.29 10.56
5/15/2021 4:00:00 PM 16.54 61.772 0.196 7.64 4.46 10.5
5/15/2021 4:15:00 PM 16.51 61.718 0.196 7.62 4.54 10.48
5/15/2021 4:30:00 PM 16.5 61.7 0.196 7.6 4.54 10.47
5/15/2021 4:45:00 PM 16.41 61.538 0.196 7.57 4.5 10.46
5/15/2021 5:00:00 PM 16.32 61.376 0.197 7.53 4.54 10.43
5/15/2021 5:15:00 PM 16.14 61.052 0.197 7.47 4.49 10.37
5/15/2021 5:30:00 PM 15.97 60.746 0.197 7.42 4.48 10.3
5/15/2021 5:45:00 PM 15.82 60.476 0.198 7.38 4.53 10.27
5/15/2021 6:00:00 PM 15.7 60.26 0.198 7.36 5.48 10.25
5/15/2021 6:15:00 PM 15.59 60.062 0.198 7.34 4.35 10.22
5/15/2021 6:30:00 PM 15.49 59.882 0.199 7.32 4.48 10.18
5/15/2021 6:45:00 PM 15.36 59.648 0.199 7.28 4.37 10.12
5/15/2021 7:00:00 PM 15.25 59.45 0.199 7.25 4.33 10.07
5/15/2021 7:15:00 PM 15.12 59.216 0.199 7.19 4.68 10.04
5/15/2021 7:30:00 PM 15 59 0.199 7.19 4.47 9.99
5/15/2021 7:45:00 PM 14.86 58.748 0.199 7.15 4.48 9.93
5/15/2021 8:00:00 PM 14.72 58.496 0.199 7.13 4.64 9.89
5/15/2021 8:15:00 PM 14.58 58.244 0.199 7.1 4.74 9.85
5/15/2021 8:30:00 PM 14.43 57.974 0.199 7.07 4.67 9.83
5/15/2021 8:45:00 PM 14.28 57.704 0.199 7.05 4.68 9.81
5/15/2021 9:00:00 PM 14.13 57.434 0.199 7.04 5.93 9.82
5/15/2021 9:15:00 PM 13.99 57.182 0.199 7.03 4.61 9.8
5/15/2021 9:30:00 PM 13.85 56.93 0.2 7.01 4.72 9.82
5/15/2021 9:45:00 PM 13.73 56.714 0.2 7.01 4.86 9.85
5/15/2021 10:00:00 PM 13.62 56.516 0.2 7.01 4.84 9.87
5/15/2021 10:15:00 PM 13.52 56.336 0.2 7.01 4.72 9.89
5/15/2021 10:30:00 PM 13.42 56.156 0.2 7.02 5.36 9.9
5/15/2021 10:45:00 PM 13.33 55.994 0.2 7.01 4.72 9.91
5/15/2021 11:00:00 PM 13.25 55.85 0.2 7.02 4.67 9.92
5/15/2021 11:15:00 PM 13.19 55.742 0.201 7.03 4.8 9.9
5/15/2021 11:30:00 PM 13.13 55.634 0.201 7.02 4.71 9.95
5/15/2021 11:45:00 PM 13.08 55.544 0.201 7.03 4.96 9.95
5/16/2021 12:00:00 AM 13.05 55.49 0.2 7.04 4.68 9.95
5/16/2021 12:15:00 AM 13.03 55.454 0.2 7.06 4.84 9.95
5/16/2021 12:30:00 AM 13.02 55.436 0.2 7.07 4.7 9.97
5/16/2021 12:45:00 AM 13.01 55.418 0.2 7.07 4.66 9.97
5/16/2021 1:00:00 AM 13.01 55.418 0.2 7.07 4.65 9.97
5/16/2021 1:15:00 AM 13 55.4 0.2 7.08 4.7 9.97
5/16/2021 1:30:00 AM 13 55.4 0.2 7.06 4.65 9.97
5/16/2021 1:45:00 AM 13 55.4 0.199 7.07 4.64 9.96
5/16/2021 2:00:00 AM 13.01 55.418 0.2 7.08 4.52 9.96
5/16/2021 2:15:00 AM 13.02 55.436 0.2 7.08 4.7 9.96
5/16/2021 2:30:00 AM 13.02 55.436 0.2 7.08 4.65 9.96
5/16/2021 2:45:00 AM 13.03 55.454 0.2 7.07 4.5 9.96
5/16/2021 3:00:00 AM 13.03 55.454 0.201 7.08 5.06 9.95
5/16/2021 3:15:00 AM 13.02 55.436 0.201 7.08 5.1 9.92
5/16/2021 3:30:00 AM 13.02 55.436 0.201 7.08 4.62 9.95
5/16/2021 3:45:00 AM 13 55.4 0.201 7.08 4.66 9.96
5/16/2021 4:00:00 AM 12.99 55.382 0.201 7.08 4.79 9.97
5/16/2021 4:15:00 AM 12.97 55.346 0.201 7.07 4.48 9.98
5/16/2021 4:30:00 AM 12.95 55.31 0.201 7.07 4.66 9.98
5/16/2021 4:45:00 AM 12.93 55.274 0.2 7.07 4.64 9.99
5/16/2021 5:00:00 AM 12.92 55.256 0.2 7.07 7.28 9.99
5/16/2021 5:15:00 AM 12.89 55.202 0.2 7.07 4.42 10
5/16/2021 5:30:00 AM 12.86 55.148 0.2 7.06 4.72 10.01
5/16/2021 5:45:00 AM 12.83 55.094 0.2 7.06 4.75 10.02
5/16/2021 6:00:00 AM 12.8 55.04 0.2 7.06 4.82 10.04
5/16/2021 6:15:00 AM 12.77 54.986 0.2 7.08 8.82 10.09
5/16/2021 6:30:00 AM 12.75 54.95 0.199 7.08 4.6 10.14
5/16/2021 6:45:00 AM 12.74 54.932 0.199 7.1 4.56 10.23
5/16/2021 7:00:00 AM 12.72 54.896 0.199 7.12 4.43 10.29
5/16/2021 7:15:00 AM 12.73 54.914 0.199 7.14 5.71 10.37
5/16/2021 7:30:00 AM 12.77 54.986 0.199 7.16 4.37 10.48
5/16/2021 7:45:00 AM 12.81 55.058 0.199 7.2 4.6 10.59
5/16/2021 8:00:00 AM 12.84 55.112 0.199 7.23 4.14 10.68
5/16/2021 8:15:00 AM 12.88 55.184 0.198 7.25 4.28 10.75
5/16/2021 8:30:00 AM 12.96 55.328 0.198 7.28 4.27 10.84
5/16/2021 8:45:00 AM 13.04 55.472 0.198 7.34 4.21 10.9
5/16/2021 9:00:00 AM 13.09 55.562 0.198 7.33 4.25 10.96
5/16/2021 9:15:00 AM 13.17 55.706 0.198 7.37 4.39 11.01
5/16/2021 9:30:00 AM 13.29 55.922 0.198 7.41 4.25 11.07
5/16/2021 9:45:00 AM 13.38 56.084 0.198 7.44 4.59 11.1
5/16/2021 10:00:00 AM 13.54 56.372 0.197 7.49 4.52 11.15
5/16/2021 10:15:00 AM 13.7 56.66 0.197 7.51 4.32 11.18
5/16/2021 10:30:00 AM 13.83 56.894 0.197 7.56 4.52 11.21
5/16/2021 10:45:00 AM 14.02 57.236 0.198 7.59 4.03 11.22
5/16/2021 11:00:00 AM 14.11 57.398 0.197 7.6 4.18 11.22
5/16/2021 11:15:00 AM 14.25 57.65 0.197 7.64 4.22 11.22
5/16/2021 11:30:00 AM 14.35 57.83 0.197 7.66 4.33 11.16
5/16/2021 11:45:00 AM 14.4 57.92 0.197 7.65 4.21 11.12
5/16/2021 12:00:00 PM 14.62 58.316 0.197 7.7 6.02 11.13
5/16/2021 12:15:00 PM 14.84 58.712 0.197 7.74 5.34 11.13
5/16/2021 12:30:00 PM 15.06 59.108 0.197 7.77 4.59 11.12
5/16/2021 12:45:00 PM 15.27 59.486 0.198 7.81 4.67 11.1
5/16/2021 1:00:00 PM 15.47 59.846 0.197 7.83 6.62 11.07
5/16/2021 1:15:00 PM 15.7 60.26 0.198 7.89 5.74 11.05
5/16/2021 1:30:00 PM 15.83 60.494 0.198 7.89 4.69 11.01
5/16/2021 1:45:00 PM 16 60.8 0.197 7.92 4.43 10.99
5/16/2021 2:00:00 PM 16.15 61.07 0.198 7.94 4.46 10.96
5/16/2021 2:15:00 PM 16.18 61.124 0.197 7.92 8.05 10.9
5/16/2021 2:30:00 PM 16.17 61.106 0.197 7.89 4.41 10.79
5/16/2021 2:45:00 PM 16.14 61.052 0.197 7.84 5.68 10.72
5/16/2021 3:00:00 PM 16.09 60.962 0.197 7.8 4.55 10.6
5/16/2021 3:15:00 PM 16.03 60.854 0.197 7.69 4.48 10.42
5/16/2021 3:30:00 PM 15.98 60.764 0.197 7.62 4.43 10.31
5/16/2021 3:45:00 PM 15.92 60.656 0.197 7.56 4.6 10.23
5/16/2021 4:00:00 PM 15.89 60.602 0.197 7.53 4.62 10.26
5/16/2021 4:15:00 PM 15.85 60.53 0.197 7.52 4.72 10.27
5/16/2021 4:30:00 PM 15.79 60.422 0.197 7.5 4.5 10.23
5/16/2021 4:45:00 PM 15.72 60.296 0.197 7.46 4.46 10.26
5/16/2021 5:00:00 PM 15.65 60.17 0.197 7.45 4.6 10.26
5/16/2021 5:15:00 PM 15.53 59.954 0.197 7.4 4.65 10.19
5/16/2021 5:30:00 PM 15.4 59.72 0.197 7.34 4.51 10.12
5/16/2021 5:45:00 PM 15.27 59.486 0.197 7.28 4.69 10.06
5/16/2021 6:00:00 PM 15.12 59.216 0.197 7.24 4.67 10.02
5/16/2021 6:15:00 PM 14.97 58.946 0.197 7.22 5.2 10
5/16/2021 6:30:00 PM 14.81 58.658 0.197 7.19 5.45 10
5/16/2021 6:45:00 PM 14.66 58.388 0.197 7.15 4.75 10
5/16/2021 7:00:00 PM 14.51 58.118 0.197 7.15 5.07 9.98
5/16/2021 7:15:00 PM 14.37 57.866 0.197 7.12 4.69 9.97
5/16/2021 7:30:00 PM 14.25 57.65 0.197 7.13 4.76 9.94
5/16/2021 7:45:00 PM 14.14 57.452 0.197 7.11 4.79 9.93
5/16/2021 8:00:00 PM 14.06 57.308 0.197 7.11 4.8 9.91
5/16/2021 8:15:00 PM 14 57.2 0.198 7.11 4.78 9.87
5/16/2021 8:30:00 PM 13.98 57.164 0.198 7.11 4.69 9.84
5/16/2021 8:45:00 PM 13.99 57.182 0.198 7.12 4.65 9.81
5/16/2021 9:00:00 PM 14 57.2 0.199 7.13 4.73 9.77
5/16/2021 9:15:00 PM 14.02 57.236 0.199 7.13 4.75 9.75
5/16/2021 9:30:00 PM 14.03 57.254 0.199 7.12 4.73 9.73
5/16/2021 9:45:00 PM 14.02 57.236 0.199 7.12 4.77 9.72
5/16/2021 10:00:00 PM 14 57.2 0.199 7.12 4.77 9.72
5/16/2021 10:15:00 PM 13.97 57.146 0.199 7.11 4.68 9.71
5/16/2021 10:30:00 PM 13.94 57.092 0.199 7.09 4.65 9.72
5/16/2021 10:45:00 PM 13.9 57.02 0.199 7.1 4.72 9.72
5/16/2021 11:00:00 PM 13.85 56.93 0.199 7.08 4.74 9.73
5/16/2021 11:15:00 PM 13.81 56.858 0.199 7.07 10.63 9.74
5/16/2021 11:30:00 PM 13.76 56.768 0.199 7.07 4.74 9.76
5/16/2021 11:45:00 PM 13.7 56.66 0.199 7.06 4.86 9.77
5/17/2021 12:00:00 AM 13.64 56.552 0.199 7.06 4.8 9.78
5/17/2021 12:15:00 AM 13.57 56.426 0.199 7.06 4.81 9.8
5/17/2021 12:30:00 AM 13.49 56.282 0.199 7.06 4.78 9.83
5/17/2021 12:45:00 AM 13.39 56.102 0.199 7.05 4.81 9.85
5/17/2021 1:00:00 AM 13.29 55.922 0.199 7.03 4.98 9.88
5/17/2021 1:15:00 AM 13.17 55.706 0.199 7.04 4.92 9.91
5/17/2021 1:30:00 AM 13.04 55.472 0.199 7.03 4.9 9.95
5/17/2021 1:45:00 AM 12.91 55.238 0.199 7.01 4.94 9.99
5/17/2021 2:00:00 AM 12.78 55.004 0.199 7.02 4.79 10.03
5/17/2021 2:15:00 AM 12.65 54.77 0.199 6.99 4.83 10.07
5/17/2021 2:30:00 AM 12.53 54.554 0.199 7.02 4.88 10.1
5/17/2021 2:45:00 AM 12.43 54.374 0.199 7 4.87 10.13
5/17/2021 3:00:00 AM 12.35 54.23 0.199 7.03 5.22 10.14
5/17/2021 3:15:00 AM 12.29 54.122 0.199 7.03 4.87 10.16
5/17/2021 3:30:00 AM 12.25 54.05 0.199 7.05 4.77 10.16
5/17/2021 3:45:00 AM 12.23 54.014 0.199 7.06 4.67 10.16
5/17/2021 4:00:00 AM 12.21 53.978 0.199 7.04 4.75 10.17
5/17/2021 4:15:00 AM 12.2 53.96 0.199 7.06 4.72 10.18
5/17/2021 4:30:00 AM 12.18 53.924 0.199 7.07 4.83 10.18
5/17/2021 4:45:00 AM 12.16 53.888 0.199 7.07 4.74 10.18
5/17/2021 5:00:00 AM 12.14 53.852 0.199 7.08 4.81 10.19
5/17/2021 5:15:00 AM 12.11 53.798 0.199 7.06 4.67 10.2
5/17/2021 5:30:00 AM 12.07 53.726 0.199 7.07 4.63 10.2
5/17/2021 5:45:00 AM 12.04 53.672 0.199 7.08 11.48 10.21
5/17/2021 6:00:00 AM 12 53.6 0.199 7.07 4.69 10.26
5/17/2021 6:15:00 AM 11.96 53.528 0.199 7.08 4.73 10.3
5/17/2021 6:30:00 AM 11.92 53.456 0.199 7.1 4.51 10.36
5/17/2021 6:45:00 AM 11.89 53.402 0.2 7.1 4.46 10.43
5/17/2021 7:00:00 AM 11.87 53.366 0.2 7.11 4.32 10.5
5/17/2021 7:15:00 AM 11.86 53.348 0.2 7.13 4.42 10.59
5/17/2021 7:30:00 AM 11.89 53.402 0.2 7.16 4.44 10.7
5/17/2021 7:45:00 AM 11.91 53.438 0.2 7.19 4.37 10.78
5/17/2021 8:00:00 AM 11.98 53.564 0.2 7.23 4.4 10.88
5/17/2021 8:15:00 AM 12.05 53.69 0.199 7.26 4.23 10.97
5/17/2021 8:30:00 AM 12.14 53.852 0.199 7.3 4.37 11.05
5/17/2021 8:45:00 AM 12.23 54.014 0.199 7.33 4.42 11.1
5/17/2021 9:00:00 AM 12.34 54.212 0.199 7.36 4.39 11.14
5/17/2021 9:15:00 AM 12.47 54.446 0.199 7.39 4.32 11.19
5/17/2021 9:30:00 AM 12.63 54.734 0.199 7.43 4.26 11.23
5/17/2021 9:45:00 AM 12.79 55.022 0.198 7.46 4.2 11.25
5/17/2021 10:00:00 AM 12.98 55.364 0.198 7.48 4.23 11.27
5/17/2021 10:15:00 AM 13.18 55.724 0.198 7.52 4.15 11.27
5/17/2021 10:30:00 AM 13.41 56.138 0.198 7.55 4.21 11.29
5/17/2021 10:45:00 AM 13.66 56.588 0.198 7.58 14.95 11.27
5/17/2021 11:00:00 AM 13.93 57.074 0.198 7.61 4.22 11.27
5/17/2021 11:15:00 AM 14.21 57.578 0.197 7.65 4.81 11.24
5/17/2021 11:30:00 AM 14.5 58.1 0.197 7.68 4.27 11.22
5/17/2021 11:45:00 AM 14.81 58.658 0.197 7.72 4.18 11.18
5/17/2021 12:00:00 PM 15.13 59.234 0.197 7.74 4.15 11.15
5/17/2021 12:15:00 PM 15.45 59.81 0.197 7.79 4.14 11.11
5/17/2021 12:30:00 PM 15.75 60.35 0.197 7.81 4.13 11.07
5/17/2021 12:45:00 PM 16 60.8 0.197 7.84 4.21 10.98
5/17/2021 1:00:00 PM 16.28 61.304 0.197 7.86 4.22 10.95
5/17/2021 1:15:00 PM 16.58 61.844 0.197 7.9 4.08 10.93
5/17/2021 1:30:00 PM 16.89 62.402 0.197 7.93 4.08 10.89
5/17/2021 1:45:00 PM 17.16 62.888 0.197 7.98 4.11 10.84
5/17/2021 2:00:00 PM 17.39 63.302 0.197 7.99 4.07 10.79
5/17/2021 2:15:00 PM 17.64 63.752 0.197 8.02 4.18 10.74
5/17/2021 2:30:00 PM 17.83 64.094 0.197 8.03 4.1 10.68
5/17/2021 2:45:00 PM 18.03 64.454 0.197 8.06 4.15 10.63
5/17/2021 3:00:00 PM 18.2 64.76 0.197 8.07 4.22 10.58
5/17/2021 3:15:00 PM 18.32 64.976 0.197 8.06 4.2 10.52
5/17/2021 3:30:00 PM 18.39 65.102 0.197 8.05 4.18 10.47
5/17/2021 3:45:00 PM 18.4 65.12 0.197 8.02 4.23 10.41
5/17/2021 4:00:00 PM 18.42 65.156 0.197 8 4.11 10.37
5/17/2021 4:15:00 PM 18.42 65.156 0.197 7.98 4 10.32
5/17/2021 4:30:00 PM 18.39 65.102 0.197 7.95 4.05 10.29
5/17/2021 4:45:00 PM 18.31 64.958 0.197 7.93 4.14 10.22
5/17/2021 5:00:00 PM 18.13 64.634 0.197 7.81 4.04 10.06
5/17/2021 5:15:00 PM 18.03 64.454 0.197 7.67 4.11 9.98
5/17/2021 5:30:00 PM 17.94 64.292 0.197 7.65 4.05 9.93
5/17/2021 5:45:00 PM 17.87 64.166 0.197 7.64 4.09 9.94
5/17/2021 6:00:00 PM 17.74 63.932 0.197 7.57 4.17 9.87
5/17/2021 6:15:00 PM 17.63 63.734 0.197 7.49 4.18 9.8
5/17/2021 6:30:00 PM 17.58 63.644 0.197 7.49 4.36 9.82
5/17/2021 6:45:00 PM 17.48 63.464 0.197 7.46 4.39 9.78
5/17/2021 7:00:00 PM 17.35 63.23 0.197 7.38 4.15 9.66
5/17/2021 7:15:00 PM 17.23 63.014 0.198 7.31 4.1 9.56
5/17/2021 7:30:00 PM 17.08 62.744 0.198 7.24 4.14 9.5
5/17/2021 7:45:00 PM 16.92 62.456 0.198 7.2 4.23 9.43
5/17/2021 8:00:00 PM 16.75 62.15 0.198 7.16 4.17 9.4
5/17/2021 8:15:00 PM 16.57 61.826 0.198 7.12 4.24 9.36
5/17/2021 8:30:00 PM 16.39 61.502 0.198 7.09 4.31 9.33
5/17/2021 8:45:00 PM 16.19 61.142 0.199 7.05 7.27 9.33
5/17/2021 9:00:00 PM 15.99 60.782 0.199 7.03 4.06 9.33
5/17/2021 9:15:00 PM 15.79 60.422 0.199 7.02 4.09 9.35
5/17/2021 9:30:00 PM 15.58 60.044 0.199 6.99 4.1 9.37
5/17/2021 9:45:00 PM 15.39 59.702 0.2 6.99 4.05 9.4
5/17/2021 10:00:00 PM 15.2 59.36 0.2 6.98 4.01 9.43
5/17/2021 10:15:00 PM 15.02 59.036 0.2 6.98 4.26 9.46
5/17/2021 10:30:00 PM 14.85 58.73 0.2 6.98 4.06 9.49
5/17/2021 10:45:00 PM 14.69 58.442 0.2 6.98 4.06 9.53
5/17/2021 11:00:00 PM 14.54 58.172 0.2 6.98 5.03 9.56
5/17/2021 11:15:00 PM 14.39 57.902 0.2 6.98 4.03 9.6
5/17/2021 11:30:00 PM 14.26 57.668 0.2 6.98 4.05 9.62
5/17/2021 11:45:00 PM 14.13 57.434 0.199 6.99 4.11 9.66
5/18/2021 12:00:00 AM 14.01 57.218 0.199 7 3.95 9.69
5/18/2021 12:15:00 AM 13.89 57.002 0.198 7 12.34 9.72
5/18/2021 12:30:00 AM 13.77 56.786 0.198 7 26.55 9.75
5/18/2021 12:45:00 AM 13.66 56.588 0.198 7 21.27 9.77
5/18/2021 1:00:00 AM 13.55 56.39 0.198 7 10.86 9.8
5/18/2021 1:15:00 AM 13.45 56.21 0.198 7.01 7.29 9.83
5/18/2021 1:30:00 AM 13.36 56.048 0.197 7.01 18.6 9.85
5/18/2021 1:45:00 AM 13.27 55.886 0.198 7.01 13.93 9.87
5/18/2021 2:00:00 AM 13.19 55.742 0.198 7.02 75.82 9.89
5/18/2021 2:15:00 AM 13.11 55.598 0.198 7.02 13.52 9.92
5/18/2021 2:30:00 AM 13.04 55.472 0.198 7.02 11.25 9.93
5/18/2021 2:45:00 AM 12.97 55.346 0.198 7.03 20.23 9.94
5/18/2021 3:00:00 AM 12.91 55.238 0.198 7.03 6.57 9.97
5/18/2021 3:15:00 AM 12.85 55.13 0.198 7.03 118.1 9.98
5/18/2021 3:30:00 AM 12.79 55.022 0.199 7.03 28.93 10
5/18/2021 3:45:00 AM 12.74 54.932 0.199 7.04 7.43 10.01
5/18/2021 4:00:00 AM 12.69 54.842 0.198 7.05 552.45 10.02
5/18/2021 4:15:00 AM 12.65 54.77 0.199 7.04 9.79 10.03
5/18/2021 4:30:00 AM 12.61 54.698 0.199 7.04 10.45 10.03
5/18/2021 4:45:00 AM 12.58 54.644 0.199 7.06 212.35 10.04
5/18/2021 5:00:00 AM 12.55 54.59 0.2 7.05 20.8 10.06
5/18/2021 5:15:00 AM 12.52 54.536 0.2 7.06 39.14 10.06
5/18/2021 5:30:00 AM 12.5 54.5 0.2 7.06 3.87 10.06
5/18/2021 5:45:00 AM 12.48 54.464 0.201 7.06 3.77 10.08
5/18/2021 6:00:00 AM 12.45 54.41 0.201 7.07 3.75 10.1
5/18/2021 6:15:00 AM 12.44 54.392 0.2 7.08 3.7 10.16
5/18/2021 6:30:00 AM 12.43 54.374 0.201 7.09 3.8 10.21
5/18/2021 6:45:00 AM 12.43 54.374 0.2 7.1 3.89 10.27
5/18/2021 7:00:00 AM 12.44 54.392 0.2 7.13 3.9 10.35
5/18/2021 7:15:00 AM 12.47 54.446 0.2 7.15 3.76 10.44
5/18/2021 7:30:00 AM 12.53 54.554 0.2 7.18 3.7 10.56
5/18/2021 7:45:00 AM 12.6 54.68 0.2 7.21 3.65 10.65
5/18/2021 8:00:00 AM 12.71 54.878 0.2 7.26 3.63 10.75
5/18/2021 8:15:00 AM 12.83 55.094 0.2 7.3 3.61 10.85
5/18/2021 8:30:00 AM 12.96 55.328 0.201 7.33 3.58 10.92
5/18/2021 8:45:00 AM 13.1 55.58 0.201 7.36 3.63 10.98
5/18/2021 9:00:00 AM 13.25 55.85 0.201 7.4 3.66 11.03
5/18/2021 9:15:00 AM 13.42 56.156 0.2 7.43 3.61 11.07
5/18/2021 9:30:00 AM 13.6 56.48 0.2 7.46 3.57 11.11
5/18/2021 9:45:00 AM 13.8 56.84 0.2 7.5 3.63 11.14
5/18/2021 10:00:00 AM 14.01 57.218 0.2 7.54 3.56 11.16
5/18/2021 10:15:00 AM 14.22 57.596 0.2 7.58 3.5 11.18
5/18/2021 10:30:00 AM 14.46 58.028 0.2 7.62 9.43 11.19
5/18/2021 10:45:00 AM 14.72 58.496 0.2 7.66 3.59 11.18
5/18/2021 11:00:00 AM 15 59 0.2 7.71 3.57 11.18
5/18/2021 11:15:00 AM 15.3 59.54 0.199 7.74 3.52 11.16
5/18/2021 11:30:00 AM 15.6 60.08 0.199 7.78 3.51 11.14
5/18/2021 11:45:00 AM 15.92 60.656 0.199 7.81 3.54 11.12
5/18/2021 12:00:00 PM 16.26 61.268 0.199 7.86 3.6 11.1
5/18/2021 12:15:00 PM 16.58 61.844 0.199 7.91 3.54 11.06
5/18/2021 12:30:00 PM 16.92 62.456 0.199 7.97 3.55 11.03
5/18/2021 12:45:00 PM 17.25 63.05 0.199 8.02 3.55 11.01
5/18/2021 1:00:00 PM 17.6 63.68 0.199 8.09 3.57 11
5/18/2021 1:15:00 PM 17.84 64.112 0.199 8.11 3.71 10.92
5/18/2021 1:30:00 PM 18.18 64.724 0.199 8.18 3.66 10.9
5/18/2021 1:45:00 PM 18.31 64.958 0.199 8.2 3.66 10.84
5/18/2021 2:00:00 PM 18.28 64.904 0.199 8.14 3.54 10.69
5/18/2021 2:15:00 PM 18.49 65.282 0.199 8.2 3.56 10.69
5/18/2021 2:30:00 PM 18.52 65.336 0.199 8.19 3.52 10.58
5/18/2021 2:45:00 PM 18.75 65.75 0.199 8.27 3.51 10.62
5/18/2021 3:00:00 PM 18.91 66.038 0.199 8.27 3.47 10.53
5/18/2021 3:15:00 PM 19.17 66.506 0.198 8.32 3.49 10.54
5/18/2021 3:30:00 PM 19.43 66.974 0.199 8.36 3.39 10.55
5/18/2021 3:45:00 PM 19.58 67.244 0.198 8.37 3.43 10.5
5/18/2021 4:00:00 PM 19.62 67.316 0.199 8.35 3.44 10.42
5/18/2021 4:15:00 PM 19.66 67.388 0.197 8.32 3.44 10.31
5/18/2021 4:30:00 PM 19.63 67.334 0.197 8.27 3.41 10.25
5/18/2021 4:45:00 PM 19.6 67.28 0.197 8.25 3.41 10.19
5/18/2021 5:00:00 PM 19.47 67.046 0.196 8.21 3.46 10.14
5/18/2021 5:15:00 PM 19.34 66.812 0.197 8.11 3.51 10.05
5/18/2021 5:30:00 PM 19.18 66.524 0.197 8.04 3.77 9.97
5/18/2021 5:45:00 PM 19.05 66.29 0.197 8 3.6 9.93
5/18/2021 6:00:00 PM 18.92 66.056 0.197 7.92 3.86 9.87
5/18/2021 6:15:00 PM 18.77 65.786 0.197 7.86 3.53 9.81
5/18/2021 6:30:00 PM 18.63 65.534 0.197 7.76 3.61 9.73
5/18/2021 6:45:00 PM 18.5 65.3 0.198 7.68 3.6 9.64
5/18/2021 7:00:00 PM 18.37 65.066 0.198 7.58 3.5 9.54
5/18/2021 7:15:00 PM 18.25 64.85 0.199 7.48 3.54 9.42
5/18/2021 7:30:00 PM 18.13 64.634 0.199 7.4 3.58 9.32
5/18/2021 7:45:00 PM 18.01 64.418 0.199 7.33 4.08 9.22
5/18/2021 8:00:00 PM 17.88 64.184 0.2 7.26 3.62 9.15
5/18/2021 8:15:00 PM 17.74 63.932 0.2 7.21 3.6 9.09
5/18/2021 8:30:00 PM 17.58 63.644 0.2 7.15 3.7 9.03
5/18/2021 8:45:00 PM 17.41 63.338 0.2 7.11 3.74 9
5/18/2021 9:00:00 PM 17.24 63.032 0.2 7.06 3.79 8.99
5/18/2021 9:15:00 PM 17.07 62.726 0.203 7.05 3.72 9
5/18/2021 9:30:00 PM 16.89 62.402 0.202 7.03 3.79 9
5/18/2021 9:45:00 PM 16.71 62.078 0.203 7.02 3.74 9.03
5/18/2021 10:00:00 PM 16.54 61.772 0.203 7.01 3.73 9.06
5/18/2021 10:15:00 PM 16.36 61.448 0.203 6.99 3.81 9.09
5/18/2021 10:30:00 PM 16.19 61.142 0.204 6.99 3.74 9.11
5/18/2021 10:45:00 PM 16.02 60.836 0.204 7 3.79 9.14
5/18/2021 11:00:00 PM 15.86 60.548 0.205 6.99 3.82 9.18
5/18/2021 11:15:00 PM 15.71 60.278 0.206 6.98 3.86 9.22
5/18/2021 11:30:00 PM 15.57 60.026 0.206 7 3.84 9.24
5/18/2021 11:45:00 PM 15.44 59.792 0.206 6.99 3.78 9.28
5/19/2021 12:00:00 AM 15.32 59.576 0.206 6.99 3.78 9.3
5/19/2021 12:15:00 AM 15.21 59.378 0.205 7.01 3.7 9.33
5/19/2021 12:30:00 AM 15.1 59.18 0.205 7.01 3.7 9.35
5/19/2021 12:45:00 AM 15 59 0.205 7.01 3.79 9.38
5/19/2021 1:00:00 AM 14.91 58.838 0.205 7 3.86 9.41
5/19/2021 1:15:00 AM 14.81 58.658 0.204 7.01 4.02 9.42
5/19/2021 1:30:00 AM 14.73 58.514 0.204 7.01 3.93 9.44
5/19/2021 1:45:00 AM 14.65 58.37 0.205 7.02 4.16 9.46
5/19/2021 2:00:00 AM 14.58 58.244 0.205 7.02 3.91 9.48
5/19/2021 2:15:00 AM 14.52 58.136 0.205 7.03 3.89 9.49
5/19/2021 2:30:00 AM 14.46 58.028 0.204 7.04 3.9 9.52
5/19/2021 2:45:00 AM 14.41 57.938 0.204 7.03 3.78 9.52
5/19/2021 3:00:00 AM 14.36 57.848 0.204 7.04 3.88 9.54
5/19/2021 3:15:00 AM 14.31 57.758 0.204 7.04 3.81 9.56
5/19/2021 3:30:00 AM 14.27 57.686 0.203 7.04 3.97 9.55
5/19/2021 3:45:00 AM 14.24 57.632 0.203 7.05 3.91 9.55
5/19/2021 4:00:00 AM 14.22 57.596 0.203 7.05 3.9 9.57
5/19/2021 4:15:00 AM 14.18 57.524 0.204 7.05 3.84 9.57
5/19/2021 4:30:00 AM 14.17 57.506 0.204 7.05 3.84 9.59
5/19/2021 4:45:00 AM 14.14 57.452 0.204 7.06 3.98 9.58
5/19/2021 5:00:00 AM 14.11 57.398 0.203 7.05 3.88 9.59
5/19/2021 5:15:00 AM 14.09 57.362 0.203 7.05 3.92 9.6
5/19/2021 5:30:00 AM 14.07 57.326 0.204 7.05 3.85 9.6
5/19/2021 5:45:00 AM 14.05 57.29 0.204 7.06 3.84 9.62
5/19/2021 6:00:00 AM 14.02 57.236 0.203 7.06 3.87 9.66
5/19/2021 6:15:00 AM 14 57.2 0.203 7.07 3.85 9.72
5/19/2021 6:30:00 AM 13.99 57.182 0.203 7.08 3.92 9.79
5/19/2021 6:45:00 AM 13.98 57.164 0.203 7.1 3.8 9.87
5/19/2021 7:00:00 AM 13.98 57.164 0.203 7.12 3.69 9.97
5/19/2021 7:15:00 AM 14 57.2 0.203 7.15 3.71 10.08
5/19/2021 7:30:00 AM 14.06 57.308 0.203 7.17 3.69 10.24
5/19/2021 7:45:00 AM 14.12 57.416 0.203 7.22 3.66 10.36
5/19/2021 8:00:00 AM 14.21 57.578 0.203 7.27 3.57 10.5
5/19/2021 8:15:00 AM 14.33 57.794 0.203 7.32 3.61 10.63
5/19/2021 8:30:00 AM 14.45 58.01 0.203 7.36 3.66 10.73
5/19/2021 8:45:00 AM 14.57 58.226 0.203 7.4 3.51 10.8
5/19/2021 9:00:00 AM 14.71 58.478 0.202 7.44 3.58 10.87
5/19/2021 9:15:00 AM 14.86 58.748 0.202 7.49 3.6 10.93
5/19/2021 9:30:00 AM 15.03 59.054 0.203 7.51 3.6 10.99
5/19/2021 9:45:00 AM 15.21 59.378 0.202 7.57 3.52 11.03
5/19/2021 10:00:00 AM 15.41 59.738 0.202 7.63 3.59 11.08
5/19/2021 10:15:00 AM 15.62 60.116 0.202 7.68 3.52 11.1
5/19/2021 10:30:00 AM 15.84 60.512 0.202 7.72 3.53 11.14
5/19/2021 10:45:00 AM 16.09 60.962 0.202 7.78 3.52 11.14
5/19/2021 11:00:00 AM 16.35 61.43 0.202 7.83 3.61 11.16
5/19/2021 11:15:00 AM 16.63 61.934 0.202 7.89 3.51 11.15
5/19/2021 11:30:00 AM 16.94 62.492 0.202 7.95 3.71 11.15
5/19/2021 11:45:00 AM 17.25 63.05 0.202 8 3.49 11.13
5/19/2021 12:00:00 PM 17.58 63.644 0.202 8.06 3.57 11.12
5/19/2021 12:15:00 PM 17.91 64.238 0.203 8.13 3.54 11.1
5/19/2021 12:30:00 PM 18.26 64.868 0.203 8.18 3.6 11.07
5/19/2021 12:45:00 PM 18.6 65.48 0.202 8.25 3.55 11.04
5/19/2021 1:00:00 PM 18.94 66.092 0.203 8.3 3.6 10.99
5/19/2021 1:15:00 PM 19.26 66.668 0.203 8.34 3.48 10.96
5/19/2021 1:30:00 PM 19.56 67.208 0.203 8.4 3.46 10.91
5/19/2021 1:45:00 PM 19.87 67.766 0.203 8.42 3.62 10.85
5/19/2021 2:00:00 PM 20.14 68.252 0.203 8.46 3.67 10.79
5/19/2021 2:15:00 PM 20.39 68.702 0.203 8.48 3.69 10.73
5/19/2021 2:30:00 PM 20.61 69.098 0.202 8.51 3.49 10.67
5/19/2021 2:45:00 PM 20.8 69.44 0.203 8.52 3.5 10.61
5/19/2021 3:00:00 PM 20.98 69.764 0.203 8.53 3.47 10.54
5/19/2021 3:15:00 PM 21.14 70.052 0.203 8.54 3.72 10.45
5/19/2021 3:30:00 PM 21.27 70.286 0.203 8.53 3.57 10.38
5/19/2021 3:45:00 PM 21.37 70.466 0.203 8.52 3.65 10.29
5/19/2021 4:00:00 PM 21.43 70.574 0.203 8.51 3.65 10.22
5/19/2021 4:15:00 PM 21.44 70.592 0.203 8.48 3.68 10.14
5/19/2021 4:30:00 PM 21.37 70.466 0.203 8.44 3.72 10.08
5/19/2021 4:45:00 PM 21.38 70.484 0.203 8.43 3.76 10.04
5/19/2021 5:00:00 PM 21.37 70.466 0.203 8.41 3.72 9.98
5/19/2021 5:15:00 PM 21.33 70.394 0.203 8.37 3.7 9.93
5/19/2021 5:30:00 PM 21.33 70.394 0.204 8.35 3.7 9.9
5/19/2021 5:45:00 PM 21.23 70.214 0.204 8.32 3.78 9.81
5/19/2021 6:00:00 PM 21.12 70.016 0.205 8.23 3.58 9.67
5/19/2021 6:15:00 PM 21.04 69.872 0.205 8.16 3.56 9.61
5/19/2021 6:30:00 PM 20.91 69.638 0.205 8.04 3.54 9.42
5/19/2021 6:45:00 PM 20.8 69.44 0.205 7.92 3.57 9.29
5/19/2021 7:00:00 PM 20.73 69.314 0.205 7.86 3.99 9.26
5/19/2021 7:15:00 PM 20.63 69.134 0.206 7.77 3.56 9.19
5/19/2021 7:30:00 PM 20.52 68.936 0.206 7.66 3.67 9.09
5/19/2021 7:45:00 PM 20.39 68.702 0.206 7.53 3.66 8.96
5/19/2021 8:00:00 PM 20.25 68.45 0.206 7.43 4.22 8.84
5/19/2021 8:15:00 PM 20.09 68.162 0.207 7.32 3.75 8.69
5/19/2021 8:30:00 PM 19.92 67.856 0.207 7.24 3.73 8.58
5/19/2021 8:45:00 PM 19.75 67.55 0.207 7.18 5.35 8.51
5/19/2021 9:00:00 PM 19.57 67.226 0.208 7.13 5.03 8.46
5/19/2021 9:15:00 PM 19.4 66.92 0.208 7.1 3.91 8.46
5/19/2021 9:30:00 PM 19.22 66.596 0.21 7.07 4.08 8.46
5/19/2021 9:45:00 PM 19.04 66.272 0.211 7.04 3.89 8.46
5/19/2021 10:00:00 PM 18.87 65.966 0.212 7.02 3.96 8.49
5/19/2021 10:15:00 PM 18.68 65.624 0.211 7.01 3.83 8.51
5/19/2021 10:30:00 PM 18.5 65.3 0.212 7 3.89 8.55
5/19/2021 10:45:00 PM 18.33 64.994 0.212 6.99 3.86 8.57
5/19/2021 11:00:00 PM 18.17 64.706 0.212 6.99 3.92 8.59
5/19/2021 11:15:00 PM 18.01 64.418 0.213 6.97 4.34 8.62
5/19/2021 11:30:00 PM 17.86 64.148 0.212 6.98 4.42 8.66
5/19/2021 11:45:00 PM 17.73 63.914 0.212 6.99 4 8.7
5/20/2021 12:00:00 AM 17.59 63.662 0.213 6.99 4.01 8.71
5/20/2021 12:15:00 AM 17.47 63.446 0.213 7 3.89 8.73
5/20/2021 12:30:00 AM 17.35 63.23 0.213 7 3.96 8.77
5/20/2021 12:45:00 AM 17.24 63.032 0.213 6.99 4.03 8.8
5/20/2021 1:00:00 AM 17.14 62.852 0.213 7.01 6.24 8.81
5/20/2021 1:15:00 AM 17.03 62.654 0.213 6.99 3.98 8.84
5/20/2021 1:30:00 AM 16.93 62.474 0.214 7.01 4.05 8.87
5/20/2021 1:45:00 AM 16.83 62.294 0.214 7 4.05 8.88
5/20/2021 2:00:00 AM 16.74 62.132 0.214 7 4.74 8.91
5/20/2021 2:15:00 AM 16.66 61.988 0.214 7.01 4.1 8.94
5/20/2021 2:30:00 AM 16.56 61.808 0.214 7 4.04 8.95
5/20/2021 2:45:00 AM 16.48 61.664 0.214 7.01 3.99 8.97
5/20/2021 3:00:00 AM 16.41 61.538 0.214 7.01 3.99 8.99
5/20/2021 3:15:00 AM 16.33 61.394 0.214 7.02 4.01 9.01
5/20/2021 3:30:00 AM 16.26 61.268 0.214 7.02 4.08 9.02
5/20/2021 3:45:00 AM 16.19 61.142 0.214 7.03 3.98 9.05
5/20/2021 4:00:00 AM 16.12 61.016 0.214 7.01 4 9.06
5/20/2021 4:15:00 AM 16.06 60.908 0.213 7.04 4.15 9.05
5/20/2021 4:30:00 AM 16 60.8 0.213 7.05 4.03 9.1
5/20/2021 4:45:00 AM 15.95 60.71 0.213 7.05 3.99 9.11
5/20/2021 5:00:00 AM 15.9 60.62 0.213 7.03 4.86 9.13
5/20/2021 5:15:00 AM 15.86 60.548 0.212 7.05 3.93 9.14
5/20/2021 5:30:00 AM 15.82 60.476 0.213 7.05 3.73 9.14
5/20/2021 5:45:00 AM 15.77 60.386 0.211 7.05 3.7 9.16
5/20/2021 6:00:00 AM 15.74 60.332 0.211 7.06 3.66 9.21
5/20/2021 6:15:00 AM 15.71 60.278 0.212 7.05 3.63 9.27
5/20/2021 6:30:00 AM 15.69 60.242 0.212 7.08 3.62 9.38
5/20/2021 6:45:00 AM 15.69 60.242 0.212 7.1 3.66 9.5
5/20/2021 7:00:00 AM 15.69 60.242 0.212 7.14 3.58 9.62
5/20/2021 7:15:00 AM 15.73 60.314 0.212 7.18 4.1 9.79
5/20/2021 7:30:00 AM 15.78 60.404 0.212 7.23 3.56 9.96
5/20/2021 7:45:00 AM 15.83 60.494 0.212 7.25 3.51 10.08
5/20/2021 8:00:00 AM 15.94 60.692 0.212 7.31 3.54 10.26
5/20/2021 8:15:00 AM 16.07 60.926 0.211 7.38 3.53 10.43
5/20/2021 8:30:00 AM 16.21 61.178 0.211 7.41 3.53 10.56
5/20/2021 8:45:00 AM 16.34 61.412 0.211 7.49 3.49 10.67
5/20/2021 9:00:00 AM 16.48 61.664 0.21 7.54 3.52 10.77
5/20/2021 9:15:00 AM 16.63 61.934 0.209 7.61 3.57 10.83
5/20/2021 9:30:00 AM 16.79 62.222 0.21 7.66 3.55 10.91
5/20/2021 9:45:00 AM 16.96 62.528 0.211 7.74 3.88 10.99
5/20/2021 10:00:00 AM 17.15 62.87 0.211 7.8 4.14 11.03
5/20/2021 10:15:00 AM 17.35 63.23 0.211 7.88 4.73 11.09
5/20/2021 10:30:00 AM 17.56 63.608 0.211 7.94 3.67 11.13
5/20/2021 10:45:00 AM 17.81 64.058 0.211 8.01 3.61 11.16
5/20/2021 11:00:00 AM 18.07 64.526 0.211 8.08 3.8 11.18
5/20/2021 11:15:00 AM 18.35 65.03 0.21 8.13 3.53 11.17
5/20/2021 11:30:00 AM 18.64 65.552 0.21 8.19 3.63 11.17
5/20/2021 11:45:00 AM 18.95 66.11 0.209 8.26 3.61 11.16
5/20/2021 12:00:00 PM 19.26 66.668 0.21 8.32 3.47 11.16
5/20/2021 12:15:00 PM 19.57 67.226 0.21 8.38 3.61 11.18
5/20/2021 12:30:00 PM 19.87 67.766 0.21 8.44 3.68 11.19
5/20/2021 12:45:00 PM 20.17 68.306 0.211 8.49 3.7 11.15
5/20/2021 1:00:00 PM 20.48 68.864 0.211 8.55 3.63 11.13
5/20/2021 1:15:00 PM 20.76 69.368 0.211 8.58 3.78 11.07
5/20/2021 1:30:00 PM 21.07 69.926 0.211 8.62 3.68 11.01
5/20/2021 1:45:00 PM 21.36 70.448 0.211 8.65 3.82 10.96
5/20/2021 2:00:00 PM 21.62 70.916 0.211 8.68 3.95 10.89
5/20/2021 2:15:00 PM 21.87 71.366 0.211 8.7 3.81 10.83
5/20/2021 2:30:00 PM 21.85 71.33 0.211 8.6 3.98 10.48
5/20/2021 2:45:00 PM 21.98 71.564 0.211 8.6 3.86 10.43
5/20/2021 3:00:00 PM 22.22 71.996 0.211 8.66 3.87 10.45
5/20/2021 3:15:00 PM 22.36 72.248 0.211 8.68 3.74 10.45
5/20/2021 3:30:00 PM 22.52 72.536 0.21 8.69 3.82 10.45
5/20/2021 3:45:00 PM 22.65 72.77 0.21 8.7 3.69 10.43
5/20/2021 4:00:00 PM 22.71 72.878 0.21 8.69 3.59 10.36
5/20/2021 4:15:00 PM 22.79 73.022 0.21 8.67 3.53 10.34
5/20/2021 4:30:00 PM 22.6 72.68 0.21 8.6 3.59 10.07
5/20/2021 4:45:00 PM 22.46 72.42799 0.21 8.45 3.68 9.69
5/20/2021 5:00:00 PM 22.39 72.302 0.209 8.38 3.54 9.51
5/20/2021 5:15:00 PM 22.46 72.42799 0.211 8.42 3.6 9.55
5/20/2021 5:30:00 PM 22.4 72.32 0.211 8.32 3.57 9.45
5/20/2021 5:45:00 PM 22.39 72.302 0.211 8.31 3.62 9.4
5/20/2021 6:00:00 PM 22.42 72.356 0.211 8.3 3.73 9.46
5/20/2021 6:15:00 PM 22.4 72.32 0.211 8.28 3.67 9.42
5/20/2021 6:30:00 PM 22.35 72.23 0.21 8.21 3.72 9.31
5/20/2021 6:45:00 PM 22.23 72.014 0.211 8.09 3.85 9.16
5/20/2021 7:00:00 PM 22.08 71.744 0.212 7.94 3.92 9
5/20/2021 7:15:00 PM 21.98 71.564 0.212 7.79 3.9 8.77
5/20/2021 7:30:00 PM 21.85 71.33 0.212 7.64 3.99 8.63
5/20/2021 7:45:00 PM 21.73 71.114 0.213 7.51 3.88 8.47
5/20/2021 8:00:00 PM 21.59 70.862 0.213 7.4 3.95 8.35
5/20/2021 8:15:00 PM 21.44 70.592 0.214 7.32 4.02 8.25
5/20/2021 8:30:00 PM 21.29 70.32201 0.215 7.24 16.18 8.16
5/20/2021 8:45:00 PM 21.13 70.034 0.216 7.19 3.73 8.11
5/20/2021 9:00:00 PM 20.98 69.764 0.216 7.15 3.69 8.08
5/20/2021 9:15:00 PM 20.84 69.512 0.216 7.11 3.8 8.07
5/20/2021 9:30:00 PM 20.69 69.242 0.216 7.08 3.89 8.07
5/20/2021 9:45:00 PM 20.56 69.008 0.217 7.05 3.82 8.07
5/20/2021 10:00:00 PM 20.43 68.774 0.217 7.04 3.88 8.07
5/20/2021 10:15:00 PM 20.31 68.558 0.217 7.04 3.94 8.09
5/20/2021 10:30:00 PM 20.17 68.306 0.218 7.03 3.99 8.11
5/20/2021 10:45:00 PM 20.03 68.054 0.218 7.02 3.97 8.15
5/20/2021 11:00:00 PM 19.88 67.784 0.219 7.01 3.91 8.16
5/20/2021 11:15:00 PM 19.76 67.568 0.219 7.02 4.4 8.2
5/20/2021 11:30:00 PM 19.63 67.334 0.22 7.02 4.15 8.19
5/20/2021 11:45:00 PM 19.52 67.136 0.221 7.03 4.29 8.24
5/21/2021 12:00:00 AM 19.41 66.938 0.221 7.02 4.14 8.24
5/21/2021 12:15:00 AM 19.31 66.758 0.221 7.01 4.06 8.27
5/21/2021 12:30:00 AM 19.23 66.614 0.222 7.03 4.19 8.3
5/21/2021 12:45:00 AM 19.12 66.416 0.222 7.02 4.08 8.3
5/21/2021 1:00:00 AM 19.03 66.254 0.222 7.03 4.13 8.32
5/21/2021 1:15:00 AM 18.93 66.074 0.222 7.03 4.12 8.35
5/21/2021 1:30:00 AM 18.86 65.948 0.221 7.03 3.99 8.37
5/21/2021 1:45:00 AM 18.75 65.75 0.221 7.04 4.14 8.38
5/21/2021 2:00:00 AM 18.69 65.642 0.221 7.03 4.02 8.41
5/21/2021 2:15:00 AM 18.61 65.498 0.221 7.02 3.98 8.44
5/21/2021 2:30:00 AM 18.51 65.318 0.221 7.04 4.07 8.46
5/21/2021 2:45:00 AM 18.41 65.138 0.221 7.03 4.06 8.5
5/21/2021 3:00:00 AM 18.32 64.976 0.221 7.01 4.09 8.5
5/21/2021 3:15:00 AM 18.22 64.796 0.22 7.03 4.12 8.54
5/21/2021 3:30:00 AM 18.12 64.616 0.22 7.02 4.27 8.55
5/21/2021 3:45:00 AM 18.01 64.418 0.22 7.02 4.18 8.6
5/21/2021 4:00:00 AM 17.89 64.202 0.22 7.03 4.12 8.62
5/21/2021 4:15:00 AM 17.78 64.004 0.219 7.03 4.14 8.66
5/21/2021 4:30:00 AM 17.66 63.788 0.219 7.03 4.16 8.69
5/21/2021 4:45:00 AM 17.53 63.554 0.219 7.01 4.27 8.7
5/21/2021 5:00:00 AM 17.43 63.374 0.22 7.02 4.16 8.74
5/21/2021 5:15:00 AM 17.31 63.158 0.219 7.01 4.22 8.77
5/21/2021 5:30:00 AM 17.21 62.978 0.22 7 4.33 8.78
5/21/2021 5:45:00 AM 17.08 62.744 0.22 7.01 4.22 8.83
5/21/2021 6:00:00 AM 16.99 62.582 0.22 7.04 6.9 8.91
5/21/2021 6:15:00 AM 16.91 62.438 0.22 7.06 4.17 8.99
5/21/2021 6:30:00 AM 16.85 62.33 0.22 7.08 4.2 9.12
5/21/2021 6:45:00 AM 16.79 62.222 0.22 7.08 4.2 9.23
5/21/2021 7:00:00 AM 16.73 62.114 0.22 7.13 4.17 9.37
5/21/2021 7:15:00 AM 16.72 62.096 0.22 7.17 4.36 9.54
5/21/2021 7:30:00 AM 16.73 62.114 0.22 7.22 4.35 9.78
5/21/2021 7:45:00 AM 16.75 62.15 0.22 7.28 4.32 9.99
5/21/2021 8:00:00 AM 16.81 62.258 0.22 7.35 4.7 10.22
5/21/2021 8:15:00 AM 16.89 62.402 0.22 7.43 5.14 10.43
5/21/2021 8:30:00 AM 16.98 62.564 0.22 7.51 4.13 10.6
5/21/2021 8:45:00 AM 17.06 62.708 0.22 7.58 4.15 10.7
5/21/2021 9:00:00 AM 17.15 62.87 0.22 7.65 4.31 10.81
5/21/2021 9:15:00 AM 17.24 63.032 0.219 7.73 4.08 10.92
5/21/2021 9:30:00 AM 17.34 63.212 0.219 7.8 4.09 10.99
5/21/2021 9:45:00 AM 17.48 63.464 0.219 7.87 4.15 11.07
5/21/2021 10:00:00 AM 17.64 63.752 0.219 7.95 4.12 11.15
5/21/2021 10:15:00 AM 17.81 64.058 0.219 8 4.07 11.21
5/21/2021 10:30:00 AM 18 64.4 0.219 8.08 4.11 11.25
5/21/2021 10:45:00 AM 18.2 64.76 0.219 8.15 4.14 11.29
5/21/2021 11:00:00 AM 18.45 65.21 0.219 8.2 4.18 11.33
5/21/2021 11:15:00 AM 18.7 65.66 0.219 8.25 4.13 11.34
5/21/2021 11:30:00 AM 18.96 66.128 0.218 8.32 4.08 11.36
5/21/2021 11:45:00 AM 19.24 66.632 0.218 8.35 4.07 11.37
5/21/2021 12:00:00 PM 19.54 67.172 0.218 8.41 7.72 11.36
5/21/2021 12:15:00 PM 19.86 67.748 0.218 8.47 4.06 11.35
5/21/2021 12:30:00 PM 20.19 68.342 0.218 8.51 4.32 11.31
5/21/2021 12:45:00 PM 20.54 68.972 0.218 8.55 4.32 11.27
5/21/2021 1:00:00 PM 20.89 69.602 0.218 8.58 4.23 11.26
5/21/2021 1:15:00 PM 21.23 70.214 0.219 8.63 4.25 11.23
5/21/2021 1:30:00 PM 21.55 70.79 0.218 8.64 4.11 11.19
5/21/2021 1:45:00 PM 21.86 71.348 0.218 8.7 4.25 11.13
5/21/2021 2:00:00 PM 22.15 71.87 0.218 8.72 4.34 11.09
5/21/2021 2:15:00 PM 22.4 72.32 0.218 8.73 4.24 11.05
5/21/2021 2:30:00 PM 22.62 72.716 0.218 8.77 4.29 10.97
5/21/2021 2:45:00 PM 22.83 73.094 0.218 8.77 4.21 10.94
5/21/2021 3:00:00 PM 23.01 73.418 0.218 8.78 4.21 10.87
5/21/2021 3:15:00 PM 23.16 73.688 0.218 8.79 4.28 10.81
5/21/2021 3:30:00 PM 23.3 73.94 0.218 8.78 4.21 10.76
5/21/2021 3:45:00 PM 23.33 73.994 0.217 8.78 4.41 10.61
5/21/2021 4:00:00 PM 23.39 74.102 0.217 8.77 4.2 10.58
5/21/2021 4:15:00 PM 23.33 73.994 0.217 8.72 4.25 10.32
5/21/2021 4:30:00 PM 23.44 74.192 0.217 8.73 4.16 10.38
5/21/2021 4:45:00 PM 23.35 74.03 0.217 8.7 4.15 10.14
5/21/2021 5:00:00 PM 23.41 74.138 0.217 8.69 5.04 10.21
5/21/2021 5:15:00 PM 23.38 74.084 0.217 8.67 4.22 10.1
5/21/2021 5:30:00 PM 23.38 74.084 0.217 8.66 4.12 9.97
5/21/2021 5:45:00 PM 23.3 73.94 0.218 8.59 4.12 9.8
5/21/2021 6:00:00 PM 23.22 73.796 0.218 8.53 4.12 9.72
5/21/2021 6:15:00 PM 23.17 73.706 0.218 8.48 4.24 9.56
5/21/2021 6:30:00 PM 23.09 73.562 0.218 8.39 4.2 9.4
5/21/2021 6:45:00 PM 23.03 73.454 0.219 8.31 5.07 9.27
5/21/2021 7:00:00 PM 22.95 73.31 0.219 8.19 4.11 9.06
5/21/2021 7:15:00 PM 22.87 73.166 0.219 8.02 4.16 8.82
5/21/2021 7:30:00 PM 22.79 73.022 0.22 7.87 4.19 8.65
5/21/2021 7:45:00 PM 22.68 72.824 0.22 7.7 4.38 8.46
5/21/2021 8:00:00 PM 22.57 72.626 0.221 7.55 4.26 8.29
5/21/2021 8:15:00 PM 22.44 72.392 0.222 7.41 7.43 8.1
5/21/2021 8:30:00 PM 22.3 72.14 0.222 7.32 4.52 7.91
5/21/2021 8:45:00 PM 22.14 71.852 0.223 7.23 4.33 7.89
5/21/2021 9:00:00 PM 22.02 71.636 0.223 7.19 4.5 7.8
5/21/2021 9:15:00 PM 21.86 71.348 0.224 7.15 5.12 7.74
5/21/2021 9:30:00 PM 21.7 71.06 0.224 7.11 4.65 7.76
5/21/2021 9:45:00 PM 21.54 70.772 0.224 7.09 4.66 7.77
5/21/2021 10:00:00 PM 21.36 70.448 0.225 7.06 4.62 7.78
5/21/2021 10:15:00 PM 21.17 70.106 0.225 7.03 4.78 7.75
5/21/2021 10:30:00 PM 21.02 69.836 0.225 7.03 4.64 7.81
5/21/2021 10:45:00 PM 20.84 69.512 0.226 7.02 4.66 7.83
5/21/2021 11:00:00 PM 20.67 69.206 0.226 7.02 4.95 7.88
5/21/2021 11:15:00 PM 20.49 68.882 0.227 6.99 4.71 7.89
5/21/2021 11:30:00 PM 20.32 68.576 0.227 7.01 4.96 7.93
5/21/2021 11:45:00 PM 20.18 68.324 0.227 7.01 4.69 7.91
5/22/2021 12:00:00 AM 20 68 0.228 6.99 4.89 7.99
5/22/2021 12:15:00 AM 19.84 67.712 0.228 7 4.81 8.01
5/22/2021 12:30:00 AM 19.7 67.46 0.228 7 4.85 8.06
5/22/2021 12:45:00 AM 19.56 67.208 0.228 7 4.9 8.09
5/22/2021 1:00:00 AM 19.41 66.938 0.229 7.01 5.26 8.13
5/22/2021 1:15:00 AM 19.27 66.686 0.229 7.01 4.95 8.15
5/22/2021 1:30:00 AM 19.15 66.47 0.229 7.02 5.18 8.23
5/22/2021 1:45:00 AM 18.99 66.182 0.229 6.99 5.07 8.22
5/22/2021 2:00:00 AM 18.87 65.966 0.229 7.02 5.09 8.23
5/22/2021 2:15:00 AM 18.77 65.786 0.229 7.01 5.21 8.3
5/22/2021 2:30:00 AM 18.67 65.606 0.228 7.02 5.29 8.34
5/22/2021 2:45:00 AM 18.56 65.408 0.229 7.03 5.42 8.31
5/22/2021 3:00:00 AM 18.47 65.246 0.229 7.02 5.32 8.41
5/22/2021 3:15:00 AM 18.37 65.066 0.229 7.03 5.43 8.37
5/22/2021 3:30:00 AM 18.28 64.904 0.229 7.04 5.16 8.4
5/22/2021 3:45:00 AM 18.19 64.742 0.229 7.04 5.26 8.39
5/22/2021 4:00:00 AM 18.11 64.598 0.229 7.05 5.43 8.44
5/22/2021 4:15:00 AM 18.03 64.454 0.229 7.04 5.25 8.48
5/22/2021 4:30:00 AM 17.96 64.328 0.229 7.04 5.19 8.48
5/22/2021 4:45:00 AM 17.87 64.166 0.229 7.03 5.24 8.48
5/22/2021 5:00:00 AM 17.8 64.04 0.229 7.05 6.09 8.53
5/22/2021 5:15:00 AM 17.71 63.878 0.229 7.04 5.16 8.55
5/22/2021 5:30:00 AM 17.64 63.752 0.228 7.05 5.3 8.57
5/22/2021 5:45:00 AM 17.58 63.644 0.228 7.05 5.63 8.65
5/22/2021 6:00:00 AM 17.49 63.482 0.228 7.05 5.5 8.67
5/22/2021 6:15:00 AM 17.43 63.374 0.228 7.08 5.23 8.78
5/22/2021 6:30:00 AM 17.39 63.302 0.228 7.08 5.31 8.93
5/22/2021 6:45:00 AM 17.35 63.23 0.228 7.13 4.98 9.09
5/22/2021 7:00:00 AM 17.34 63.212 0.228 7.16 4.9 9.3
5/22/2021 7:15:00 AM 17.33 63.194 0.227 7.21 5.03 9.46
5/22/2021 7:30:00 AM 17.32 63.176 0.227 7.25 5.18 9.65
5/22/2021 7:45:00 AM 17.36 63.248 0.227 7.3 5 9.92
5/22/2021 8:00:00 AM 17.43 63.374 0.227 7.4 5.29 10.23
5/22/2021 8:15:00 AM 17.46 63.428 0.227 7.46 5.57 10.31
5/22/2021 8:30:00 AM 17.53 63.554 0.227 7.54 5.2 10.51
5/22/2021 8:45:00 AM 17.6 63.68 0.227 7.61 5.13 10.68
5/22/2021 9:00:00 AM 17.67 63.806 0.226 7.69 5.3 10.87
5/22/2021 9:15:00 AM 17.75 63.95 0.226 7.79 4.94 10.95
5/22/2021 9:30:00 AM 17.83 64.094 0.226 7.87 5.02 11.07
5/22/2021 9:45:00 AM 17.97 64.346 0.226 8.02 5.05 11.23
5/22/2021 10:00:00 AM 18.1 64.58 0.226 8.11 5 11.35
5/22/2021 10:15:00 AM 18.21 64.778 0.226 8.19 5.33 11.39
5/22/2021 10:30:00 AM 18.29 64.922 0.225 8.22 5.01 11.38
5/22/2021 10:45:00 AM 18.41 65.138 0.225 8.29 5.37 11.45
5/22/2021 11:00:00 AM 18.62 65.516 0.225 8.38 5.03 11.59
5/22/2021 11:15:00 AM 18.93 66.074 0.224 8.49 5.17 11.7
5/22/2021 11:30:00 AM 19.06 66.308 0.224 8.5 5.21 11.68
5/22/2021 11:45:00 AM 19.12 66.416 0.224 8.5 5.33 11.56
5/22/2021 12:00:00 PM 19.18 66.524 0.224 8.52 5.31 11.5
5/22/2021 12:15:00 PM 19.27 66.686 0.224 8.55 5.26 11.44
5/22/2021 12:30:00 PM 19.4 66.92 0.223 8.59 5.33 11.46
5/22/2021 12:45:00 PM 19.57 67.226 0.223 8.64 5.4 11.44
5/22/2021 1:00:00 PM 19.89 67.802 0.223 8.69 5.44 11.56
5/22/2021 1:15:00 PM 20.14 68.252 0.223 8.75 5.48 11.58
5/22/2021 1:30:00 PM 20.39 68.702 0.223 8.78 5.43 11.59
5/22/2021 1:45:00 PM 20.59 69.062 0.223 8.81 5.58 11.58
5/22/2021 2:00:00 PM 20.79 69.422 0.223 8.83 5.3 11.58
5/22/2021 2:15:00 PM 20.97 69.746 0.222 8.86 5.34 11.56
5/22/2021 2:30:00 PM 21.16 70.088 0.222 8.9 5.36 11.52
5/22/2021 2:45:00 PM 21.28 70.304 0.222 8.9 5.45 11.39
5/22/2021 3:00:00 PM 21.35 70.43 0.223 8.9 5.63 11.29
5/22/2021 3:15:00 PM 21.5 70.7 0.223 8.92 5.41 11.21
5/22/2021 3:30:00 PM 21.53 70.754 0.222 8.89 5.66 11.12
5/22/2021 3:45:00 PM 21.55 70.79 0.222 8.89 5.74 11
5/22/2021 4:00:00 PM 21.63 70.934 0.222 8.9 5.71 10.97
5/22/2021 4:15:00 PM 21.62 70.916 0.222 8.86 5.7 10.7
5/22/2021 4:30:00 PM 21.7 71.06 0.222 8.87 5.69 10.71
5/22/2021 4:45:00 PM 21.77 71.186 0.223 8.89 5.85 10.66
5/22/2021 5:00:00 PM 21.77 71.186 0.223 8.85 5.66 10.54
5/22/2021 5:15:00 PM 21.76 71.168 0.223 8.82 5.86 10.35
5/22/2021 5:30:00 PM 21.74 71.132 0.224 8.72 5.9 9.98
5/22/2021 5:45:00 PM 21.75 71.15 0.224 8.71 5.92 9.88
5/22/2021 6:00:00 PM 21.69 71.042 0.224 8.62 5.82 9.62
5/22/2021 6:15:00 PM 21.69 71.042 0.224 8.61 6.83 9.65
5/22/2021 6:30:00 PM 21.7 71.06 0.224 8.57 6.27 9.53
5/22/2021 6:45:00 PM 21.66 70.988 0.224 8.48 6.04 9.35
5/22/2021 7:00:00 PM 21.64 70.952 0.224 8.37 6.04 9.15
5/22/2021 7:15:00 PM 21.59 70.862 0.225 8.23 6.19 8.9
5/22/2021 7:30:00 PM 21.55 70.79 0.226 8.08 5.98 8.74
5/22/2021 7:45:00 PM 21.52 70.736 0.226 7.93 6.01 8.61
5/22/2021 8:00:00 PM 21.46 70.628 0.226 7.75 6.01 8.42
5/22/2021 8:15:00 PM 21.4 70.52 0.227 7.6 6.04 8.21
5/22/2021 8:30:00 PM 21.35 70.43 0.228 7.47 6.32 8.04
5/22/2021 8:45:00 PM 21.29 70.32201 0.228 7.37 6.09 7.89
5/22/2021 9:00:00 PM 21.22 70.196 0.229 7.29 6.17 7.8
5/22/2021 9:15:00 PM 21.17 70.106 0.229 7.25 6.42 7.74
5/22/2021 9:30:00 PM 21.08 69.944 0.23 7.19 6.34 7.7
5/22/2021 9:45:00 PM 21.01 69.818 0.23 7.18 6.3 7.66
5/22/2021 10:00:00 PM 20.99 69.782 0.23 7.17 6.33 7.73
5/22/2021 10:15:00 PM 20.88 69.584 0.231 7.12 6.62 7.68
5/22/2021 10:30:00 PM 20.82 69.476 0.231 7.11 6.98 7.71
5/22/2021 10:45:00 PM 20.75 69.35 0.232 7.12 6.9 7.74
5/22/2021 11:00:00 PM 20.63 69.134 0.233 7.07 6.92 7.68
5/22/2021 11:15:00 PM 20.55 68.99 0.234 7.06 6.93 7.75
5/22/2021 11:30:00 PM 20.49 68.882 0.234 7.06 6.75 7.77
5/22/2021 11:45:00 PM 20.41 68.738 0.235 7.07 6.12 7.79
5/23/2021 12:00:00 AM 20.33 68.594 0.235 7.05 6.77 7.78
5/23/2021 12:15:00 AM 20.23 68.414 0.236 7.04 7.01 7.77
5/23/2021 12:30:00 AM 20.15 68.27 0.236 7.05 6.99 7.81
5/23/2021 12:45:00 AM 20.06 68.108 0.236 7.05 6.88 7.83
5/23/2021 1:00:00 AM 19.97 67.946 0.236 7.04 6.79 7.85
5/23/2021 1:15:00 AM 19.89 67.802 0.236 7.04 6.88 7.86
5/23/2021 1:30:00 AM 19.8 67.64 0.237 7.06 6.32 7.95
5/23/2021 1:45:00 AM 19.71 67.478 0.237 7.05 6.3 7.93
5/23/2021 2:00:00 AM 19.63 67.334 0.237 7.06 7.12 7.98
5/23/2021 2:15:00 AM 19.54 67.172 0.237 7.05 6.81 7.95
5/23/2021 2:30:00 AM 19.46 67.028 0.238 7.05 7.06 8
5/23/2021 2:45:00 AM 19.37 66.866 0.238 7.06 6.49 8
5/23/2021 3:00:00 AM 19.28 66.704 0.238 7.06 6.66 8.03
5/23/2021 3:15:00 AM 19.19 66.542 0.238 7.05 6.13 8.04
5/23/2021 3:30:00 AM 19.11 66.398 0.238 7.04 6.08 8.06
5/23/2021 3:45:00 AM 19.02 66.236 0.238 7.05 6.62 8.06
5/23/2021 4:00:00 AM 18.93 66.074 0.237 7.05 6.52 8.11
5/23/2021 4:15:00 AM 18.84 65.912 0.237 7.05 6.54 8.11
5/23/2021 4:30:00 AM 18.76 65.768 0.237 7.06 6.21 8.11
5/23/2021 4:45:00 AM 18.71 65.67799 0.237 7.07 5.94 8.19
5/23/2021 5:00:00 AM 18.64 65.552 0.236 7.08 6.12 8.2
5/23/2021 5:15:00 AM 18.6 65.48 0.236 7.08 6.54 8.22
5/23/2021 5:30:00 AM 18.52 65.336 0.236 7.06 6.14 8.2
5/23/2021 5:45:00 AM 18.48 65.264 0.236 7.07 5.94 8.27
5/23/2021 6:00:00 AM 18.44 65.192 0.236 7.09 5.86 8.39
5/23/2021 6:15:00 AM 18.4 65.12 0.235 7.11 5.64 8.47
5/23/2021 6:30:00 AM 18.36 65.048 0.235 7.14 5.46 8.58
5/23/2021 6:45:00 AM 18.36 65.048 0.235 7.18 5.5 8.78
5/23/2021 7:00:00 AM 18.36 65.048 0.234 7.22 5.45 8.97
5/23/2021 7:15:00 AM 18.39 65.102 0.234 7.28 5.43 9.2
5/23/2021 7:30:00 AM 18.43 65.174 0.234 7.32 5.23 9.43
5/23/2021 7:45:00 AM 18.47 65.246 0.234 7.38 5.09 9.6
5/23/2021 8:00:00 AM 18.51 65.318 0.234 7.44 5.05 9.83
5/23/2021 8:15:00 AM 18.58 65.444 0.233 7.52 5.69 9.97
5/23/2021 8:30:00 AM 18.69 65.642 0.233 7.64 5.13 10.28
5/23/2021 8:45:00 AM 18.86 65.948 0.233 7.76 5.63 10.55
5/23/2021 9:00:00 AM 18.99 66.182 0.233 7.86 5.2 10.62
5/23/2021 9:15:00 AM 19.12 66.416 0.232 7.93 5.05 10.74
5/23/2021 9:30:00 AM 19.26 66.668 0.232 7.99 5.28 10.84
5/23/2021 9:45:00 AM 19.41 66.938 0.232 8.08 5.05 10.91
5/23/2021 10:00:00 AM 19.56 67.208 0.232 8.15 5.26 10.98
5/23/2021 10:15:00 AM 19.72 67.496 0.232 8.22 5.19 11.04
5/23/2021 10:30:00 AM 19.86 67.748 0.231 8.27 5.31 11.05
5/23/2021 10:45:00 AM 20.08 68.144 0.231 8.34 5.25 11.14
5/23/2021 11:00:00 AM 20.28 68.504 0.231 8.39 5.49 11.18
5/23/2021 11:15:00 AM 20.43 68.774 0.23 8.42 5.3 11.16
5/23/2021 11:30:00 AM 20.52 68.936 0.23 8.44 5.42 11.15
5/23/2021 11:45:00 AM 20.84 69.512 0.23 8.55 5.63 11.26
5/23/2021 12:00:00 PM 20.99 69.782 0.23 8.56 5.4 11.24
5/23/2021 12:15:00 PM 21.04 69.872 0.229 8.52 5.58 10.99
5/23/2021 12:30:00 PM 21.08 69.944 0.229 8.49 5.48 10.79
5/23/2021 12:45:00 PM 21.3 70.34 0.229 8.59 5.5 10.98
5/23/2021 1:00:00 PM 21.37 70.466 0.229 8.57 5.55 10.79
5/23/2021 1:15:00 PM 21.59 70.862 0.229 8.64 5.76 10.89
5/23/2021 1:30:00 PM 21.75 71.15 0.229 8.66 5.83 10.85
5/23/2021 1:45:00 PM 21.76 71.168 0.229 8.64 5.78 10.77
5/23/2021 2:00:00 PM 22.07 71.726 0.229 8.71 5.98 10.87
5/23/2021 2:15:00 PM 22.37 72.266 0.229 8.78 6.11 10.94
5/23/2021 2:30:00 PM 22.72 72.896 0.229 8.82 6.11 11.04
5/23/2021 2:45:00 PM 22.94 73.292 0.229 8.81 6.04 10.9
5/23/2021 3:00:00 PM 23.16 73.688 0.229 8.84 6.1 10.91
5/23/2021 3:15:00 PM 23.02 73.436 0.23 8.72 6.18 10.45
5/23/2021 3:30:00 PM 23.13 73.634 0.229 8.77 6.13 10.65
5/23/2021 3:45:00 PM 23.04 73.472 0.229 8.72 5.93 10.45
5/23/2021 4:00:00 PM 22.95 73.31 0.23 8.66 5.92 10.11
5/23/2021 4:15:00 PM 22.96 73.328 0.23 8.62 5.71 10.07
5/23/2021 4:30:00 PM 22.93 73.274 0.23 8.63 5.73 9.94
5/23/2021 4:45:00 PM 22.97 73.346 0.23 8.64 5.8 10
5/23/2021 5:00:00 PM 23.02 73.436 0.23 8.67 5.78 10.1
5/23/2021 5:15:00 PM 23 73.4 0.23 8.65 5.84 10.03
5/23/2021 5:30:00 PM 23.04 73.472 0.23 8.67 5.71 10.02
5/23/2021 5:45:00 PM 22.93 73.274 0.23 8.59 5.76 9.78
5/23/2021 6:00:00 PM 22.88 73.184 0.23 8.54 5.68 9.76
5/23/2021 6:15:00 PM 22.82 73.076 0.23 8.45 5.67 9.4
5/23/2021 6:30:00 PM 22.74 72.932 0.23 8.34 5.64 9.14
5/23/2021 6:45:00 PM 22.68 72.824 0.23 8.27 5.68 9.05
5/23/2021 7:00:00 PM 22.61 72.698 0.23 8.15 5.74 8.83
5/23/2021 7:15:00 PM 22.51 72.518 0.231 7.91 5.93 8.45
5/23/2021 7:30:00 PM 22.44 72.392 0.232 7.74 5.91 8.28
5/23/2021 7:45:00 PM 22.35 72.23 0.232 7.61 5.8 8.07
5/23/2021 8:00:00 PM 22.24 72.032 0.233 7.48 5.98 7.92
5/23/2021 8:15:00 PM 22.14 71.852 0.234 7.39 5.9 7.85
5/23/2021 8:30:00 PM 22.03 71.654 0.234 7.32 6.16 7.74
5/23/2021 8:45:00 PM 21.9 71.42 0.234 7.26 6 7.66
5/23/2021 9:00:00 PM 21.77 71.186 0.235 7.19 6.03 7.59
5/23/2021 9:15:00 PM 21.64 70.952 0.234 7.18 6 7.58
5/23/2021 9:30:00 PM 21.5 70.7 0.235 7.15 5.9 7.56
5/23/2021 9:45:00 PM 21.35 70.43 0.235 7.12 6.12 7.56
5/23/2021 10:00:00 PM 21.22 70.196 0.236 7.11 6.03 7.55
5/23/2021 10:15:00 PM 21.1 69.98 0.237 7.1 6.21 7.6
5/23/2021 10:30:00 PM 20.98 69.764 0.237 7.09 6.31 7.64
5/23/2021 10:45:00 PM 20.85 69.53 0.237 7.09 6.15 7.65
5/23/2021 11:00:00 PM 20.71 69.278 0.238 7.08 6.2 7.64
5/23/2021 11:15:00 PM 20.6 69.08 0.239 7.08 7.22 7.72
5/23/2021 11:30:00 PM 20.47 68.846 0.239 7.07 7.77 7.72
5/23/2021 11:45:00 PM 20.33 68.594 0.239 7.08 7.91 7.77
5/24/2021 12:00:00 AM 20.19 68.342 0.24 7.07 7.87 7.76
5/24/2021 12:15:00 AM 20.05 68.09 0.24 7.07 9.21 7.82
5/24/2021 12:30:00 AM 19.92 67.856 0.241 7.07 6.6 7.85
5/24/2021 12:45:00 AM 19.79 67.622 0.241 7.06 6.55 7.89
5/24/2021 1:00:00 AM 19.66 67.388 0.241 7.07 6.94 7.87
5/24/2021 1:15:00 AM 19.55 67.19 0.242 7.07 6.68 7.94
5/24/2021 1:30:00 AM 19.41 66.938 0.242 7.07 8.62 7.97
5/24/2021 1:45:00 AM 19.28 66.704 0.242 7.07 6.79 7.97
5/24/2021 2:00:00 AM 19.16 66.488 0.242 7.07 6.87 8.05
5/24/2021 2:15:00 AM 19.03 66.254 0.242 7.07 6.83 8.05
5/24/2021 2:30:00 AM 18.92 66.056 0.242 7.07 6.92 8.1
5/24/2021 2:45:00 AM 18.79 65.82201 0.242 7.06 6.83 8.09
5/24/2021 3:00:00 AM 18.68 65.624 0.242 7.06 6.87 8.11
5/24/2021 3:15:00 AM 18.57 65.426 0.242 7.08 7.71 8.15
5/24/2021 3:30:00 AM 18.47 65.246 0.242 7.09 6.79 8.17
5/24/2021 3:45:00 AM 18.38 65.084 0.242 7.07 6.94 8.23
5/24/2021 4:00:00 AM 18.28 64.904 0.242 7.08 7.21 8.23
5/24/2021 4:15:00 AM 18.2 64.76 0.242 7.09 7 8.25
5/24/2021 4:30:00 AM 18.12 64.616 0.242 7.08 7.04 8.28
5/24/2021 4:45:00 AM 18.02 64.436 0.242 7.08 7.06 8.27
5/24/2021 5:00:00 AM 17.94 64.292 0.242 7.08 7.17 8.34
5/24/2021 5:15:00 AM 17.85 64.13 0.242 7.09 6.97 8.36
5/24/2021 5:30:00 AM 17.76 63.968 0.242 7.09 7.23 8.37
5/24/2021 5:45:00 AM 17.69 63.842 0.242 7.1 7 8.43
5/24/2021 6:00:00 AM 17.61 63.698 0.241 7.11 7.02 8.51
5/24/2021 6:15:00 AM 17.55 63.59 0.241 7.14 7.11 8.67
5/24/2021 6:30:00 AM 17.5 63.5 0.241 7.16 7.06 8.83
5/24/2021 6:45:00 AM 17.47 63.446 0.24 7.22 7.72 9.03
5/24/2021 7:00:00 AM 17.44 63.392 0.24 7.27 7.93 9.32
5/24/2021 7:15:00 AM 17.44 63.392 0.24 7.34 8.27 9.59
5/24/2021 7:30:00 AM 17.43 63.374 0.239 7.39 7.27 9.81
5/24/2021 7:45:00 AM 17.44 63.392 0.239 7.44 7.9 9.96
5/24/2021 8:00:00 AM 17.45 63.41 0.239 7.53 7.01 10.23
5/24/2021 8:15:00 AM 17.48 63.464 0.238 7.64 7.55 10.48
5/24/2021 8:30:00 AM 17.54 63.572 0.238 7.76 7.19 10.74
5/24/2021 8:45:00 AM 17.64 63.752 0.238 7.9 7.1 11.01
5/24/2021 9:00:00 AM 17.69 63.842 0.238 8 7.18 11.14
5/24/2021 9:15:00 AM 17.79 64.022 0.238 8.1 7.26 11.27
5/24/2021 9:30:00 AM 17.88 64.184 0.238 8.18 7.24 11.35
5/24/2021 9:45:00 AM 17.98 64.364 0.238 8.24 7.99 11.46
5/24/2021 10:00:00 AM 18.1 64.58 0.237 8.31 7.29 11.54
5/24/2021 10:15:00 AM 18.21 64.778 0.237 8.37 7.25 11.58
5/24/2021 10:30:00 AM 18.35 65.03 0.237 8.42 7.42 11.67
5/24/2021 10:45:00 AM 18.47 65.246 0.237 8.47 7.35 11.73
5/24/2021 11:00:00 AM 18.48 65.264 0.236 8.49 8.8 11.79
5/24/2021 11:15:00 AM 18.52 65.336 0.236 8.52 7.71 11.81
5/24/2021 11:30:00 AM 18.8 65.84 0.235 8.64 7.78 11.89
5/24/2021 11:45:00 AM 19.07 66.326 0.235 8.69 7.81 11.93
5/24/2021 12:00:00 PM 19.16 66.488 0.235 8.71 7.97 11.95
5/24/2021 12:15:00 PM 19.44 66.992 0.235 8.79 7.93 11.98
5/24/2021 12:30:00 PM 19.58 67.244 0.234 8.8 8.28 12.01
5/24/2021 12:45:00 PM 19.76 67.568 0.234 8.82 8.41 11.94
5/24/2021 1:00:00 PM 20.02 68.036 0.234 8.85 8.3 11.87
5/24/2021 1:15:00 PM 20.23 68.414 0.234 8.88 8.74 11.89
5/24/2021 1:30:00 PM 20.3 68.54 0.234 8.88 8.61 11.83
5/24/2021 1:45:00 PM 20.38 68.684 0.234 8.9 8.76 11.8
5/24/2021 2:00:00 PM 20.36 68.648 0.234 8.89 8.87 11.61
5/24/2021 2:15:00 PM 20.38 68.684 0.234 8.9 8.99 11.61
5/24/2021 2:30:00 PM 20.32 68.576 0.234 8.86 9.1 11.35
5/24/2021 2:45:00 PM 20.29 68.522 0.234 8.87 8.97 11.25
5/24/2021 3:00:00 PM 20.24 68.432 0.234 8.86 8.99 11.24
5/24/2021 3:15:00 PM 20.15 68.27 0.234 8.82 8.65 11.08
5/24/2021 3:30:00 PM 20.12 68.216 0.234 8.81 9.67 10.99
5/24/2021 3:45:00 PM 20.09 68.162 0.234 8.82 8.6 10.95
5/24/2021 4:00:00 PM 20.06 68.108 0.234 8.83 8.57 10.89
5/24/2021 4:15:00 PM 19.99 67.982 0.235 8.78 8.39 10.69
5/24/2021 4:30:00 PM 19.92 67.856 0.235 8.72 8.26 10.37
5/24/2021 4:45:00 PM 19.83 67.694 0.236 8.62 8.23 10.02
5/24/2021 5:00:00 PM 19.76 67.568 0.236 8.55 8.15 9.81
5/24/2021 5:15:00 PM 19.66 67.388 0.236 8.45 8.17 9.55
5/24/2021 5:30:00 PM 19.59 67.262 0.237 8.36 8.27 9.44
5/24/2021 5:45:00 PM 19.51 67.118 0.237 8.26 8.21 9.37
5/24/2021 6:00:00 PM 19.43 66.974 0.238 8.13 8.24 9.2
5/24/2021 6:15:00 PM 19.34 66.812 0.239 8 8.31 9.03
5/24/2021 6:30:00 PM 19.28 66.704 0.239 7.87 8.26 8.93
5/24/2021 6:45:00 PM 19.22 66.596 0.24 7.78 8.17 8.87
5/24/2021 7:00:00 PM 19.17 66.506 0.24 7.65 8.16 8.79
5/24/2021 7:15:00 PM 19.11 66.398 0.24 7.57 8.28 8.69
5/24/2021 7:30:00 PM 19.05 66.29 0.241 7.5 8.25 8.58
5/24/2021 7:45:00 PM 18.98 66.164 0.241 7.43 9.24 8.5
5/24/2021 8:00:00 PM 18.93 66.074 0.241 7.38 8.38 8.41
5/24/2021 8:15:00 PM 18.87 65.966 0.242 7.33 8.38 8.32
5/24/2021 8:30:00 PM 18.82 65.876 0.242 7.28 8.45 8.27
5/24/2021 8:45:00 PM 18.77 65.786 0.243 7.26 7.2 8.23
5/24/2021 9:00:00 PM 18.69 65.642 0.243 7.23 6.95 8.19
5/24/2021 9:15:00 PM 18.63 65.534 0.244 7.22 7.04 8.15
5/24/2021 9:30:00 PM 18.57 65.426 0.244 7.2 7.12 8.16
5/24/2021 9:45:00 PM 18.5 65.3 0.244 7.18 7.14 8.15
5/24/2021 10:00:00 PM 18.44 65.192 0.244 7.18 7.25 8.15
5/24/2021 10:15:00 PM 18.38 65.084 0.243 7.17 7.12 8.17
5/24/2021 10:30:00 PM 18.31 64.958 0.244 7.17 7 8.16
5/24/2021 10:45:00 PM 18.26 64.868 0.244 7.17 8.26 8.13
5/24/2021 11:00:00 PM 18.19 64.742 0.244 7.15 7.29 8.21
5/24/2021 11:15:00 PM 18.12 64.616 0.244 7.15 8.12 8.23
5/24/2021 11:30:00 PM 18.06 64.508 0.244 7.16 7.46 8.22
5/24/2021 11:45:00 PM 17.98 64.364 0.245 7.15 7.32 8.23
5/25/2021 12:00:00 AM 17.91 64.238 0.246 7.13 7.48 8.29
5/25/2021 12:15:00 AM 17.85 64.13 0.247 7.15 7.57 8.26
5/25/2021 12:30:00 AM 17.76 63.968 0.247 7.13 7.5 8.3
5/25/2021 12:45:00 AM 17.71 63.878 0.248 7.14 7.56 8.34
5/25/2021 1:00:00 AM 17.63 63.734 0.248 7.14 7.55 8.37
5/25/2021 1:15:00 AM 17.54 63.572 0.248 7.14 7.64 8.35
5/25/2021 1:30:00 AM 17.48 63.464 0.248 7.13 7.67 8.38
5/25/2021 1:45:00 AM 17.42 63.356 0.248 7.14 7.71 8.41
5/25/2021 2:00:00 AM 17.35 63.23 0.248 7.14 7.66 8.43
5/25/2021 2:15:00 AM 17.28 63.104 0.248 7.14 8.78 8.45
5/25/2021 2:30:00 AM 17.23 63.014 0.248 7.15 7.82 8.47
5/25/2021 2:45:00 AM 17.17 62.906 0.248 7.15 8.01 8.46
5/25/2021 3:00:00 AM 17.1 62.78 0.248 7.14 7.83 8.5
5/25/2021 3:15:00 AM 17.05 62.69 0.248 7.15 7.85 8.51
5/25/2021 3:30:00 AM 16.99 62.582 0.248 7.14 7.84 8.49
5/25/2021 3:45:00 AM 16.93 62.474 0.248 7.14 7.93 8.55
5/25/2021 4:00:00 AM 16.88 62.384 0.248 7.15 7.92 8.55
5/25/2021 4:15:00 AM 16.82 62.276 0.248 7.14 7.92 8.55
5/25/2021 4:30:00 AM 16.76 62.168 0.248 7.16 10.93 8.59
5/25/2021 4:45:00 AM 16.7 62.06 0.248 7.14 7.9 8.57
5/25/2021 5:00:00 AM 16.65 61.97 0.248 7.15 8.12 8.62
5/25/2021 5:15:00 AM 16.6 61.88 0.248 7.14 8.15 8.62
5/25/2021 5:30:00 AM 16.55 61.79 0.248 7.14 9.86 8.66
5/25/2021 5:45:00 AM 16.51 61.718 0.248 7.14 8.28 8.66
5/25/2021 6:00:00 AM 16.47 61.646 0.248 7.17 10.56 8.71
5/25/2021 6:15:00 AM 16.43 61.574 0.248 7.17 11.04 8.81
5/25/2021 6:30:00 AM 16.4 61.52 0.247 7.18 8.2 8.86
5/25/2021 6:45:00 AM 16.37 61.466 0.247 7.2 8.28 8.95
5/25/2021 7:00:00 AM 16.33 61.394 0.247 7.21 9.14 9.11
5/25/2021 7:15:00 AM 16.31 61.358 0.247 7.24 8.1 9.19
5/25/2021 7:30:00 AM 16.3 61.34 0.246 7.27 8.2 9.34
5/25/2021 7:45:00 AM 16.28 61.304 0.246 7.32 8.17 9.58
5/25/2021 8:00:00 AM 16.29 61.322 0.245 7.41 8.67 9.98
5/25/2021 8:15:00 AM 16.3 61.34 0.247 7.49 8.51 10.21
5/25/2021 8:30:00 AM 16.34 61.412 0.246 7.6 8.51 10.59
5/25/2021 8:45:00 AM 16.35 61.43 0.246 7.67 10.11 10.75
5/25/2021 9:00:00 AM 16.4 61.52 0.246 7.81 8.34 11.04
5/25/2021 9:15:00 AM 16.44 61.592 0.245 7.93 8.29 11.22
5/25/2021 9:30:00 AM 16.47 61.646 0.245 7.97 16.86 11.31
5/25/2021 9:45:00 AM 16.53 61.754 0.245 8.13 8.54 11.56
5/25/2021 10:00:00 AM 16.59 61.862 0.244 8.23 8.18 11.74
5/25/2021 10:15:00 AM 16.66 61.988 0.244 8.34 8.19 11.83
5/25/2021 10:30:00 AM 16.74 62.132 0.244 8.4 7.91 12.01
5/25/2021 10:45:00 AM 16.88 62.384 0.244 8.52 8.02 12.2
5/25/2021 11:00:00 AM 17.03 62.654 0.243 8.6 8.02 12.31
5/25/2021 11:15:00 AM 17.15 62.87 0.243 8.66 8 12.38
5/25/2021 11:30:00 AM 17.32 63.176 0.243 8.73 7.83 12.48
5/25/2021 11:45:00 AM 17.48 63.464 0.243 8.78 8.03 12.54
5/25/2021 12:00:00 PM 17.61 63.698 0.242 8.8 8.52 12.53
5/25/2021 12:15:00 PM 17.81 64.058 0.242 8.86 8.94 12.59
5/25/2021 12:30:00 PM 18.03 64.454 0.242 8.9 8.52 12.62
5/25/2021 12:45:00 PM 18.33 64.994 0.242 8.94 8.8 12.64
5/25/2021 1:00:00 PM 18.54 65.372 0.242 8.95 8.8 12.59
5/25/2021 1:15:00 PM 18.85 65.93 0.242 8.98 8.83 12.44
5/25/2021 1:30:00 PM 19.17 66.506 0.242 8.99 9.37 12.37
5/25/2021 1:45:00 PM 19.45 67.01 0.242 9.01 10.08 12.27
5/25/2021 2:00:00 PM 19.74 67.532 0.242 9.03 10.34 12.16
5/25/2021 2:15:00 PM 20.03 68.054 0.242 9.03 11.23 12.12
5/25/2021 2:30:00 PM 20.3 68.54 0.241 9.05 11.18 11.98
5/25/2021 2:45:00 PM 20.54 68.972 0.241 9.05 11.14 11.96
5/25/2021 3:00:00 PM 20.77 69.386 0.242 9.07 11.43 11.87
5/25/2021 3:15:00 PM 20.97 69.746 0.241 9.08 12.64 11.72
5/25/2021 3:30:00 PM 21.1 69.98 0.241 9.05 12.9 11.63
5/25/2021 3:45:00 PM 21.22 70.196 0.241 9.04 13.33 11.56
5/25/2021 4:00:00 PM 21.26 70.268 0.241 9.02 13.98 11.43
5/25/2021 4:15:00 PM 21.28 70.304 0.241 9 13.92 11.35
5/25/2021 4:30:00 PM 21.27 70.286 0.241 8.97 14.23 11.19
5/25/2021 4:45:00 PM 21.3 70.34 0.241 8.97 14.22 11.08
5/25/2021 5:00:00 PM 21.26 70.268 0.241 8.93 12.07 10.94
5/25/2021 5:15:00 PM 21.18 70.124 0.24 8.87 10.94 10.78
5/25/2021 5:30:00 PM 21.14 70.052 0.24 8.85 9.41 10.64
5/25/2021 5:45:00 PM 21.1 69.98 0.24 8.82 9.64 10.54
5/25/2021 6:00:00 PM 21.04 69.872 0.241 8.78 9.39 10.38
5/25/2021 6:15:00 PM 20.96 69.728 0.241 8.72 9.09 10.2
5/25/2021 6:30:00 PM 20.85 69.53 0.241 8.63 8.07 9.9
5/25/2021 6:45:00 PM 20.8 69.44 0.241 8.57 7.88 9.77
5/25/2021 7:00:00 PM 20.72 69.296 0.241 8.45 7.92 9.48
5/25/2021 7:15:00 PM 20.64 69.152 0.242 8.31 7.96 9.26
5/25/2021 7:30:00 PM 20.58 69.044 0.242 8.15 8.41 9.01
5/25/2021 7:45:00 PM 20.52 68.936 0.243 7.98 7.73 8.71
5/25/2021 8:00:00 PM 20.45 68.81 0.243 7.77 7.98 8.45
5/25/2021 8:15:00 PM 20.39 68.702 0.244 7.6 8.03 8.22
5/25/2021 8:30:00 PM 20.32 68.576 0.245 7.46 8.11 8.06
5/25/2021 8:45:00 PM 20.26 68.468 0.245 7.39 7.97 7.9
5/25/2021 9:00:00 PM 20.2 68.36 0.246 7.32 7.91 7.8
5/25/2021 9:15:00 PM 20.15 68.27 0.246 7.28 8.16 7.74
5/25/2021 9:30:00 PM 20.09 68.162 0.246 7.23 8.15 7.71
5/25/2021 9:45:00 PM 20.05 68.09 0.247 7.2 8.22 7.68
5/25/2021 10:00:00 PM 20.01 68.018 0.247 7.2 8.22 7.66
5/25/2021 10:15:00 PM 19.96 67.92799 0.248 7.18 8.29 7.65
5/25/2021 10:30:00 PM 19.92 67.856 0.249 7.15 8.13 7.62
5/25/2021 10:45:00 PM 19.88 67.784 0.249 7.15 7.61 7.64
5/25/2021 11:00:00 PM 19.85 67.73 0.249 7.15 7.85 7.63
5/25/2021 11:15:00 PM 19.81 67.658 0.25 7.14 7.51 7.66
5/25/2021 11:30:00 PM 19.75 67.55 0.25 7.13 7.57 7.65
5/25/2021 11:45:00 PM 19.71 67.478 0.25 7.13 7.67 7.67
5/26/2021 12:00:00 AM 19.66 67.388 0.251 7.11 7.78 7.68
5/26/2021 12:15:00 AM 19.6 67.28 0.252 7.12 7.8 7.68
5/26/2021 12:30:00 AM 19.55 67.19 0.252 7.1 7.77 7.71
5/26/2021 12:45:00 AM 19.49 67.082 0.253 7.11 7.85 7.74
5/26/2021 1:00:00 AM 19.42 66.956 0.253 7.12 7.88 7.72
5/26/2021 1:15:00 AM 19.36 66.848 0.254 7.1 7.91 7.73
5/26/2021 1:30:00 AM 19.29 66.722 0.254 7.11 7.79 7.73
5/26/2021 1:45:00 AM 19.21 66.578 0.255 7.11 7.94 7.78
5/26/2021 2:00:00 AM 19.14 66.452 0.255 7.11 8.13 7.81
5/26/2021 2:15:00 AM 19.06 66.308 0.255 7.11 8.18 7.83
5/26/2021 2:30:00 AM 18.99 66.182 0.256 7.11 8 7.87
5/26/2021 2:45:00 AM 18.91 66.038 0.256 7.11 8.23 7.88
5/26/2021 3:00:00 AM 18.85 65.93 0.256 7.1 8.08 7.89
5/26/2021 3:15:00 AM 18.77 65.786 0.256 7.09 8.19 7.93
5/26/2021 3:30:00 AM 18.69 65.642 0.256 7.1 8.35 7.95
5/26/2021 3:45:00 AM 18.62 65.516 0.256 7.09 8.16 7.97
5/26/2021 4:00:00 AM 18.54 65.372 0.256 7.09 8.11 7.97
5/26/2021 4:15:00 AM 18.47 65.246 0.256 7.1 8.13 8.01
5/26/2021 4:30:00 AM 18.39 65.102 0.252 7.09 8.2 8.01
5/26/2021 4:45:00 AM 18.32 64.976 0.257 7.11 8.37 8.02
5/26/2021 5:00:00 AM 18.24 64.832 0.257 7.09 7.87 8.02
5/26/2021 5:15:00 AM 18.17 64.706 0.257 7.11 7.84 8.05
5/26/2021 5:30:00 AM 18.1 64.58 0.256 7.11 7.7 8.06
5/26/2021 5:45:00 AM 18.03 64.454 0.256 7.1 7.65 8.15
5/26/2021 6:00:00 AM 17.96 64.328 0.256 7.12 8.4 8.26
5/26/2021 6:15:00 AM 17.9 64.22 0.256 7.13 8.47 8.39
5/26/2021 6:30:00 AM 17.85 64.13 0.256 7.18 8 8.59
5/26/2021 6:45:00 AM 17.81 64.058 0.256 7.22 8.57 8.77
5/26/2021 7:00:00 AM 17.79 64.022 0.255 7.25 7.93 8.94
5/26/2021 7:15:00 AM 17.79 64.022 0.255 7.33 8.12 9.25
5/26/2021 7:30:00 AM 17.81 64.058 0.254 7.4 8.05 9.59
5/26/2021 7:45:00 AM 17.86 64.148 0.254 7.53 8.04 9.95
5/26/2021 8:00:00 AM 17.93 64.274 0.253 7.71 8.08 10.36
5/26/2021 8:15:00 AM 17.95 64.31 0.253 7.76 7.98 10.48
5/26/2021 8:30:00 AM 18 64.4 0.253 7.9 8 10.75
5/26/2021 8:45:00 AM 18.1 64.58 0.252 8.05 7.98 11
5/26/2021 9:00:00 AM 18.15 64.67 0.252 8.14 8.03 11.18
5/26/2021 9:15:00 AM 18.31 64.958 0.252 8.27 8.04 11.39
5/26/2021 9:30:00 AM 18.51 65.318 0.252 8.4 8.11 11.59
5/26/2021 9:45:00 AM 18.68 65.624 0.252 8.47 8.34 11.73
5/26/2021 10:00:00 AM 18.95 66.11 0.251 8.57 8.47 11.95
5/26/2021 10:15:00 AM 19.05 66.29 0.25 8.59 8.44 12
5/26/2021 10:30:00 AM 19.09 66.362 0.25 8.61 7.44 11.99
5/26/2021 10:45:00 AM 19.37 66.866 0.25 8.7 7.33 12.16
5/26/2021 11:00:00 AM 19.72 67.496 0.25 8.78 7.95 12.31
5/26/2021 11:15:00 AM 20.03 68.054 0.25 8.82 8.03 12.36
5/26/2021 11:30:00 AM 20.15 68.27 0.248 8.8 8.39 12.28
5/26/2021 11:45:00 AM 20.42 68.756 0.249 8.87 8.84 12.31
5/26/2021 12:00:00 PM 20.65 69.17 0.248 8.9 9.38 12.19
5/26/2021 12:15:00 PM 20.93 69.674 0.248 8.91 10.03 12.14
5/26/2021 12:30:00 PM 21.21 70.17799 0.249 8.94 10.91 12.05
5/26/2021 12:45:00 PM 21.51 70.718 0.248 8.96 11.76 12
5/26/2021 1:00:00 PM 21.81 71.258 0.248 8.99 12.52 11.93
5/26/2021 1:15:00 PM 22.12 71.816 0.247 9.01 13.38 11.84
5/26/2021 1:30:00 PM 22.41 72.338 0.248 9.02 13.37 11.77
5/26/2021 1:45:00 PM 22.73 72.914 0.248 9.04 13.29 11.73
5/26/2021 2:00:00 PM 23 73.4 0.247 9.04 12.58 11.63
5/26/2021 2:15:00 PM 23.27 73.886 0.247 9.07 12.7 11.56
5/26/2021 2:30:00 PM 23.51 74.318 0.247 9.06 13.6 11.45
5/26/2021 2:45:00 PM 23.68 74.624 0.247 9.07 14.41 11.34
5/26/2021 3:00:00 PM 23.85 74.93 0.247 9.06 15.31 11.28
5/26/2021 3:15:00 PM 23.88 74.984 0.247 9.05 16.37 11.09
5/26/2021 3:30:00 PM 23.74 74.732 0.247 8.97 17.17 10.74
5/26/2021 3:45:00 PM 23.79 74.82201 0.246 8.95 17.42 10.78
5/26/2021 4:00:00 PM 23.89 75.002 0.246 9.01 17.97 10.81
5/26/2021 4:15:00 PM 23.66 74.588 0.246 8.83 17.95 9.99
5/26/2021 4:30:00 PM 23.54 74.372 0.247 8.72 15.65 9.63
5/26/2021 4:45:00 PM 23.29 73.922 0.244 8.56 15.44 9.2
5/26/2021 5:00:00 PM 23.33 73.994 0.244 8.66 15.96 9.52
5/26/2021 5:15:00 PM 23.37 74.066 0.243 8.71 14.47 9.68
5/26/2021 5:30:00 PM 23.34 74.012 0.244 8.68 14.07 9.68
5/26/2021 5:45:00 PM 23.39 74.102 0.245 8.7 14.27 9.55
5/26/2021 6:00:00 PM 23.31 73.958 0.248 8.6 14.26 9.35
5/26/2021 6:15:00 PM 23.24 73.832 0.248 8.55 13.93 9.33
5/26/2021 6:30:00 PM 23.13 73.634 0.249 8.42 12.57 8.96
5/26/2021 6:45:00 PM 23 73.4 0.25 8.12 11.33 8.25
5/26/2021 7:00:00 PM 22.89 73.202 0.251 7.87 7.06 7.78
5/26/2021 7:15:00 PM 22.79 73.022 0.249 7.64 6.68 7.42
5/26/2021 7:30:00 PM 22.59 72.662 0.243 7.43 6.82 7.4
5/26/2021 7:45:00 PM 22.39 72.302 0.239 7.28 7.11 7.27
5/26/2021 8:00:00 PM 22.26 72.068 0.237 7.18 7.46 7.08
5/26/2021 8:15:00 PM 22.2 71.96 0.23 7.15 11.67 7.15
5/26/2021 8:30:00 PM 22.02 71.636 0.225 7.08 34.09 6.97
5/26/2021 8:45:00 PM 21.85 71.33 0.226 7.02 41.05 6.88
5/26/2021 9:00:00 PM 21.72 71.096 0.231 6.99 29.32 6.76
5/26/2021 9:15:00 PM 21.65 70.97 0.241 7 23.19 6.81
5/26/2021 9:30:00 PM 21.6 70.88 0.245 7 16.89 6.77
5/26/2021 9:45:00 PM 21.54 70.772 0.25 7.01 13.95 6.82
5/26/2021 10:00:00 PM 21.48 70.664 0.256 6.99 15.02 6.88
5/26/2021 10:15:00 PM 21.38 70.484 0.261 7 14.7 6.88
5/26/2021 10:30:00 PM 21.31 70.358 0.254 6.99 14.16 6.86
5/26/2021 10:45:00 PM 21.26 70.268 0.248 6.99 13.21 6.89
5/26/2021 11:00:00 PM 21.21 70.17799 0.246 6.97 12.38 6.96
5/26/2021 11:15:00 PM 21.15 70.07 0.244 6.98 13.14 6.97
5/26/2021 11:30:00 PM 21.08 69.944 0.244 6.98 16.16 6.96
5/26/2021 11:45:00 PM 20.99 69.782 0.24 6.97 18.45 6.92
5/27/2021 12:00:00 AM 20.88 69.584 0.241 6.95 18.25 6.93
5/27/2021 12:15:00 AM 20.76 69.368 0.245 6.94 17.15 6.98
5/27/2021 12:30:00 AM 20.63 69.134 0.243 6.94 16.15 6.99
5/27/2021 12:45:00 AM 20.5 68.9 0.242 6.92 15.29 7.05
5/27/2021 1:00:00 AM 20.35 68.63 0.244 6.94 14.98 7.14
5/27/2021 1:15:00 AM 20.21 68.378 0.245 6.93 14.35 7.22
5/27/2021 1:30:00 AM 20.07 68.126 0.245 6.94 14.35 7.24
5/27/2021 1:45:00 AM 19.92 67.856 0.242 6.94 14.5 7.24
5/27/2021 2:00:00 AM 19.77 67.586 0.238 6.93 14.43 7.29
5/27/2021 2:15:00 AM 19.62 67.316 0.233 6.93 14.58 7.36
5/27/2021 2:30:00 AM 19.47 67.046 0.233 6.94 14.34 7.38
5/27/2021 2:45:00 AM 19.32 66.776 0.235 6.94 13.84 7.46
5/27/2021 3:00:00 AM 19.19 66.542 0.237 6.95 13.78 7.52
5/27/2021 3:15:00 AM 19.07 66.326 0.24 6.95 12.86 7.63
5/27/2021 3:30:00 AM 18.97 66.146 0.242 6.96 12.93 7.7
5/27/2021 3:45:00 AM 18.88 65.984 0.244 6.98 12.73 7.75
5/27/2021 4:00:00 AM 18.78 65.804 0.245 6.99 13.11 7.78
5/27/2021 4:15:00 AM 18.71 65.67799 0.246 7.01 12.97 7.84
5/27/2021 4:30:00 AM 18.65 65.57 0.247 7.02 12.27 7.85
5/27/2021 4:45:00 AM 18.59 65.462 0.249 7.01 12.41 7.86
5/27/2021 5:00:00 AM 18.54 65.372 0.25 7.04 12.43 7.94
5/27/2021 5:15:00 AM 18.5 65.3 0.251 7.04 12.72 7.93
5/27/2021 5:30:00 AM 18.46 65.228 0.252 7.1 12.59 7.74
5/27/2021 5:45:00 AM 18.42 65.156 0.253 7.09 12.6 7.86
5/27/2021 6:00:00 AM 18.38 65.084 0.255 7.11 12.87 7.75
5/27/2021 6:15:00 AM 18.34 65.012 0.256 7.08 12.83 8.16
5/27/2021 6:30:00 AM 18.31 64.958 0.256 7.1 12.27 8.25
5/27/2021 6:45:00 AM 18.3 64.94 0.256 7.13 12.62 8.39
5/27/2021 7:00:00 AM 18.3 64.94 0.256 7.15 12.67 8.55
5/27/2021 7:15:00 AM 18.29 64.922 0.255 7.17 13.92 8.62
5/27/2021 7:30:00 AM 18.32 64.976 0.255 7.21 11.8 8.84
5/27/2021 7:45:00 AM 18.35 65.03 0.255 7.26 11.79 9
5/27/2021 8:00:00 AM 18.42 65.156 0.256 7.33 11.9 9.2
5/27/2021 8:15:00 AM 18.49 65.282 0.256 7.41 12.57 9.41
5/27/2021 8:30:00 AM 18.5 65.3 0.256 7.41 12.54 9.38
5/27/2021 8:45:00 AM 18.47 65.246 0.256 7.39 12.29 9.33
5/27/2021 9:00:00 AM 18.64 65.552 0.255 7.56 12.2 9.8
5/27/2021 9:15:00 AM 18.75 65.75 0.254 7.62 12.23 9.94
5/27/2021 9:30:00 AM 18.83 65.894 0.252 7.69 12.13 10.05
5/27/2021 9:45:00 AM 18.95 66.11 0.251 7.73 12.14 10.12
5/27/2021 10:00:00 AM 19.05 66.29 0.251 7.81 12.14 10.19
5/27/2021 10:15:00 AM 19.07 66.326 0.25 7.79 11.89 10.16
5/27/2021 10:30:00 AM 19.12 66.416 0.249 7.82 11.93 10.21
5/27/2021 10:45:00 AM 19.25 66.65 0.249 7.88 12.27 10.3
5/27/2021 11:00:00 AM 19.43 66.974 0.25 7.97 12.11 10.39
5/27/2021 11:15:00 AM 19.65 67.37 0.25 8.05 12.13 10.46
5/27/2021 11:30:00 AM 19.87 67.766 0.25 8.11 12.1 10.5
5/27/2021 11:45:00 AM 20.07 68.126 0.25 8.16 11.96 10.49
5/27/2021 12:00:00 PM 20.27 68.486 0.249 8.2 12.44 10.5
5/27/2021 12:15:00 PM 20.5 68.9 0.248 8.25 12.22 10.5
5/27/2021 12:30:00 PM 20.74 69.332 0.247 8.29 12.47 10.49
5/27/2021 12:45:00 PM 20.99 69.782 0.246 8.34 12.29 10.48
5/27/2021 1:00:00 PM 21.23 70.214 0.246 8.39 12.29 10.47
5/27/2021 1:15:00 PM 21.46 70.628 0.244 8.42 12.14 10.49
5/27/2021 1:30:00 PM 21.7 71.06 0.243 8.45 13 10.43
5/27/2021 1:45:00 PM 21.92 71.456 0.242 8.47 12.45 10.39
5/27/2021 2:00:00 PM 22.11 71.798 0.241 8.5 12.77 10.36
5/27/2021 2:15:00 PM 22.31 72.158 0.24 8.52 13.49 10.31
5/27/2021 2:30:00 PM 22.48 72.464 0.239 8.51 13.1 10.23
5/27/2021 2:45:00 PM 22.62 72.716 0.238 8.53 13.36 10.18
5/27/2021 3:00:00 PM 22.73 72.914 0.237 8.53 13.01 10.12
5/27/2021 3:15:00 PM 22.82 73.076 0.236 8.53 12.95 10.02
5/27/2021 3:30:00 PM 22.85 73.13 0.235 8.49 12.57 9.94
5/27/2021 3:45:00 PM 22.91 73.238 0.234 8.49 13.03 9.93
5/27/2021 4:00:00 PM 22.82 73.076 0.235 8.45 13.09 9.74
5/27/2021 4:15:00 PM 22.79 73.022 0.234 8.39 15.31 9.61
5/27/2021 4:30:00 PM 22.74 72.932 0.234 8.37 13.55 9.54
5/27/2021 4:45:00 PM 22.67 72.806 0.233 8.32 13.66 9.48
5/27/2021 5:00:00 PM 22.59 72.662 0.233 8.27 12.75 9.37
5/27/2021 5:15:00 PM 22.51 72.518 0.233 8.2 12.64 9.26
5/27/2021 5:30:00 PM 22.41 72.338 0.232 8.13 12.76 9.07
5/27/2021 5:45:00 PM 22.31 72.158 0.232 8.03 12.79 8.93
5/27/2021 6:00:00 PM 22.19 71.942 0.231 7.94 12.79 8.9
5/27/2021 6:15:00 PM 22.07 71.726 0.231 7.88 13.24 8.84
5/27/2021 6:30:00 PM 21.95 71.51 0.231 7.83 13.27 8.86
5/27/2021 6:45:00 PM 21.77 71.186 0.231 7.69 13.44 8.67
5/27/2021 7:00:00 PM 21.59 70.862 0.231 7.53 13.59 8.43
5/27/2021 7:15:00 PM 21.43 70.574 0.231 7.4 13.52 8.28
5/27/2021 7:30:00 PM 21.25 70.25 0.231 7.31 13.49 8.13
5/27/2021 7:45:00 PM 21.09 69.962 0.231 7.25 13.55 7.96
5/27/2021 8:00:00 PM 20.92 69.656 0.231 7.19 13.52 7.83
5/27/2021 8:15:00 PM 20.75 69.35 0.231 7.16 13.57 7.82
5/27/2021 8:30:00 PM 20.58 69.044 0.231 7.13 13.75 7.79
5/27/2021 8:45:00 PM 20.41 68.738 0.231 7.09 39.78 7.62
5/27/2021 9:00:00 PM 20.26 68.468 0.231 7.08 15.21 7.78
5/27/2021 9:15:00 PM 20.07 68.126 0.231 7.07 15.59 7.74
5/27/2021 9:30:00 PM 19.92 67.856 0.23 7.06 13.77 7.77
5/27/2021 9:45:00 PM 19.76 67.568 0.231 7.05 13.84 7.79
5/27/2021 10:00:00 PM 19.6 67.28 0.231 7.04 14.32 7.81
5/27/2021 10:15:00 PM 19.44 66.992 0.231 7.05 13.96 7.84
5/27/2021 10:30:00 PM 19.29 66.722 0.231 7.02 13.99 7.86
5/27/2021 10:45:00 PM 19.15 66.47 0.231 7.04 14.12 7.89
5/27/2021 11:00:00 PM 19 66.2 0.231 7.03 14.18 7.91
5/27/2021 11:15:00 PM 18.87 65.966 0.231 7.03 14.25 7.93
5/27/2021 11:30:00 PM 18.75 65.75 0.231 7.04 14.21 7.97
5/27/2021 11:45:00 PM 18.6 65.48 0.231 7.04 14.37 7.97
5/28/2021 12:00:00 AM 18.47 65.246 0.231 7.03 14.35 7.99
5/28/2021 12:15:00 AM 18.34 65.012 0.231 7.04 14.31 7.98
5/28/2021 12:30:00 AM 18.22 64.796 0.231 7.03 14.46 8.04
5/28/2021 12:45:00 AM 18.13 64.634 0.231 7.04 14.4 8.06
5/28/2021 1:00:00 AM 18.03 64.454 0.231 7.04 14.21 8.11
5/28/2021 1:15:00 AM 17.94 64.292 0.231 7.05 14.51 8.14
5/28/2021 1:30:00 AM 17.85 64.13 0.23 7.06 14.5 8.17
5/28/2021 1:45:00 AM 17.77 63.986 0.23 7.06 14.65 8.18
5/28/2021 2:00:00 AM 17.68 63.824 0.231 7.06 14.87 8.21
5/28/2021 2:15:00 AM 17.63 63.734 0.23 7.08 14.87 8.24
5/28/2021 2:30:00 AM 17.53 63.554 0.23 7.06 14.76 8.24
5/28/2021 2:45:00 AM 17.48 63.464 0.23 7.07 14.84 8.25
5/28/2021 3:00:00 AM 17.42 63.356 0.229 7.07 14.9 8.28
5/28/2021 3:15:00 AM 17.35 63.23 0.23 7.07 15.08 8.28
5/28/2021 3:30:00 AM 17.29 63.122 0.229 7.08 15.11 8.28
5/28/2021 3:45:00 AM 17.22 62.996 0.229 7.07 15.37 8.32
5/28/2021 4:00:00 AM 17.17 62.906 0.229 7.07 14.45 8.35
5/28/2021 4:15:00 AM 17.11 62.798 0.229 7.09 14.9 8.33
5/28/2021 4:30:00 AM 17.05 62.69 0.229 7.07 18.84 8.36
5/28/2021 4:45:00 AM 17 62.6 0.229 7.08 14.87 8.41
5/28/2021 5:00:00 AM 16.92 62.456 0.229 7.08 13.25 8.4
5/28/2021 5:15:00 AM 16.85 62.33 0.229 7.08 12.8 8.41
5/28/2021 5:30:00 AM 16.8 62.24 0.229 7.08 15.22 8.46
5/28/2021 5:45:00 AM 16.74 62.132 0.229 7.09 11.8 8.44
5/28/2021 6:00:00 AM 16.67 62.006 0.229 7.09 11.83 8.49
5/28/2021 6:15:00 AM 16.6 61.88 0.229 7.09 11.98 8.57
5/28/2021 6:30:00 AM 16.54 61.772 0.229 7.11 12.01 8.69
5/28/2021 6:45:00 AM 16.52 61.736 0.228 7.16 12.78 8.94
5/28/2021 7:00:00 AM 16.5 61.7 0.228 7.22 11.71 9.19
5/28/2021 7:15:00 AM 16.52 61.736 0.228 7.29 11.72 9.45
5/28/2021 7:30:00 AM 16.54 61.772 0.228 7.35 11.79 9.71
5/28/2021 7:45:00 AM 16.55 61.79 0.227 7.38 11.76 9.84
5/28/2021 8:00:00 AM 16.59 61.862 0.227 7.47 12.43 10.08
5/28/2021 8:15:00 AM 16.61 61.898 0.226 7.51 11.72 10.1
5/28/2021 8:30:00 AM 16.61 61.898 0.226 7.5 12.19 10.07
5/28/2021 8:45:00 AM 16.6 61.88 0.226 7.49 11.73 9.99
5/28/2021 9:00:00 AM 16.62 61.916 0.226 7.53 11.88 10.09
5/28/2021 9:15:00 AM 16.64 61.952 0.226 7.59 11.83 10.22
5/28/2021 9:30:00 AM 16.64 61.952 0.227 7.62 11.83 10.3
5